<?xml version="1.0" encoding="UTF-8" standalone="no" ?>
<gpx xmlns="http://www.topografix.com/GPX/1/1" xmlns:xsi="http://www.w3.org/2001/XMLSchema-instance" xsi:schemaLocation="http://www.topografix.com/GPX/1/1 http://www.topografix.com/GPX/1/1/gpx.xsd" version="1.1" creator="VisuGPX - https://www.visugpx.com">
  <metadata>
    <name>Aydius (4 kms en amont) au col de la Tailandère</name>
    <desc><![CDATA[Reconnaissance pour prochaine sortie lac de Montagnon]]></desc>
  </metadata>
  <wpt lat="42.97873" lon="-0.49835">
    <ele>1585</ele>
    <name><![CDATA[Cabane-Cure-De]]></name>
    <desc><![CDATA[Cabane-Cure-Det-Cam-1585m]]></desc>
  </wpt>
  <wpt lat="42.99452" lon="-0.50734">
    <ele>1090</ele>
    <name><![CDATA[cairn de départ mario]]></name>
    <desc><![CDATA[28-AOU-11 16:50:38]]></desc>
  </wpt>
  <wpt lat="42.96914" lon="-0.49097">
    <ele>1835.989502</ele>
    <name><![CDATA[Col-Taillandèr]]></name>
    <desc><![CDATA[Col-Taillandère-1836m]]></desc>
  </wpt>
  <wpt lat="43.00175" lon="-0.5161">
    <ele>849</ele>
    <name><![CDATA[DEPART]]></name>
    <desc><![CDATA[28-AOU-11 10:38:14]]></desc>
  </wpt>
  <wpt lat="42.96731" lon="-0.49535">
    <ele>2003.017334</ele>
    <name><![CDATA[Lac-Montagnon-]]></name>
    <desc><![CDATA[Lac-Montagnon-2003m]]></desc>
  </wpt>
  <wpt lat="42.9659" lon="-0.49104">
    <ele>-0.11438</ele>
    <name><![CDATA[L'Escala]]></name>
  </wpt>
  <wpt lat="42.96931" lon="-0.49784">
    <ele>2172.929199</ele>
    <name><![CDATA[Montagnon-D-Is]]></name>
    <desc><![CDATA[Montagnon-D-Iseye-2173m]]></desc>
  </wpt>
  <wpt lat="42.96543" lon="-0.49878">
    <ele>2188.069824</ele>
    <name><![CDATA[Pic-Mardas-218]]></name>
    <desc><![CDATA[Pic-Mardas-2188m]]></desc>
  </wpt>
  <trk>
    <name><![CDATA[ACTIVE LOG 001]]></name>
    <trkseg>
      <trkpt lat="43.00168" lon="-0.51605">
        <ele>847.058838</ele>
        <time>2011-08-28T08:37:41Z</time>
      </trkpt>
      <trkpt lat="43.00168" lon="-0.51605">
        <ele>847.058838</ele>
        <time>2011-08-28T08:37:42Z</time>
      </trkpt>
      <trkpt lat="43.0017" lon="-0.51604">
        <ele>850.423584</ele>
        <time>2011-08-28T08:37:56Z</time>
      </trkpt>
      <trkpt lat="43.0017" lon="-0.51605">
        <ele>845.616943</ele>
        <time>2011-08-28T08:37:57Z</time>
      </trkpt>
      <trkpt lat="43.0017" lon="-0.51605">
        <ele>848.981445</ele>
        <time>2011-08-28T08:37:58Z</time>
      </trkpt>
      <trkpt lat="43.00175" lon="-0.51611">
        <ele>849.462158</ele>
        <time>2011-08-28T08:38:16Z</time>
      </trkpt>
      <trkpt lat="43.00179" lon="-0.51616">
        <ele>848.981445</ele>
        <time>2011-08-28T08:38:26Z</time>
      </trkpt>
      <trkpt lat="43.0018" lon="-0.51617">
        <ele>848.981445</ele>
        <time>2011-08-28T08:38:28Z</time>
      </trkpt>
      <trkpt lat="43.00187" lon="-0.51623">
        <ele>850.423584</ele>
        <time>2011-08-28T08:38:35Z</time>
      </trkpt>
      <trkpt lat="43.00187" lon="-0.51623">
        <ele>850.423584</ele>
        <time>2011-08-28T08:38:36Z</time>
      </trkpt>
      <trkpt lat="43.00195" lon="-0.51624">
        <ele>850.904053</ele>
        <time>2011-08-28T08:38:45Z</time>
      </trkpt>
      <trkpt lat="43.00197" lon="-0.51625">
        <ele>851.865479</ele>
        <time>2011-08-28T08:38:47Z</time>
      </trkpt>
      <trkpt lat="43.00209" lon="-0.5163">
        <ele>850.904053</ele>
        <time>2011-08-28T08:39:01Z</time>
      </trkpt>
      <trkpt lat="43.00216" lon="-0.51631">
        <ele>852.82666</ele>
        <time>2011-08-28T08:39:11Z</time>
      </trkpt>
      <trkpt lat="43.00219" lon="-0.5163">
        <ele>853.788086</ele>
        <time>2011-08-28T08:39:14Z</time>
      </trkpt>
      <trkpt lat="43.00229" lon="-0.51628">
        <ele>855.22998</ele>
        <time>2011-08-28T08:39:25Z</time>
      </trkpt>
      <trkpt lat="43.00231" lon="-0.51631">
        <ele>855.22998</ele>
        <time>2011-08-28T08:39:42Z</time>
      </trkpt>
      <trkpt lat="43.00245" lon="-0.51631">
        <ele>858.114014</ele>
        <time>2011-08-28T08:39:57Z</time>
      </trkpt>
      <trkpt lat="43.00263" lon="-0.51634">
        <ele>860.036621</ele>
        <time>2011-08-28T08:40:16Z</time>
      </trkpt>
      <trkpt lat="43.00277" lon="-0.51631">
        <ele>861.959473</ele>
        <time>2011-08-28T08:40:31Z</time>
      </trkpt>
      <trkpt lat="43.00289" lon="-0.51627">
        <ele>864.362549</ele>
        <time>2011-08-28T08:40:44Z</time>
      </trkpt>
      <trkpt lat="43.00305" lon="-0.51619">
        <ele>866.765869</ele>
        <time>2011-08-28T08:41:01Z</time>
      </trkpt>
      <trkpt lat="43.00321" lon="-0.51603">
        <ele>868.207764</ele>
        <time>2011-08-28T08:41:22Z</time>
      </trkpt>
      <trkpt lat="43.00324" lon="-0.51596">
        <ele>869.169189</ele>
        <time>2011-08-28T08:41:28Z</time>
      </trkpt>
      <trkpt lat="43.00326" lon="-0.51579">
        <ele>870.611084</ele>
        <time>2011-08-28T08:41:39Z</time>
      </trkpt>
      <trkpt lat="43.00331" lon="-0.51557">
        <ele>872.052979</ele>
        <time>2011-08-28T08:41:55Z</time>
      </trkpt>
      <trkpt lat="43.00335" lon="-0.5155">
        <ele>873.014404</ele>
        <time>2011-08-28T08:42:02Z</time>
      </trkpt>
      <trkpt lat="43.00348" lon="-0.51547">
        <ele>874.937012</ele>
        <time>2011-08-28T08:42:14Z</time>
      </trkpt>
      <trkpt lat="43.00358" lon="-0.51549">
        <ele>877.340576</ele>
        <time>2011-08-28T08:42:25Z</time>
      </trkpt>
      <trkpt lat="43.0038" lon="-0.5155">
        <ele>879.262939</ele>
        <time>2011-08-28T08:42:45Z</time>
      </trkpt>
      <trkpt lat="43.00392" lon="-0.51552">
        <ele>880.224365</ele>
        <time>2011-08-28T08:42:57Z</time>
      </trkpt>
      <trkpt lat="43.00406" lon="-0.51566">
        <ele>882.627686</ele>
        <time>2011-08-28T08:43:15Z</time>
      </trkpt>
      <trkpt lat="43.00421" lon="-0.51563">
        <ele>884.550293</ele>
        <time>2011-08-28T08:43:30Z</time>
      </trkpt>
      <trkpt lat="43.00443" lon="-0.51561">
        <ele>887.434082</ele>
        <time>2011-08-28T08:43:52Z</time>
      </trkpt>
      <trkpt lat="43.00461" lon="-0.51554">
        <ele>890.798584</ele>
        <time>2011-08-28T08:44:12Z</time>
      </trkpt>
      <trkpt lat="43.0048" lon="-0.51544">
        <ele>893.202148</ele>
        <time>2011-08-28T08:44:33Z</time>
      </trkpt>
      <trkpt lat="43.00499" lon="-0.51534">
        <ele>895.605469</ele>
        <time>2011-08-28T08:44:54Z</time>
      </trkpt>
      <trkpt lat="43.00518" lon="-0.51521">
        <ele>898.008789</ele>
        <time>2011-08-28T08:45:14Z</time>
      </trkpt>
      <trkpt lat="43.00534" lon="-0.51504">
        <ele>900.892578</ele>
        <time>2011-08-28T08:45:34Z</time>
      </trkpt>
      <trkpt lat="43.0055" lon="-0.51488">
        <ele>903.295898</ele>
        <time>2011-08-28T08:45:55Z</time>
      </trkpt>
      <trkpt lat="43.00561" lon="-0.51474">
        <ele>904.737793</ele>
        <time>2011-08-28T08:46:10Z</time>
      </trkpt>
      <trkpt lat="43.00572" lon="-0.51463">
        <ele>906.179688</ele>
        <time>2011-08-28T08:46:24Z</time>
      </trkpt>
      <trkpt lat="43.00585" lon="-0.51448">
        <ele>906.6604</ele>
        <time>2011-08-28T08:46:39Z</time>
      </trkpt>
      <trkpt lat="43.00601" lon="-0.51433">
        <ele>907.621826</ele>
        <time>2011-08-28T08:46:57Z</time>
      </trkpt>
      <trkpt lat="43.00611" lon="-0.51416">
        <ele>908.583252</ele>
        <time>2011-08-28T08:47:12Z</time>
      </trkpt>
      <trkpt lat="43.00612" lon="-0.5141">
        <ele>909.544678</ele>
        <time>2011-08-28T08:47:17Z</time>
      </trkpt>
      <trkpt lat="43.00618" lon="-0.51386">
        <ele>910.505859</ele>
        <time>2011-08-28T08:47:35Z</time>
      </trkpt>
      <trkpt lat="43.00624" lon="-0.51365">
        <ele>910.986572</ele>
        <time>2011-08-28T08:47:50Z</time>
      </trkpt>
      <trkpt lat="43.00619" lon="-0.51347">
        <ele>912.428467</ele>
        <time>2011-08-28T08:48:02Z</time>
      </trkpt>
      <trkpt lat="43.00616" lon="-0.51346">
        <ele>912.90918</ele>
        <time>2011-08-28T08:48:05Z</time>
      </trkpt>
      <trkpt lat="43.00611" lon="-0.51372">
        <ele>913.870361</ele>
        <time>2011-08-28T08:48:21Z</time>
      </trkpt>
      <trkpt lat="43.00605" lon="-0.51399">
        <ele>916.273682</ele>
        <time>2011-08-28T08:48:42Z</time>
      </trkpt>
      <trkpt lat="43.00598" lon="-0.51415">
        <ele>916.754395</ele>
        <time>2011-08-28T08:48:56Z</time>
      </trkpt>
      <trkpt lat="43.00578" lon="-0.5143">
        <ele>917.715576</ele>
        <time>2011-08-28T08:49:17Z</time>
      </trkpt>
      <trkpt lat="43.00562" lon="-0.51446">
        <ele>919.157715</ele>
        <time>2011-08-28T08:49:36Z</time>
      </trkpt>
      <trkpt lat="43.00543" lon="-0.51461">
        <ele>920.599609</ele>
        <time>2011-08-28T08:49:56Z</time>
      </trkpt>
      <trkpt lat="43.00523" lon="-0.51471">
        <ele>921.560791</ele>
        <time>2011-08-28T08:50:16Z</time>
      </trkpt>
      <trkpt lat="43.00502" lon="-0.51477">
        <ele>923.964111</ele>
        <time>2011-08-28T08:50:37Z</time>
      </trkpt>
      <trkpt lat="43.00485" lon="-0.51478">
        <ele>925.40625</ele>
        <time>2011-08-28T08:50:54Z</time>
      </trkpt>
      <trkpt lat="43.00466" lon="-0.51477">
        <ele>927.329102</ele>
        <time>2011-08-28T08:51:13Z</time>
      </trkpt>
      <trkpt lat="43.00447" lon="-0.51472">
        <ele>929.251465</ele>
        <time>2011-08-28T08:51:33Z</time>
      </trkpt>
      <trkpt lat="43.00426" lon="-0.51467">
        <ele>931.654785</ele>
        <time>2011-08-28T08:51:54Z</time>
      </trkpt>
      <trkpt lat="43.00408" lon="-0.51457">
        <ele>934.058105</ele>
        <time>2011-08-28T08:52:14Z</time>
      </trkpt>
      <trkpt lat="43.0039" lon="-0.51444">
        <ele>935.980713</ele>
        <time>2011-08-28T08:52:34Z</time>
      </trkpt>
      <trkpt lat="43.0037" lon="-0.51432">
        <ele>938.864746</ele>
        <time>2011-08-28T08:52:56Z</time>
      </trkpt>
      <trkpt lat="43.00352" lon="-0.51418">
        <ele>940.787354</ele>
        <time>2011-08-28T08:53:15Z</time>
      </trkpt>
      <trkpt lat="43.00334" lon="-0.51403">
        <ele>942.710205</ele>
        <time>2011-08-28T08:53:35Z</time>
      </trkpt>
      <trkpt lat="43.00317" lon="-0.5139">
        <ele>945.593994</ele>
        <time>2011-08-28T08:53:54Z</time>
      </trkpt>
      <trkpt lat="43.00306" lon="-0.51383">
        <ele>948.477783</ele>
        <time>2011-08-28T08:54:06Z</time>
      </trkpt>
      <trkpt lat="43.00305" lon="-0.51382">
        <ele>945.113281</ele>
        <time>2011-08-28T08:54:07Z</time>
      </trkpt>
      <trkpt lat="43.00305" lon="-0.51381">
        <ele>947.997314</ele>
        <time>2011-08-28T08:54:08Z</time>
      </trkpt>
      <trkpt lat="43.00295" lon="-0.51374">
        <ele>949.439209</ele>
        <time>2011-08-28T08:54:20Z</time>
      </trkpt>
      <trkpt lat="43.00286" lon="-0.51364">
        <ele>949.919922</ele>
        <time>2011-08-28T08:54:32Z</time>
      </trkpt>
      <trkpt lat="43.0027" lon="-0.51349">
        <ele>951.361816</ele>
        <time>2011-08-28T08:54:50Z</time>
      </trkpt>
      <trkpt lat="43.00252" lon="-0.51335">
        <ele>953.284424</ele>
        <time>2011-08-28T08:55:09Z</time>
      </trkpt>
      <trkpt lat="43.00232" lon="-0.51321">
        <ele>955.207031</ele>
        <time>2011-08-28T08:55:29Z</time>
      </trkpt>
      <trkpt lat="43.00211" lon="-0.51302">
        <ele>957.129883</ele>
        <time>2011-08-28T08:55:52Z</time>
      </trkpt>
      <trkpt lat="43.00212" lon="-0.51282">
        <ele>958.091309</ele>
        <time>2011-08-28T08:56:09Z</time>
      </trkpt>
      <trkpt lat="43.00218" lon="-0.51264">
        <ele>960.975098</ele>
        <time>2011-08-28T08:56:24Z</time>
      </trkpt>
      <trkpt lat="43.00219" lon="-0.51238">
        <ele>963.378418</ele>
        <time>2011-08-28T08:56:42Z</time>
      </trkpt>
      <trkpt lat="43.00219" lon="-0.51215">
        <ele>966.262207</ele>
        <time>2011-08-28T08:57:00Z</time>
      </trkpt>
      <trkpt lat="43.0022" lon="-0.51207">
        <ele>967.223633</ele>
        <time>2011-08-28T08:57:06Z</time>
      </trkpt>
      <trkpt lat="43.00232" lon="-0.51179">
        <ele>968.184814</ele>
        <time>2011-08-28T08:57:25Z</time>
      </trkpt>
      <trkpt lat="43.00244" lon="-0.51157">
        <ele>969.14624</ele>
        <time>2011-08-28T08:57:44Z</time>
      </trkpt>
      <trkpt lat="43.00246" lon="-0.51128">
        <ele>969.626953</ele>
        <time>2011-08-28T08:58:03Z</time>
      </trkpt>
      <trkpt lat="43.00242" lon="-0.51124">
        <ele>969.626953</ele>
        <time>2011-08-28T08:58:07Z</time>
      </trkpt>
      <trkpt lat="43.00236" lon="-0.51123">
        <ele>971.549316</ele>
        <time>2011-08-28T08:58:13Z</time>
      </trkpt>
      <trkpt lat="43.00216" lon="-0.51121">
        <ele>973.472412</ele>
        <time>2011-08-28T08:58:32Z</time>
      </trkpt>
      <trkpt lat="43.00198" lon="-0.51121">
        <ele>975.875488</ele>
        <time>2011-08-28T08:58:50Z</time>
      </trkpt>
      <trkpt lat="43.00179" lon="-0.51117">
        <ele>977.317627</ele>
        <time>2011-08-28T08:59:10Z</time>
      </trkpt>
      <trkpt lat="43.00164" lon="-0.51114">
        <ele>980.682129</ele>
        <time>2011-08-28T08:59:24Z</time>
      </trkpt>
      <trkpt lat="43.0015" lon="-0.51105">
        <ele>982.604736</ele>
        <time>2011-08-28T08:59:41Z</time>
      </trkpt>
      <trkpt lat="43.00134" lon="-0.51087">
        <ele>984.046631</ele>
        <time>2011-08-28T09:00:01Z</time>
      </trkpt>
      <trkpt lat="43.00112" lon="-0.51069">
        <ele>985.488525</ele>
        <time>2011-08-28T09:00:24Z</time>
      </trkpt>
      <trkpt lat="43.001" lon="-0.5106">
        <ele>987.411133</ele>
        <time>2011-08-28T09:00:37Z</time>
      </trkpt>
      <trkpt lat="43.00084" lon="-0.51044">
        <ele>989.814697</ele>
        <time>2011-08-28T09:00:58Z</time>
      </trkpt>
      <trkpt lat="43.00068" lon="-0.51026">
        <ele>992.218018</ele>
        <time>2011-08-28T09:01:19Z</time>
      </trkpt>
      <trkpt lat="43.00053" lon="-0.51005">
        <ele>993.179199</ele>
        <time>2011-08-28T09:01:39Z</time>
      </trkpt>
      <trkpt lat="43.00043" lon="-0.50982">
        <ele>994.621094</ele>
        <time>2011-08-28T09:01:58Z</time>
      </trkpt>
      <trkpt lat="43.0003" lon="-0.5096">
        <ele>996.543945</ele>
        <time>2011-08-28T09:02:18Z</time>
      </trkpt>
      <trkpt lat="43.00018" lon="-0.50943">
        <ele>997.98584</ele>
        <time>2011-08-28T09:02:35Z</time>
      </trkpt>
      <trkpt lat="43.00006" lon="-0.50925">
        <ele>999.908447</ele>
        <time>2011-08-28T09:02:53Z</time>
      </trkpt>
      <trkpt lat="42.99995" lon="-0.50903">
        <ele>1000.869629</ele>
        <time>2011-08-28T09:03:13Z</time>
      </trkpt>
      <trkpt lat="42.99985" lon="-0.50876">
        <ele>1001.350342</ele>
        <time>2011-08-28T09:03:33Z</time>
      </trkpt>
      <trkpt lat="42.99964" lon="-0.50871">
        <ele>1001.831055</ele>
        <time>2011-08-28T09:03:51Z</time>
      </trkpt>
      <trkpt lat="42.99945" lon="-0.5088">
        <ele>1003.753662</ele>
        <time>2011-08-28T09:04:10Z</time>
      </trkpt>
      <trkpt lat="42.99935" lon="-0.50887">
        <ele>1005.195801</ele>
        <time>2011-08-28T09:04:21Z</time>
      </trkpt>
      <trkpt lat="42.99916" lon="-0.50901">
        <ele>1007.118408</ele>
        <time>2011-08-28T09:04:42Z</time>
      </trkpt>
      <trkpt lat="42.99896" lon="-0.50902">
        <ele>1008.079834</ele>
        <time>2011-08-28T09:05:01Z</time>
      </trkpt>
      <trkpt lat="42.99879" lon="-0.50898">
        <ele>1010.48291</ele>
        <time>2011-08-28T09:05:17Z</time>
      </trkpt>
      <trkpt lat="42.99869" lon="-0.50887">
        <ele>1010.963623</ele>
        <time>2011-08-28T09:05:30Z</time>
      </trkpt>
      <trkpt lat="42.99866" lon="-0.50879">
        <ele>1011.444336</ele>
        <time>2011-08-28T09:05:36Z</time>
      </trkpt>
      <trkpt lat="42.99864" lon="-0.50856">
        <ele>1014.328125</ele>
        <time>2011-08-28T09:05:52Z</time>
      </trkpt>
      <trkpt lat="42.99867" lon="-0.50835">
        <ele>1015.289551</ele>
        <time>2011-08-28T09:06:09Z</time>
      </trkpt>
      <trkpt lat="42.99863" lon="-0.50814">
        <ele>1016.250732</ele>
        <time>2011-08-28T09:06:26Z</time>
      </trkpt>
      <trkpt lat="42.9985" lon="-0.50794">
        <ele>1019.615479</ele>
        <time>2011-08-28T09:06:44Z</time>
      </trkpt>
      <trkpt lat="42.99836" lon="-0.50782">
        <ele>1021.057617</ele>
        <time>2011-08-28T09:07:02Z</time>
      </trkpt>
      <trkpt lat="42.99832" lon="-0.50777">
        <ele>1021.057617</ele>
        <time>2011-08-28T09:07:08Z</time>
      </trkpt>
      <trkpt lat="42.99823" lon="-0.50755">
        <ele>1023.460938</ele>
        <time>2011-08-28T09:07:26Z</time>
      </trkpt>
      <trkpt lat="42.99816" lon="-0.50736">
        <ele>1024.422119</ele>
        <time>2011-08-28T09:07:43Z</time>
      </trkpt>
      <trkpt lat="42.99805" lon="-0.50715">
        <ele>1027.306152</ele>
        <time>2011-08-28T09:08:01Z</time>
      </trkpt>
      <trkpt lat="42.99797" lon="-0.50691">
        <ele>1030.189941</ele>
        <time>2011-08-28T09:08:21Z</time>
      </trkpt>
      <trkpt lat="42.99797" lon="-0.50689">
        <ele>1029.709229</ele>
        <time>2011-08-28T09:08:22Z</time>
      </trkpt>
      <trkpt lat="42.99794" lon="-0.50684">
        <ele>1030.189941</ele>
        <time>2011-08-28T09:08:27Z</time>
      </trkpt>
      <trkpt lat="42.99791" lon="-0.50674">
        <ele>1031.631836</ele>
        <time>2011-08-28T09:08:35Z</time>
      </trkpt>
      <trkpt lat="42.99776" lon="-0.50655">
        <ele>1033.07373</ele>
        <time>2011-08-28T09:08:53Z</time>
      </trkpt>
      <trkpt lat="42.99766" lon="-0.50635">
        <ele>1036.438721</ele>
        <time>2011-08-28T09:09:10Z</time>
      </trkpt>
      <trkpt lat="42.99766" lon="-0.50634">
        <ele>1036.438721</ele>
        <time>2011-08-28T09:09:11Z</time>
      </trkpt>
      <trkpt lat="42.99764" lon="-0.50633">
        <ele>1034.996582</ele>
        <time>2011-08-28T09:09:13Z</time>
      </trkpt>
      <trkpt lat="42.99748" lon="-0.50628">
        <ele>1036.438721</ele>
        <time>2011-08-28T09:09:30Z</time>
      </trkpt>
      <trkpt lat="42.99736" lon="-0.50624">
        <ele>1034.996582</ele>
        <time>2011-08-28T09:09:42Z</time>
      </trkpt>
      <trkpt lat="42.99718" lon="-0.50612">
        <ele>1033.554443</ele>
        <time>2011-08-28T09:10:01Z</time>
      </trkpt>
      <trkpt lat="42.997" lon="-0.50593">
        <ele>1032.112549</ele>
        <time>2011-08-28T09:10:22Z</time>
      </trkpt>
      <trkpt lat="42.99683" lon="-0.50574">
        <ele>1031.151367</ele>
        <time>2011-08-28T09:10:42Z</time>
      </trkpt>
      <trkpt lat="42.99664" lon="-0.50554">
        <ele>1029.709229</ele>
        <time>2011-08-28T09:11:03Z</time>
      </trkpt>
      <trkpt lat="42.99646" lon="-0.50531">
        <ele>1029.709229</ele>
        <time>2011-08-28T09:11:24Z</time>
      </trkpt>
      <trkpt lat="42.99643" lon="-0.50527">
        <ele>1029.709229</ele>
        <time>2011-08-28T09:11:28Z</time>
      </trkpt>
      <trkpt lat="42.99641" lon="-0.50522">
        <ele>1029.709229</ele>
        <time>2011-08-28T09:11:32Z</time>
      </trkpt>
      <trkpt lat="42.99635" lon="-0.50509">
        <ele>1031.151367</ele>
        <time>2011-08-28T09:11:43Z</time>
      </trkpt>
      <trkpt lat="42.99631" lon="-0.50481">
        <ele>1032.112549</ele>
        <time>2011-08-28T09:12:03Z</time>
      </trkpt>
      <trkpt lat="42.99625" lon="-0.50471">
        <ele>1033.07373</ele>
        <time>2011-08-28T09:12:13Z</time>
      </trkpt>
      <trkpt lat="42.99614" lon="-0.50448">
        <ele>1034.515869</ele>
        <time>2011-08-28T09:12:32Z</time>
      </trkpt>
      <trkpt lat="42.99611" lon="-0.50432">
        <ele>1035.477051</ele>
        <time>2011-08-28T09:12:43Z</time>
      </trkpt>
      <trkpt lat="42.99602" lon="-0.50408">
        <ele>1036.438721</ele>
        <time>2011-08-28T09:13:01Z</time>
      </trkpt>
      <trkpt lat="42.99592" lon="-0.5039">
        <ele>1036.919189</ele>
        <time>2011-08-28T09:13:17Z</time>
      </trkpt>
      <trkpt lat="42.99586" lon="-0.50386">
        <ele>1038.361328</ele>
        <time>2011-08-28T09:13:30Z</time>
      </trkpt>
      <trkpt lat="42.99584" lon="-0.50393">
        <ele>1037.399902</ele>
        <time>2011-08-28T09:13:37Z</time>
      </trkpt>
      <trkpt lat="42.99583" lon="-0.50398">
        <ele>1037.399902</ele>
        <time>2011-08-28T09:13:41Z</time>
      </trkpt>
      <trkpt lat="42.99598" lon="-0.50431">
        <ele>1037.880615</ele>
        <time>2011-08-28T09:13:57Z</time>
      </trkpt>
      <trkpt lat="42.99612" lon="-0.50458">
        <ele>1038.842041</ele>
        <time>2011-08-28T09:14:12Z</time>
      </trkpt>
      <trkpt lat="42.99613" lon="-0.5048">
        <ele>1040.283936</ele>
        <time>2011-08-28T09:14:32Z</time>
      </trkpt>
      <trkpt lat="42.99609" lon="-0.50498">
        <ele>1041.72583</ele>
        <time>2011-08-28T09:14:49Z</time>
      </trkpt>
      <trkpt lat="42.99609" lon="-0.50514">
        <ele>1042.687256</ele>
        <time>2011-08-28T09:14:59Z</time>
      </trkpt>
      <trkpt lat="42.99604" lon="-0.5054">
        <ele>1045.571045</ele>
        <time>2011-08-28T09:15:22Z</time>
      </trkpt>
      <trkpt lat="42.99598" lon="-0.5056">
        <ele>1047.974365</ele>
        <time>2011-08-28T09:15:39Z</time>
      </trkpt>
      <trkpt lat="42.99594" lon="-0.50577">
        <ele>1048.935547</ele>
        <time>2011-08-28T09:15:55Z</time>
      </trkpt>
      <trkpt lat="42.99604" lon="-0.50596">
        <ele>1051.81958</ele>
        <time>2011-08-28T09:16:10Z</time>
      </trkpt>
      <trkpt lat="42.99604" lon="-0.50597">
        <ele>1051.338867</ele>
        <time>2011-08-28T09:16:11Z</time>
      </trkpt>
      <trkpt lat="42.99605" lon="-0.50613">
        <ele>1052.781006</ele>
        <time>2011-08-28T09:16:22Z</time>
      </trkpt>
      <trkpt lat="42.9961" lon="-0.50639">
        <ele>1054.703613</ele>
        <time>2011-08-28T09:16:39Z</time>
      </trkpt>
      <trkpt lat="42.99615" lon="-0.5067">
        <ele>1057.106934</ele>
        <time>2011-08-28T09:16:57Z</time>
      </trkpt>
      <trkpt lat="42.99609" lon="-0.50675">
        <ele>1058.548828</ele>
        <time>2011-08-28T09:17:04Z</time>
      </trkpt>
      <trkpt lat="42.99594" lon="-0.50683">
        <ele>1059.029541</ele>
        <time>2011-08-28T09:17:19Z</time>
      </trkpt>
      <trkpt lat="42.99573" lon="-0.50689">
        <ele>1059.029541</ele>
        <time>2011-08-28T09:17:36Z</time>
      </trkpt>
      <trkpt lat="42.99554" lon="-0.50698">
        <ele>1059.029541</ele>
        <time>2011-08-28T09:17:53Z</time>
      </trkpt>
      <trkpt lat="42.99537" lon="-0.50706">
        <ele>1059.510254</ele>
        <time>2011-08-28T09:18:08Z</time>
      </trkpt>
      <trkpt lat="42.9952" lon="-0.50716">
        <ele>1061.432861</ele>
        <time>2011-08-28T09:18:25Z</time>
      </trkpt>
      <trkpt lat="42.99507" lon="-0.50721">
        <ele>1062.394043</ele>
        <time>2011-08-28T09:18:39Z</time>
      </trkpt>
      <trkpt lat="42.99487" lon="-0.50725">
        <ele>1064.797363</ele>
        <time>2011-08-28T09:18:57Z</time>
      </trkpt>
      <trkpt lat="42.99467" lon="-0.50725">
        <ele>1067.200684</ele>
        <time>2011-08-28T09:19:17Z</time>
      </trkpt>
      <trkpt lat="42.99457" lon="-0.50722">
        <ele>1068.642822</ele>
        <time>2011-08-28T09:19:33Z</time>
      </trkpt>
      <trkpt lat="42.99453" lon="-0.50721">
        <ele>1070.084717</ele>
        <time>2011-08-28T09:19:38Z</time>
      </trkpt>
      <trkpt lat="42.99439" lon="-0.50724">
        <ele>1072.007324</ele>
        <time>2011-08-28T09:19:57Z</time>
      </trkpt>
      <trkpt lat="42.99425" lon="-0.50728">
        <ele>1075.371826</ele>
        <time>2011-08-28T09:20:14Z</time>
      </trkpt>
      <trkpt lat="42.99413" lon="-0.50728">
        <ele>1077.294678</ele>
        <time>2011-08-28T09:20:32Z</time>
      </trkpt>
      <trkpt lat="42.994" lon="-0.50728">
        <ele>1080.178467</ele>
        <time>2011-08-28T09:20:52Z</time>
      </trkpt>
      <trkpt lat="42.99389" lon="-0.50732">
        <ele>1083.062256</ele>
        <time>2011-08-28T09:21:09Z</time>
      </trkpt>
      <trkpt lat="42.99382" lon="-0.50737">
        <ele>1084.504639</ele>
        <time>2011-08-28T09:21:22Z</time>
      </trkpt>
      <trkpt lat="42.99379" lon="-0.50737">
        <ele>1085.46582</ele>
        <time>2011-08-28T09:21:28Z</time>
      </trkpt>
      <trkpt lat="42.99372" lon="-0.50737">
        <ele>1087.869141</ele>
        <time>2011-08-28T09:21:43Z</time>
      </trkpt>
      <trkpt lat="42.99364" lon="-0.50743">
        <ele>1089.311035</ele>
        <time>2011-08-28T09:22:00Z</time>
      </trkpt>
      <trkpt lat="42.99357" lon="-0.50741">
        <ele>1090.75293</ele>
        <time>2011-08-28T09:22:11Z</time>
      </trkpt>
      <trkpt lat="42.99347" lon="-0.50743">
        <ele>1090.272461</ele>
        <time>2011-08-28T09:22:24Z</time>
      </trkpt>
      <trkpt lat="42.99337" lon="-0.50745">
        <ele>1092.675781</ele>
        <time>2011-08-28T09:22:37Z</time>
      </trkpt>
      <trkpt lat="42.99328" lon="-0.50742">
        <ele>1093.15625</ele>
        <time>2011-08-28T09:23:00Z</time>
      </trkpt>
      <trkpt lat="42.99317" lon="-0.5075">
        <ele>1095.078857</ele>
        <time>2011-08-28T09:23:16Z</time>
      </trkpt>
      <trkpt lat="42.9931" lon="-0.50749">
        <ele>1096.520996</ele>
        <time>2011-08-28T09:23:31Z</time>
      </trkpt>
      <trkpt lat="42.99301" lon="-0.50749">
        <ele>1098.443359</ele>
        <time>2011-08-28T09:23:45Z</time>
      </trkpt>
      <trkpt lat="42.9929" lon="-0.50747">
        <ele>1099.885498</ele>
        <time>2011-08-28T09:24:00Z</time>
      </trkpt>
      <trkpt lat="42.99287" lon="-0.50744">
        <ele>1102.288818</ele>
        <time>2011-08-28T09:24:09Z</time>
      </trkpt>
      <trkpt lat="42.99278" lon="-0.50747">
        <ele>1103.250244</ele>
        <time>2011-08-28T09:24:25Z</time>
      </trkpt>
      <trkpt lat="42.99269" lon="-0.50743">
        <ele>1107.095459</ele>
        <time>2011-08-28T09:24:40Z</time>
      </trkpt>
      <trkpt lat="42.99262" lon="-0.50744">
        <ele>1106.614746</ele>
        <time>2011-08-28T09:24:55Z</time>
      </trkpt>
      <trkpt lat="42.99262" lon="-0.50759">
        <ele>1107.576172</ele>
        <time>2011-08-28T09:25:09Z</time>
      </trkpt>
      <trkpt lat="42.99264" lon="-0.50767">
        <ele>1109.979248</ele>
        <time>2011-08-28T09:25:21Z</time>
      </trkpt>
      <trkpt lat="42.99259" lon="-0.50773">
        <ele>1111.9021</ele>
        <time>2011-08-28T09:25:33Z</time>
      </trkpt>
      <trkpt lat="42.99261" lon="-0.50783">
        <ele>1114.785889</ele>
        <time>2011-08-28T09:25:45Z</time>
      </trkpt>
      <trkpt lat="42.9925" lon="-0.50783">
        <ele>1116.228027</ele>
        <time>2011-08-28T09:25:55Z</time>
      </trkpt>
      <trkpt lat="42.9924" lon="-0.50784">
        <ele>1119.112061</ele>
        <time>2011-08-28T09:26:16Z</time>
      </trkpt>
      <trkpt lat="42.99241" lon="-0.50781">
        <ele>1120.553955</ele>
        <time>2011-08-28T09:26:23Z</time>
      </trkpt>
      <trkpt lat="42.99232" lon="-0.5078">
        <ele>1124.879883</ele>
        <time>2011-08-28T09:26:36Z</time>
      </trkpt>
      <trkpt lat="42.99231" lon="-0.50779">
        <ele>1124.39917</ele>
        <time>2011-08-28T09:26:37Z</time>
      </trkpt>
      <trkpt lat="42.9923" lon="-0.50772">
        <ele>1126.80249</ele>
        <time>2011-08-28T09:26:48Z</time>
      </trkpt>
      <trkpt lat="42.99227" lon="-0.50765">
        <ele>1129.686279</ele>
        <time>2011-08-28T09:27:11Z</time>
      </trkpt>
      <trkpt lat="42.99219" lon="-0.50771">
        <ele>1132.570557</ele>
        <time>2011-08-28T09:27:29Z</time>
      </trkpt>
      <trkpt lat="42.99214" lon="-0.50774">
        <ele>1134.493164</ele>
        <time>2011-08-28T09:27:41Z</time>
      </trkpt>
      <trkpt lat="42.99209" lon="-0.5077">
        <ele>1136.415771</ele>
        <time>2011-08-28T09:27:53Z</time>
      </trkpt>
      <trkpt lat="42.99203" lon="-0.50765">
        <ele>1139.780273</ele>
        <time>2011-08-28T09:28:06Z</time>
      </trkpt>
      <trkpt lat="42.99197" lon="-0.50762">
        <ele>1141.702881</ele>
        <time>2011-08-28T09:28:19Z</time>
      </trkpt>
      <trkpt lat="42.99193" lon="-0.50758">
        <ele>1144.106201</ele>
        <time>2011-08-28T09:28:31Z</time>
      </trkpt>
      <trkpt lat="42.99187" lon="-0.5076">
        <ele>1146.028809</ele>
        <time>2011-08-28T09:28:48Z</time>
      </trkpt>
      <trkpt lat="42.9918" lon="-0.50756">
        <ele>1148.432129</ele>
        <time>2011-08-28T09:29:05Z</time>
      </trkpt>
      <trkpt lat="42.99173" lon="-0.50761">
        <ele>1151.316162</ele>
        <time>2011-08-28T09:29:21Z</time>
      </trkpt>
      <trkpt lat="42.99169" lon="-0.50766">
        <ele>1154.680664</ele>
        <time>2011-08-28T09:29:33Z</time>
      </trkpt>
      <trkpt lat="42.99165" lon="-0.50766">
        <ele>1155.161377</ele>
        <time>2011-08-28T09:29:47Z</time>
      </trkpt>
      <trkpt lat="42.99165" lon="-0.50766">
        <ele>1155.161377</ele>
        <time>2011-08-28T09:30:14Z</time>
      </trkpt>
      <trkpt lat="42.99166" lon="-0.50766">
        <ele>1156.122559</ele>
        <time>2011-08-28T09:30:33Z</time>
      </trkpt>
      <trkpt lat="42.99168" lon="-0.50767">
        <ele>1154.680664</ele>
        <time>2011-08-28T09:31:06Z</time>
      </trkpt>
      <trkpt lat="42.99168" lon="-0.50768">
        <ele>1155.161377</ele>
        <time>2011-08-28T09:31:31Z</time>
      </trkpt>
      <trkpt lat="42.9916" lon="-0.50765">
        <ele>1158.525879</ele>
        <time>2011-08-28T09:31:50Z</time>
      </trkpt>
      <trkpt lat="42.99151" lon="-0.5076">
        <ele>1160.448486</ele>
        <time>2011-08-28T09:32:08Z</time>
      </trkpt>
      <trkpt lat="42.99144" lon="-0.50756">
        <ele>1163.33252</ele>
        <time>2011-08-28T09:32:20Z</time>
      </trkpt>
      <trkpt lat="42.99131" lon="-0.50755">
        <ele>1165.255371</ele>
        <time>2011-08-28T09:32:37Z</time>
      </trkpt>
      <trkpt lat="42.99123" lon="-0.50753">
        <ele>1167.177979</ele>
        <time>2011-08-28T09:32:48Z</time>
      </trkpt>
      <trkpt lat="42.99113" lon="-0.50751">
        <ele>1170.54248</ele>
        <time>2011-08-28T09:33:04Z</time>
      </trkpt>
      <trkpt lat="42.99104" lon="-0.50749">
        <ele>1171.984375</ele>
        <time>2011-08-28T09:33:20Z</time>
      </trkpt>
      <trkpt lat="42.99098" lon="-0.50746">
        <ele>1175.348877</ele>
        <time>2011-08-28T09:33:31Z</time>
      </trkpt>
      <trkpt lat="42.99089" lon="-0.50745">
        <ele>1177.271729</ele>
        <time>2011-08-28T09:33:46Z</time>
      </trkpt>
      <trkpt lat="42.99081" lon="-0.50745">
        <ele>1178.23291</ele>
        <time>2011-08-28T09:34:02Z</time>
      </trkpt>
      <trkpt lat="42.99073" lon="-0.50743">
        <ele>1181.597656</ele>
        <time>2011-08-28T09:34:15Z</time>
      </trkpt>
      <trkpt lat="42.99069" lon="-0.50747">
        <ele>1183.039551</ele>
        <time>2011-08-28T09:34:27Z</time>
      </trkpt>
      <trkpt lat="42.99065" lon="-0.50745">
        <ele>1184.962402</ele>
        <time>2011-08-28T09:34:36Z</time>
      </trkpt>
      <trkpt lat="42.99059" lon="-0.50747">
        <ele>1186.404297</ele>
        <time>2011-08-28T09:34:50Z</time>
      </trkpt>
      <trkpt lat="42.99051" lon="-0.50752">
        <ele>1188.807617</ele>
        <time>2011-08-28T09:35:08Z</time>
      </trkpt>
      <trkpt lat="42.99041" lon="-0.50757">
        <ele>1192.172119</ele>
        <time>2011-08-28T09:35:26Z</time>
      </trkpt>
      <trkpt lat="42.99035" lon="-0.50758">
        <ele>1193.614014</ele>
        <time>2011-08-28T09:35:40Z</time>
      </trkpt>
      <trkpt lat="42.99027" lon="-0.50759">
        <ele>1196.97876</ele>
        <time>2011-08-28T09:35:54Z</time>
      </trkpt>
      <trkpt lat="42.9902" lon="-0.50758">
        <ele>1198.420654</ele>
        <time>2011-08-28T09:36:07Z</time>
      </trkpt>
      <trkpt lat="42.9901" lon="-0.50755">
        <ele>1200.823975</ele>
        <time>2011-08-28T09:36:26Z</time>
      </trkpt>
      <trkpt lat="42.99003" lon="-0.50748">
        <ele>1204.188721</ele>
        <time>2011-08-28T09:36:42Z</time>
      </trkpt>
      <trkpt lat="42.98999" lon="-0.50743">
        <ele>1204.669189</ele>
        <time>2011-08-28T09:36:55Z</time>
      </trkpt>
      <trkpt lat="42.98994" lon="-0.50734">
        <ele>1206.111084</ele>
        <time>2011-08-28T09:37:07Z</time>
      </trkpt>
      <trkpt lat="42.98989" lon="-0.50725">
        <ele>1208.033936</ele>
        <time>2011-08-28T09:37:22Z</time>
      </trkpt>
      <trkpt lat="42.98988" lon="-0.50721">
        <ele>1210.917725</ele>
        <time>2011-08-28T09:37:39Z</time>
      </trkpt>
      <trkpt lat="42.98985" lon="-0.5072">
        <ele>1212.359863</ele>
        <time>2011-08-28T09:37:53Z</time>
      </trkpt>
      <trkpt lat="42.98982" lon="-0.50713">
        <ele>1215.243896</ele>
        <time>2011-08-28T09:38:07Z</time>
      </trkpt>
      <trkpt lat="42.98977" lon="-0.50708">
        <ele>1216.685791</ele>
        <time>2011-08-28T09:38:22Z</time>
      </trkpt>
      <trkpt lat="42.98974" lon="-0.50704">
        <ele>1220.050293</ele>
        <time>2011-08-28T09:38:32Z</time>
      </trkpt>
      <trkpt lat="42.9897" lon="-0.50697">
        <ele>1221.492188</ele>
        <time>2011-08-28T09:38:44Z</time>
      </trkpt>
      <trkpt lat="42.98964" lon="-0.50692">
        <ele>1223.415039</ele>
        <time>2011-08-28T09:38:59Z</time>
      </trkpt>
      <trkpt lat="42.98957" lon="-0.50688">
        <ele>1224.856934</ele>
        <time>2011-08-28T09:39:10Z</time>
      </trkpt>
      <trkpt lat="42.98954" lon="-0.50685">
        <ele>1225.818115</ele>
        <time>2011-08-28T09:39:23Z</time>
      </trkpt>
      <trkpt lat="42.98945" lon="-0.50686">
        <ele>1229.182861</ele>
        <time>2011-08-28T09:39:48Z</time>
      </trkpt>
      <trkpt lat="42.98939" lon="-0.50683">
        <ele>1229.663574</ele>
        <time>2011-08-28T09:39:54Z</time>
      </trkpt>
      <trkpt lat="42.98929" lon="-0.50678">
        <ele>1233.028076</ele>
        <time>2011-08-28T09:40:06Z</time>
      </trkpt>
      <trkpt lat="42.98925" lon="-0.50678">
        <ele>1236.392822</ele>
        <time>2011-08-28T09:40:18Z</time>
      </trkpt>
      <trkpt lat="42.98918" lon="-0.50676">
        <ele>1239.276611</ele>
        <time>2011-08-28T09:40:32Z</time>
      </trkpt>
      <trkpt lat="42.98907" lon="-0.50675">
        <ele>1242.160645</ele>
        <time>2011-08-28T09:40:48Z</time>
      </trkpt>
      <trkpt lat="42.98896" lon="-0.50674">
        <ele>1245.525391</ele>
        <time>2011-08-28T09:41:09Z</time>
      </trkpt>
      <trkpt lat="42.98893" lon="-0.50668">
        <ele>1248.889893</ele>
        <time>2011-08-28T09:41:25Z</time>
      </trkpt>
      <trkpt lat="42.98887" lon="-0.50673">
        <ele>1251.773926</ele>
        <time>2011-08-28T09:41:41Z</time>
      </trkpt>
      <trkpt lat="42.98875" lon="-0.50674">
        <ele>1254.657715</ele>
        <time>2011-08-28T09:42:02Z</time>
      </trkpt>
      <trkpt lat="42.98864" lon="-0.50676">
        <ele>1256.580322</ele>
        <time>2011-08-28T09:42:18Z</time>
      </trkpt>
      <trkpt lat="42.98857" lon="-0.50681">
        <ele>1258.022461</ele>
        <time>2011-08-28T09:42:26Z</time>
      </trkpt>
      <trkpt lat="42.98845" lon="-0.50688">
        <ele>1260.425781</ele>
        <time>2011-08-28T09:42:42Z</time>
      </trkpt>
      <trkpt lat="42.98834" lon="-0.50688">
        <ele>1261.387207</ele>
        <time>2011-08-28T09:42:54Z</time>
      </trkpt>
      <trkpt lat="42.98822" lon="-0.50691">
        <ele>1262.829102</ele>
        <time>2011-08-28T09:43:09Z</time>
      </trkpt>
      <trkpt lat="42.98818" lon="-0.50702">
        <ele>1265.232422</ele>
        <time>2011-08-28T09:43:28Z</time>
      </trkpt>
      <trkpt lat="42.98812" lon="-0.5071">
        <ele>1268.596924</ele>
        <time>2011-08-28T09:43:43Z</time>
      </trkpt>
      <trkpt lat="42.98811" lon="-0.50721">
        <ele>1271.961426</ele>
        <time>2011-08-28T09:44:15Z</time>
      </trkpt>
      <trkpt lat="42.98809" lon="-0.50725">
        <ele>1271.000244</ele>
        <time>2011-08-28T09:44:19Z</time>
      </trkpt>
      <trkpt lat="42.98797" lon="-0.50737">
        <ele>1274.364746</ele>
        <time>2011-08-28T09:44:33Z</time>
      </trkpt>
      <trkpt lat="42.98783" lon="-0.50735">
        <ele>1277.249023</ele>
        <time>2011-08-28T09:44:49Z</time>
      </trkpt>
      <trkpt lat="42.98774" lon="-0.50735">
        <ele>1280.132812</ele>
        <time>2011-08-28T09:44:59Z</time>
      </trkpt>
      <trkpt lat="42.98768" lon="-0.50736">
        <ele>1283.497314</ele>
        <time>2011-08-28T09:45:15Z</time>
      </trkpt>
      <trkpt lat="42.98754" lon="-0.50732">
        <ele>1286.861816</ele>
        <time>2011-08-28T09:45:35Z</time>
      </trkpt>
      <trkpt lat="42.98747" lon="-0.50738">
        <ele>1289.74585</ele>
        <time>2011-08-28T09:45:51Z</time>
      </trkpt>
      <trkpt lat="42.98743" lon="-0.5074">
        <ele>1293.110596</ele>
        <time>2011-08-28T09:46:08Z</time>
      </trkpt>
      <trkpt lat="42.9873" lon="-0.50739">
        <ele>1296.475342</ele>
        <time>2011-08-28T09:46:24Z</time>
      </trkpt>
      <trkpt lat="42.98717" lon="-0.50726">
        <ele>1299.359131</ele>
        <time>2011-08-28T09:46:41Z</time>
      </trkpt>
      <trkpt lat="42.98717" lon="-0.5072">
        <ele>1301.762451</ele>
        <time>2011-08-28T09:46:51Z</time>
      </trkpt>
      <trkpt lat="42.98713" lon="-0.50714">
        <ele>1303.204346</ele>
        <time>2011-08-28T09:47:02Z</time>
      </trkpt>
      <trkpt lat="42.98694" lon="-0.50712">
        <ele>1306.088135</ele>
        <time>2011-08-28T09:47:25Z</time>
      </trkpt>
      <trkpt lat="42.98685" lon="-0.50707">
        <ele>1307.049561</ele>
        <time>2011-08-28T09:47:42Z</time>
      </trkpt>
      <trkpt lat="42.98679" lon="-0.50697">
        <ele>1308.972412</ele>
        <time>2011-08-28T09:47:55Z</time>
      </trkpt>
      <trkpt lat="42.98682" lon="-0.50686">
        <ele>1310.89502</ele>
        <time>2011-08-28T09:48:11Z</time>
      </trkpt>
      <trkpt lat="42.9866" lon="-0.50674">
        <ele>1313.778809</ele>
        <time>2011-08-28T09:48:34Z</time>
      </trkpt>
      <trkpt lat="42.98632" lon="-0.50657">
        <ele>1317.143555</ele>
        <time>2011-08-28T09:49:07Z</time>
      </trkpt>
      <trkpt lat="42.98629" lon="-0.50654">
        <ele>1318.104736</ele>
        <time>2011-08-28T09:49:12Z</time>
      </trkpt>
      <trkpt lat="42.98627" lon="-0.50629">
        <ele>1320.98877</ele>
        <time>2011-08-28T09:49:34Z</time>
      </trkpt>
      <trkpt lat="42.98622" lon="-0.50618">
        <ele>1324.353516</ele>
        <time>2011-08-28T09:49:51Z</time>
      </trkpt>
      <trkpt lat="42.98618" lon="-0.50619">
        <ele>1327.718018</ele>
        <time>2011-08-28T09:50:10Z</time>
      </trkpt>
      <trkpt lat="42.98612" lon="-0.50617">
        <ele>1330.602051</ele>
        <time>2011-08-28T09:50:28Z</time>
      </trkpt>
      <trkpt lat="42.98608" lon="-0.50621">
        <ele>1333.005127</ele>
        <time>2011-08-28T09:50:44Z</time>
      </trkpt>
      <trkpt lat="42.98602" lon="-0.50621">
        <ele>1334.447266</ele>
        <time>2011-08-28T09:50:54Z</time>
      </trkpt>
      <trkpt lat="42.98589" lon="-0.50614">
        <ele>1336.850342</ele>
        <time>2011-08-28T09:51:09Z</time>
      </trkpt>
      <trkpt lat="42.98572" lon="-0.50603">
        <ele>1338.773193</ele>
        <time>2011-08-28T09:51:25Z</time>
      </trkpt>
      <trkpt lat="42.98569" lon="-0.50596">
        <ele>1340.695801</ele>
        <time>2011-08-28T09:51:38Z</time>
      </trkpt>
      <trkpt lat="42.98553" lon="-0.50585">
        <ele>1343.579834</ele>
        <time>2011-08-28T09:52:00Z</time>
      </trkpt>
      <trkpt lat="42.9855" lon="-0.50576">
        <ele>1346.463867</ele>
        <time>2011-08-28T09:52:16Z</time>
      </trkpt>
      <trkpt lat="42.98545" lon="-0.50569">
        <ele>1349.347656</ele>
        <time>2011-08-28T09:52:28Z</time>
      </trkpt>
      <trkpt lat="42.98538" lon="-0.50565">
        <ele>1350.789551</ele>
        <time>2011-08-28T09:52:37Z</time>
      </trkpt>
      <trkpt lat="42.98528" lon="-0.50558">
        <ele>1352.231445</ele>
        <time>2011-08-28T09:52:53Z</time>
      </trkpt>
      <trkpt lat="42.98516" lon="-0.50553">
        <ele>1355.115479</ele>
        <time>2011-08-28T09:53:13Z</time>
      </trkpt>
      <trkpt lat="42.98503" lon="-0.5055">
        <ele>1357.999756</ele>
        <time>2011-08-28T09:53:29Z</time>
      </trkpt>
      <trkpt lat="42.98498" lon="-0.50543">
        <ele>1360.402832</ele>
        <time>2011-08-28T09:53:42Z</time>
      </trkpt>
      <trkpt lat="42.98496" lon="-0.50529">
        <ele>1364.248047</ele>
        <time>2011-08-28T09:53:58Z</time>
      </trkpt>
      <trkpt lat="42.98492" lon="-0.50516">
        <ele>1366.170654</ele>
        <time>2011-08-28T09:54:13Z</time>
      </trkpt>
      <trkpt lat="42.98488" lon="-0.50509">
        <ele>1368.093262</ele>
        <time>2011-08-28T09:54:28Z</time>
      </trkpt>
      <trkpt lat="42.98485" lon="-0.50502">
        <ele>1370.977295</ele>
        <time>2011-08-28T09:54:40Z</time>
      </trkpt>
      <trkpt lat="42.98485" lon="-0.50502">
        <ele>1369.054688</ele>
        <time>2011-08-28T09:55:11Z</time>
      </trkpt>
      <trkpt lat="42.98483" lon="-0.50499">
        <ele>1370.977295</ele>
        <time>2011-08-28T09:55:16Z</time>
      </trkpt>
      <trkpt lat="42.98477" lon="-0.50492">
        <ele>1372.419434</ele>
        <time>2011-08-28T09:55:26Z</time>
      </trkpt>
      <trkpt lat="42.98468" lon="-0.50484">
        <ele>1374.342041</ele>
        <time>2011-08-28T09:55:38Z</time>
      </trkpt>
      <trkpt lat="42.98461" lon="-0.50472">
        <ele>1377.226074</ele>
        <time>2011-08-28T09:55:52Z</time>
      </trkpt>
      <trkpt lat="42.98462" lon="-0.50468">
        <ele>1378.187256</ele>
        <time>2011-08-28T09:56:03Z</time>
      </trkpt>
      <trkpt lat="42.98461" lon="-0.50462">
        <ele>1378.187256</ele>
        <time>2011-08-28T09:56:19Z</time>
      </trkpt>
      <trkpt lat="42.98458" lon="-0.50454">
        <ele>1380.590576</ele>
        <time>2011-08-28T09:56:33Z</time>
      </trkpt>
      <trkpt lat="42.98456" lon="-0.50442">
        <ele>1382.513184</ele>
        <time>2011-08-28T09:56:44Z</time>
      </trkpt>
      <trkpt lat="42.98455" lon="-0.5044">
        <ele>1382.993652</ele>
        <time>2011-08-28T09:56:46Z</time>
      </trkpt>
      <trkpt lat="42.98445" lon="-0.50431">
        <ele>1385.396973</ele>
        <time>2011-08-28T09:57:01Z</time>
      </trkpt>
      <trkpt lat="42.98436" lon="-0.50423">
        <ele>1388.761963</ele>
        <time>2011-08-28T09:57:16Z</time>
      </trkpt>
      <trkpt lat="42.98431" lon="-0.50419">
        <ele>1387.800293</ele>
        <time>2011-08-28T09:57:27Z</time>
      </trkpt>
      <trkpt lat="42.9843" lon="-0.50419">
        <ele>1393.568359</ele>
        <time>2011-08-28T09:57:29Z</time>
      </trkpt>
      <trkpt lat="42.9843" lon="-0.50418">
        <ele>1391.165039</ele>
        <time>2011-08-28T09:57:30Z</time>
      </trkpt>
      <trkpt lat="42.98422" lon="-0.50412">
        <ele>1392.126465</ele>
        <time>2011-08-28T09:57:42Z</time>
      </trkpt>
      <trkpt lat="42.98413" lon="-0.50405">
        <ele>1395.010254</ele>
        <time>2011-08-28T09:57:56Z</time>
      </trkpt>
      <trkpt lat="42.98402" lon="-0.50398">
        <ele>1396.932861</ele>
        <time>2011-08-28T09:58:12Z</time>
      </trkpt>
      <trkpt lat="42.98395" lon="-0.50386">
        <ele>1396.452393</ele>
        <time>2011-08-28T09:58:28Z</time>
      </trkpt>
      <trkpt lat="42.98401" lon="-0.50379">
        <ele>1399.336182</ele>
        <time>2011-08-28T09:58:42Z</time>
      </trkpt>
      <trkpt lat="42.98401" lon="-0.50378">
        <ele>1399.816895</ele>
        <time>2011-08-28T09:58:43Z</time>
      </trkpt>
      <trkpt lat="42.98401" lon="-0.50369">
        <ele>1399.816895</ele>
        <time>2011-08-28T09:58:55Z</time>
      </trkpt>
      <trkpt lat="42.984" lon="-0.50362">
        <ele>1402.219971</ele>
        <time>2011-08-28T09:59:07Z</time>
      </trkpt>
      <trkpt lat="42.98394" lon="-0.50357">
        <ele>1404.143066</ele>
        <time>2011-08-28T09:59:19Z</time>
      </trkpt>
      <trkpt lat="42.98389" lon="-0.50351">
        <ele>1407.026855</ele>
        <time>2011-08-28T09:59:34Z</time>
      </trkpt>
      <trkpt lat="42.98384" lon="-0.50346">
        <ele>1407.507568</ele>
        <time>2011-08-28T09:59:49Z</time>
      </trkpt>
      <trkpt lat="42.98381" lon="-0.50335">
        <ele>1409.430176</ele>
        <time>2011-08-28T10:00:02Z</time>
      </trkpt>
      <trkpt lat="42.98378" lon="-0.50324">
        <ele>1410.87207</ele>
        <time>2011-08-28T10:00:13Z</time>
      </trkpt>
      <trkpt lat="42.98374" lon="-0.50316">
        <ele>1413.755859</ele>
        <time>2011-08-28T10:00:25Z</time>
      </trkpt>
      <trkpt lat="42.98371" lon="-0.50317">
        <ele>1413.755859</ele>
        <time>2011-08-28T10:00:30Z</time>
      </trkpt>
      <trkpt lat="42.98361" lon="-0.50309">
        <ele>1416.15918</ele>
        <time>2011-08-28T10:00:44Z</time>
      </trkpt>
      <trkpt lat="42.98359" lon="-0.50298">
        <ele>1418.5625</ele>
        <time>2011-08-28T10:00:57Z</time>
      </trkpt>
      <trkpt lat="42.98358" lon="-0.50289">
        <ele>1418.5625</ele>
        <time>2011-08-28T10:01:07Z</time>
      </trkpt>
      <trkpt lat="42.98353" lon="-0.50283">
        <ele>1420.004639</ele>
        <time>2011-08-28T10:01:18Z</time>
      </trkpt>
      <trkpt lat="42.9835" lon="-0.50275">
        <ele>1421.927246</ele>
        <time>2011-08-28T10:01:39Z</time>
      </trkpt>
      <trkpt lat="42.98346" lon="-0.5027">
        <ele>1423.849854</ele>
        <time>2011-08-28T10:01:47Z</time>
      </trkpt>
      <trkpt lat="42.98342" lon="-0.50263">
        <ele>1427.2146</ele>
        <time>2011-08-28T10:02:04Z</time>
      </trkpt>
      <trkpt lat="42.98337" lon="-0.50256">
        <ele>1429.136963</ele>
        <time>2011-08-28T10:02:16Z</time>
      </trkpt>
      <trkpt lat="42.98333" lon="-0.50247">
        <ele>1432.020996</ele>
        <time>2011-08-28T10:02:32Z</time>
      </trkpt>
      <trkpt lat="42.98328" lon="-0.5024">
        <ele>1434.905029</ele>
        <time>2011-08-28T10:02:47Z</time>
      </trkpt>
      <trkpt lat="42.98323" lon="-0.50235">
        <ele>1436.827637</ele>
        <time>2011-08-28T10:03:03Z</time>
      </trkpt>
      <trkpt lat="42.98319" lon="-0.50229">
        <ele>1439.71167</ele>
        <time>2011-08-28T10:03:17Z</time>
      </trkpt>
      <trkpt lat="42.98314" lon="-0.50224">
        <ele>1441.634277</ele>
        <time>2011-08-28T10:03:28Z</time>
      </trkpt>
      <trkpt lat="42.98308" lon="-0.50219">
        <ele>1445.479492</ele>
        <time>2011-08-28T10:03:46Z</time>
      </trkpt>
      <trkpt lat="42.98305" lon="-0.50213">
        <ele>1447.4021</ele>
        <time>2011-08-28T10:03:57Z</time>
      </trkpt>
      <trkpt lat="42.98297" lon="-0.50206">
        <ele>1447.4021</ele>
        <time>2011-08-28T10:04:14Z</time>
      </trkpt>
      <trkpt lat="42.98292" lon="-0.50202">
        <ele>1449.80542</ele>
        <time>2011-08-28T10:04:27Z</time>
      </trkpt>
      <trkpt lat="42.98289" lon="-0.50195">
        <ele>1451.728027</ele>
        <time>2011-08-28T10:04:41Z</time>
      </trkpt>
      <trkpt lat="42.98285" lon="-0.50191">
        <ele>1455.092773</ele>
        <time>2011-08-28T10:04:53Z</time>
      </trkpt>
      <trkpt lat="42.98281" lon="-0.50185">
        <ele>1457.015381</ele>
        <time>2011-08-28T10:05:05Z</time>
      </trkpt>
      <trkpt lat="42.98274" lon="-0.50181">
        <ele>1459.89917</ele>
        <time>2011-08-28T10:05:20Z</time>
      </trkpt>
      <trkpt lat="42.98271" lon="-0.50173">
        <ele>1461.822021</ele>
        <time>2011-08-28T10:05:33Z</time>
      </trkpt>
      <trkpt lat="42.98262" lon="-0.50164">
        <ele>1463.744385</ele>
        <time>2011-08-28T10:05:52Z</time>
      </trkpt>
      <trkpt lat="42.98256" lon="-0.50159">
        <ele>1465.667236</ele>
        <time>2011-08-28T10:06:02Z</time>
      </trkpt>
      <trkpt lat="42.98245" lon="-0.50157">
        <ele>1468.55127</ele>
        <time>2011-08-28T10:06:23Z</time>
      </trkpt>
      <trkpt lat="42.98234" lon="-0.50158">
        <ele>1470.95459</ele>
        <time>2011-08-28T10:06:42Z</time>
      </trkpt>
      <trkpt lat="42.98229" lon="-0.50157">
        <ele>1473.35791</ele>
        <time>2011-08-28T10:06:53Z</time>
      </trkpt>
      <trkpt lat="42.98222" lon="-0.50157">
        <ele>1474.799805</ele>
        <time>2011-08-28T10:07:07Z</time>
      </trkpt>
      <trkpt lat="42.98216" lon="-0.50147">
        <ele>1477.683594</ele>
        <time>2011-08-28T10:07:23Z</time>
      </trkpt>
      <trkpt lat="42.98209" lon="-0.50135">
        <ele>1480.567627</ele>
        <time>2011-08-28T10:07:40Z</time>
      </trkpt>
      <trkpt lat="42.98203" lon="-0.50128">
        <ele>1482.490234</ele>
        <time>2011-08-28T10:07:53Z</time>
      </trkpt>
      <trkpt lat="42.98194" lon="-0.50116">
        <ele>1485.374268</ele>
        <time>2011-08-28T10:08:09Z</time>
      </trkpt>
      <trkpt lat="42.98192" lon="-0.50106">
        <ele>1486.335693</ele>
        <time>2011-08-28T10:08:22Z</time>
      </trkpt>
      <trkpt lat="42.98189" lon="-0.50098">
        <ele>1489.700195</ele>
        <time>2011-08-28T10:08:35Z</time>
      </trkpt>
      <trkpt lat="42.98186" lon="-0.50088">
        <ele>1491.622803</ele>
        <time>2011-08-28T10:08:48Z</time>
      </trkpt>
      <trkpt lat="42.98182" lon="-0.50082">
        <ele>1493.064697</ele>
        <time>2011-08-28T10:09:00Z</time>
      </trkpt>
      <trkpt lat="42.98175" lon="-0.50078">
        <ele>1494.987305</ele>
        <time>2011-08-28T10:09:14Z</time>
      </trkpt>
      <trkpt lat="42.98166" lon="-0.50074">
        <ele>1497.871338</ele>
        <time>2011-08-28T10:09:32Z</time>
      </trkpt>
      <trkpt lat="42.98162" lon="-0.5007">
        <ele>1498.351807</ele>
        <time>2011-08-28T10:09:45Z</time>
      </trkpt>
      <trkpt lat="42.98157" lon="-0.5007">
        <ele>1500.274902</ele>
        <time>2011-08-28T10:09:51Z</time>
      </trkpt>
      <trkpt lat="42.9815" lon="-0.50068">
        <ele>1503.158691</ele>
        <time>2011-08-28T10:10:06Z</time>
      </trkpt>
      <trkpt lat="42.98144" lon="-0.50067">
        <ele>1505.562012</ele>
        <time>2011-08-28T10:10:20Z</time>
      </trkpt>
      <trkpt lat="42.98142" lon="-0.50068">
        <ele>1507.003906</ele>
        <time>2011-08-28T10:10:24Z</time>
      </trkpt>
      <trkpt lat="42.9814" lon="-0.50059">
        <ele>1508.445801</ele>
        <time>2011-08-28T10:10:36Z</time>
      </trkpt>
      <trkpt lat="42.98135" lon="-0.50055">
        <ele>1511.810547</ele>
        <time>2011-08-28T10:10:50Z</time>
      </trkpt>
      <trkpt lat="42.98128" lon="-0.50048">
        <ele>1513.252441</ele>
        <time>2011-08-28T10:11:05Z</time>
      </trkpt>
      <trkpt lat="42.98125" lon="-0.5004">
        <ele>1514.213623</ele>
        <time>2011-08-28T10:11:15Z</time>
      </trkpt>
      <trkpt lat="42.98122" lon="-0.50034">
        <ele>1515.655762</ele>
        <time>2011-08-28T10:11:22Z</time>
      </trkpt>
      <trkpt lat="42.9811" lon="-0.50026">
        <ele>1518.059082</ele>
        <time>2011-08-28T10:11:39Z</time>
      </trkpt>
      <trkpt lat="42.981" lon="-0.50025">
        <ele>1520.943115</ele>
        <time>2011-08-28T10:11:58Z</time>
      </trkpt>
      <trkpt lat="42.98093" lon="-0.50024">
        <ele>1522.38501</ele>
        <time>2011-08-28T10:12:15Z</time>
      </trkpt>
      <trkpt lat="42.98086" lon="-0.50022">
        <ele>1525.268799</ele>
        <time>2011-08-28T10:12:29Z</time>
      </trkpt>
      <trkpt lat="42.98078" lon="-0.50017">
        <ele>1528.152832</ele>
        <time>2011-08-28T10:12:44Z</time>
      </trkpt>
      <trkpt lat="42.98071" lon="-0.50012">
        <ele>1531.517334</ele>
        <time>2011-08-28T10:12:58Z</time>
      </trkpt>
      <trkpt lat="42.98064" lon="-0.50006">
        <ele>1531.998047</ele>
        <time>2011-08-28T10:13:12Z</time>
      </trkpt>
      <trkpt lat="42.98054" lon="-0.50002">
        <ele>1534.401611</ele>
        <time>2011-08-28T10:13:27Z</time>
      </trkpt>
      <trkpt lat="42.98051" lon="-0.50001">
        <ele>1536.804688</ele>
        <time>2011-08-28T10:13:33Z</time>
      </trkpt>
      <trkpt lat="42.98046" lon="-0.49998">
        <ele>1540.169434</ele>
        <time>2011-08-28T10:13:45Z</time>
      </trkpt>
      <trkpt lat="42.98039" lon="-0.49989">
        <ele>1541.611328</ele>
        <time>2011-08-28T10:14:04Z</time>
      </trkpt>
      <trkpt lat="42.98037" lon="-0.49984">
        <ele>1544.495117</ele>
        <time>2011-08-28T10:14:13Z</time>
      </trkpt>
      <trkpt lat="42.98031" lon="-0.49976">
        <ele>1545.456543</ele>
        <time>2011-08-28T10:14:27Z</time>
      </trkpt>
      <trkpt lat="42.98023" lon="-0.49972">
        <ele>1546.898438</ele>
        <time>2011-08-28T10:14:39Z</time>
      </trkpt>
      <trkpt lat="42.98018" lon="-0.49967">
        <ele>1549.302002</ele>
        <time>2011-08-28T10:14:52Z</time>
      </trkpt>
      <trkpt lat="42.98011" lon="-0.49959">
        <ele>1551.705322</ele>
        <time>2011-08-28T10:15:06Z</time>
      </trkpt>
      <trkpt lat="42.98003" lon="-0.49957">
        <ele>1554.108643</ele>
        <time>2011-08-28T10:15:16Z</time>
      </trkpt>
      <trkpt lat="42.97998" lon="-0.49955">
        <ele>1556.511719</ele>
        <time>2011-08-28T10:15:24Z</time>
      </trkpt>
      <trkpt lat="42.97991" lon="-0.49945">
        <ele>1556.992432</ele>
        <time>2011-08-28T10:15:39Z</time>
      </trkpt>
      <trkpt lat="42.97988" lon="-0.49938">
        <ele>1558.915039</ele>
        <time>2011-08-28T10:15:51Z</time>
      </trkpt>
      <trkpt lat="42.97983" lon="-0.49931">
        <ele>1561.318359</ele>
        <time>2011-08-28T10:16:03Z</time>
      </trkpt>
      <trkpt lat="42.97977" lon="-0.49927">
        <ele>1561.799072</ele>
        <time>2011-08-28T10:16:16Z</time>
      </trkpt>
      <trkpt lat="42.97968" lon="-0.49923">
        <ele>1562.760254</ele>
        <time>2011-08-28T10:16:32Z</time>
      </trkpt>
      <trkpt lat="42.97957" lon="-0.49917">
        <ele>1564.683105</ele>
        <time>2011-08-28T10:16:45Z</time>
      </trkpt>
      <trkpt lat="42.9795" lon="-0.49911">
        <ele>1566.125</ele>
        <time>2011-08-28T10:16:59Z</time>
      </trkpt>
      <trkpt lat="42.97947" lon="-0.49902">
        <ele>1568.047607</ele>
        <time>2011-08-28T10:17:16Z</time>
      </trkpt>
      <trkpt lat="42.97946" lon="-0.49892">
        <ele>1570.931641</ele>
        <time>2011-08-28T10:17:35Z</time>
      </trkpt>
      <trkpt lat="42.97946" lon="-0.49889">
        <ele>1572.373535</ele>
        <time>2011-08-28T10:17:38Z</time>
      </trkpt>
      <trkpt lat="42.97942" lon="-0.49878">
        <ele>1575.257324</ele>
        <time>2011-08-28T10:17:56Z</time>
      </trkpt>
      <trkpt lat="42.97938" lon="-0.49868">
        <ele>1576.699463</ele>
        <time>2011-08-28T10:18:11Z</time>
      </trkpt>
      <trkpt lat="42.97933" lon="-0.49857">
        <ele>1580.064209</ele>
        <time>2011-08-28T10:18:25Z</time>
      </trkpt>
      <trkpt lat="42.97929" lon="-0.49848">
        <ele>1581.025635</ele>
        <time>2011-08-28T10:18:38Z</time>
      </trkpt>
      <trkpt lat="42.97924" lon="-0.49842">
        <ele>1582.467529</ele>
        <time>2011-08-28T10:18:53Z</time>
      </trkpt>
      <trkpt lat="42.97911" lon="-0.4984">
        <ele>1584.87085</ele>
        <time>2011-08-28T10:19:09Z</time>
      </trkpt>
      <trkpt lat="42.97908" lon="-0.49837">
        <ele>1584.390137</ele>
        <time>2011-08-28T10:19:24Z</time>
      </trkpt>
      <trkpt lat="42.97906" lon="-0.49831">
        <ele>1585.351318</ele>
        <time>2011-08-28T10:19:33Z</time>
      </trkpt>
      <trkpt lat="42.97899" lon="-0.49823">
        <ele>1588.235352</ele>
        <time>2011-08-28T10:19:48Z</time>
      </trkpt>
      <trkpt lat="42.97899" lon="-0.49819">
        <ele>1587.754639</ele>
        <time>2011-08-28T10:20:05Z</time>
      </trkpt>
      <trkpt lat="42.97896" lon="-0.49812">
        <ele>1589.677246</ele>
        <time>2011-08-28T10:20:30Z</time>
      </trkpt>
      <trkpt lat="42.97907" lon="-0.49805">
        <ele>1591.119141</ele>
        <time>2011-08-28T10:20:44Z</time>
      </trkpt>
      <trkpt lat="42.9791" lon="-0.49805">
        <ele>1592.080566</ele>
        <time>2011-08-28T10:20:56Z</time>
      </trkpt>
      <trkpt lat="42.97916" lon="-0.49801">
        <ele>1594.003174</ele>
        <time>2011-08-28T10:21:05Z</time>
      </trkpt>
      <trkpt lat="42.97928" lon="-0.49799">
        <ele>1596.406738</ele>
        <time>2011-08-28T10:21:21Z</time>
      </trkpt>
      <trkpt lat="42.97933" lon="-0.49797">
        <ele>1597.848633</ele>
        <time>2011-08-28T10:21:35Z</time>
      </trkpt>
      <trkpt lat="42.97939" lon="-0.49796">
        <ele>1600.732422</ele>
        <time>2011-08-28T10:21:45Z</time>
      </trkpt>
      <trkpt lat="42.97945" lon="-0.49794">
        <ele>1603.135742</ele>
        <time>2011-08-28T10:21:57Z</time>
      </trkpt>
      <trkpt lat="42.97952" lon="-0.49795">
        <ele>1603.616455</ele>
        <time>2011-08-28T10:22:11Z</time>
      </trkpt>
      <trkpt lat="42.97956" lon="-0.49793">
        <ele>1606.980957</ele>
        <time>2011-08-28T10:22:22Z</time>
      </trkpt>
      <trkpt lat="42.97963" lon="-0.49792">
        <ele>1606.980957</ele>
        <time>2011-08-28T10:22:40Z</time>
      </trkpt>
      <trkpt lat="42.9797" lon="-0.49787">
        <ele>1609.384277</ele>
        <time>2011-08-28T10:22:56Z</time>
      </trkpt>
      <trkpt lat="42.97972" lon="-0.49787">
        <ele>1610.345459</ele>
        <time>2011-08-28T10:23:11Z</time>
      </trkpt>
      <trkpt lat="42.97979" lon="-0.49782">
        <ele>1614.190918</ele>
        <time>2011-08-28T10:23:23Z</time>
      </trkpt>
      <trkpt lat="42.9798" lon="-0.49781">
        <ele>1614.190918</ele>
        <time>2011-08-28T10:23:24Z</time>
      </trkpt>
      <trkpt lat="42.97978" lon="-0.49774">
        <ele>1617.074951</ele>
        <time>2011-08-28T10:23:38Z</time>
      </trkpt>
      <trkpt lat="42.97982" lon="-0.49765">
        <ele>1620.920166</ele>
        <time>2011-08-28T10:23:56Z</time>
      </trkpt>
      <trkpt lat="42.97982" lon="-0.49765">
        <ele>1620.920166</ele>
        <time>2011-08-28T10:23:57Z</time>
      </trkpt>
      <trkpt lat="42.97989" lon="-0.49767">
        <ele>1622.842773</ele>
        <time>2011-08-28T10:24:17Z</time>
      </trkpt>
      <trkpt lat="42.97995" lon="-0.49767">
        <ele>1624.765381</ele>
        <time>2011-08-28T10:24:34Z</time>
      </trkpt>
      <trkpt lat="42.97997" lon="-0.49768">
        <ele>1625.24585</ele>
        <time>2011-08-28T10:24:53Z</time>
      </trkpt>
      <trkpt lat="42.98002" lon="-0.49763">
        <ele>1627.64917</ele>
        <time>2011-08-28T10:25:05Z</time>
      </trkpt>
      <trkpt lat="42.98006" lon="-0.49762">
        <ele>1630.533447</ele>
        <time>2011-08-28T10:25:34Z</time>
      </trkpt>
      <trkpt lat="42.98007" lon="-0.49758">
        <ele>1629.572021</ele>
        <time>2011-08-28T10:26:05Z</time>
      </trkpt>
      <trkpt lat="42.9802" lon="-0.49749">
        <ele>1632.936523</ele>
        <time>2011-08-28T10:26:19Z</time>
      </trkpt>
      <trkpt lat="42.98032" lon="-0.49741">
        <ele>1635.339844</ele>
        <time>2011-08-28T10:26:31Z</time>
      </trkpt>
      <trkpt lat="42.98044" lon="-0.49733">
        <ele>1637.743164</ele>
        <time>2011-08-28T10:26:44Z</time>
      </trkpt>
      <trkpt lat="42.9804" lon="-0.49735">
        <ele>1638.70459</ele>
        <time>2011-08-28T10:27:05Z</time>
      </trkpt>
      <trkpt lat="42.98047" lon="-0.4973">
        <ele>1640.626953</ele>
        <time>2011-08-28T10:27:18Z</time>
      </trkpt>
      <trkpt lat="42.98049" lon="-0.49723">
        <ele>1643.991699</ele>
        <time>2011-08-28T10:27:34Z</time>
      </trkpt>
      <trkpt lat="42.98049" lon="-0.49713">
        <ele>1645.914551</ele>
        <time>2011-08-28T10:27:50Z</time>
      </trkpt>
      <trkpt lat="42.98049" lon="-0.49706">
        <ele>1648.317627</ele>
        <time>2011-08-28T10:28:02Z</time>
      </trkpt>
      <trkpt lat="42.98052" lon="-0.49699">
        <ele>1651.682373</ele>
        <time>2011-08-28T10:28:13Z</time>
      </trkpt>
      <trkpt lat="42.98052" lon="-0.49699">
        <ele>1651.682373</ele>
        <time>2011-08-28T10:28:14Z</time>
      </trkpt>
      <trkpt lat="42.98053" lon="-0.49697">
        <ele>1652.162842</ele>
        <time>2011-08-28T10:28:22Z</time>
      </trkpt>
      <trkpt lat="42.98054" lon="-0.49695">
        <ele>1653.124268</ele>
        <time>2011-08-28T10:28:26Z</time>
      </trkpt>
      <trkpt lat="42.98063" lon="-0.49688">
        <ele>1655.527588</ele>
        <time>2011-08-28T10:28:41Z</time>
      </trkpt>
      <trkpt lat="42.98068" lon="-0.49682">
        <ele>1658.89209</ele>
        <time>2011-08-28T10:28:52Z</time>
      </trkpt>
      <trkpt lat="42.9807" lon="-0.49675">
        <ele>1660.814941</ele>
        <time>2011-08-28T10:29:10Z</time>
      </trkpt>
      <trkpt lat="42.98064" lon="-0.49668">
        <ele>1663.69873</ele>
        <time>2011-08-28T10:29:27Z</time>
      </trkpt>
      <trkpt lat="42.98063" lon="-0.49668">
        <ele>1663.218262</ele>
        <time>2011-08-28T10:30:03Z</time>
      </trkpt>
      <trkpt lat="42.98053" lon="-0.4966">
        <ele>1665.621582</ele>
        <time>2011-08-28T10:30:20Z</time>
      </trkpt>
      <trkpt lat="42.98047" lon="-0.49654">
        <ele>1666.582764</ele>
        <time>2011-08-28T10:30:28Z</time>
      </trkpt>
      <trkpt lat="42.98038" lon="-0.49645">
        <ele>1669.466797</ele>
        <time>2011-08-28T10:30:46Z</time>
      </trkpt>
      <trkpt lat="42.9803" lon="-0.4964">
        <ele>1670.908691</ele>
        <time>2011-08-28T10:31:04Z</time>
      </trkpt>
      <trkpt lat="42.9802" lon="-0.49637">
        <ele>1674.273193</ele>
        <time>2011-08-28T10:31:21Z</time>
      </trkpt>
      <trkpt lat="42.98016" lon="-0.49636">
        <ele>1677.157471</ele>
        <time>2011-08-28T10:31:33Z</time>
      </trkpt>
      <trkpt lat="42.98008" lon="-0.49634">
        <ele>1678.599365</ele>
        <time>2011-08-28T10:31:48Z</time>
      </trkpt>
      <trkpt lat="42.97999" lon="-0.4963">
        <ele>1681.483154</ele>
        <time>2011-08-28T10:32:03Z</time>
      </trkpt>
      <trkpt lat="42.97988" lon="-0.49622">
        <ele>1682.925049</ele>
        <time>2011-08-28T10:32:20Z</time>
      </trkpt>
      <trkpt lat="42.97973" lon="-0.49618">
        <ele>1682.44458</ele>
        <time>2011-08-28T10:32:40Z</time>
      </trkpt>
      <trkpt lat="42.97966" lon="-0.49617">
        <ele>1684.367188</ele>
        <time>2011-08-28T10:32:51Z</time>
      </trkpt>
      <trkpt lat="42.9795" lon="-0.49616">
        <ele>1685.809082</ele>
        <time>2011-08-28T10:33:10Z</time>
      </trkpt>
      <trkpt lat="42.97942" lon="-0.49621">
        <ele>1688.693115</ele>
        <time>2011-08-28T10:33:24Z</time>
      </trkpt>
      <trkpt lat="42.97929" lon="-0.49628">
        <ele>1690.615479</ele>
        <time>2011-08-28T10:33:42Z</time>
      </trkpt>
      <trkpt lat="42.97915" lon="-0.49636">
        <ele>1691.576904</ele>
        <time>2011-08-28T10:34:01Z</time>
      </trkpt>
      <trkpt lat="42.97904" lon="-0.49636">
        <ele>1692.057861</ele>
        <time>2011-08-28T10:34:23Z</time>
      </trkpt>
      <trkpt lat="42.97897" lon="-0.49632">
        <ele>1694.460938</ele>
        <time>2011-08-28T10:34:37Z</time>
      </trkpt>
      <trkpt lat="42.97894" lon="-0.4963">
        <ele>1694.460938</ele>
        <time>2011-08-28T10:34:45Z</time>
      </trkpt>
      <trkpt lat="42.97894" lon="-0.4963">
        <ele>1691.096191</ele>
        <time>2011-08-28T10:34:47Z</time>
      </trkpt>
      <trkpt lat="42.97894" lon="-0.4963">
        <ele>1694.94165</ele>
        <time>2011-08-28T10:34:48Z</time>
      </trkpt>
      <trkpt lat="42.97885" lon="-0.49625">
        <ele>1693.980469</ele>
        <time>2011-08-28T10:35:16Z</time>
      </trkpt>
      <trkpt lat="42.97878" lon="-0.49623">
        <ele>1693.980469</ele>
        <time>2011-08-28T10:35:35Z</time>
      </trkpt>
      <trkpt lat="42.97876" lon="-0.49623">
        <ele>1693.499756</ele>
        <time>2011-08-28T10:35:38Z</time>
      </trkpt>
      <trkpt lat="42.97868" lon="-0.49618">
        <ele>1693.980469</ele>
        <time>2011-08-28T10:35:56Z</time>
      </trkpt>
      <trkpt lat="42.97866" lon="-0.49616">
        <ele>1694.460938</ele>
        <time>2011-08-28T10:35:58Z</time>
      </trkpt>
      <trkpt lat="42.97855" lon="-0.49603">
        <ele>1693.499756</ele>
        <time>2011-08-28T10:36:16Z</time>
      </trkpt>
      <trkpt lat="42.9784" lon="-0.49597">
        <ele>1692.057861</ele>
        <time>2011-08-28T10:36:36Z</time>
      </trkpt>
      <trkpt lat="42.97829" lon="-0.49597">
        <ele>1691.096191</ele>
        <time>2011-08-28T10:36:50Z</time>
      </trkpt>
      <trkpt lat="42.97817" lon="-0.49597">
        <ele>1688.693115</ele>
        <time>2011-08-28T10:37:05Z</time>
      </trkpt>
      <trkpt lat="42.97803" lon="-0.49596">
        <ele>1687.250977</ele>
        <time>2011-08-28T10:37:22Z</time>
      </trkpt>
      <trkpt lat="42.978" lon="-0.49597">
        <ele>1687.731689</ele>
        <time>2011-08-28T10:37:26Z</time>
      </trkpt>
      <trkpt lat="42.97788" lon="-0.49601">
        <ele>1687.250977</ele>
        <time>2011-08-28T10:37:41Z</time>
      </trkpt>
      <trkpt lat="42.97778" lon="-0.49606">
        <ele>1686.289795</ele>
        <time>2011-08-28T10:37:55Z</time>
      </trkpt>
      <trkpt lat="42.97768" lon="-0.49617">
        <ele>1686.770264</ele>
        <time>2011-08-28T10:38:10Z</time>
      </trkpt>
      <trkpt lat="42.97763" lon="-0.49625">
        <ele>1688.212402</ele>
        <time>2011-08-28T10:38:26Z</time>
      </trkpt>
      <trkpt lat="42.97754" lon="-0.49632">
        <ele>1688.693115</ele>
        <time>2011-08-28T10:38:45Z</time>
      </trkpt>
      <trkpt lat="42.97751" lon="-0.49633">
        <ele>1692.538574</ele>
        <time>2011-08-28T10:38:59Z</time>
      </trkpt>
      <trkpt lat="42.97746" lon="-0.49638">
        <ele>1689.173584</ele>
        <time>2011-08-28T10:39:08Z</time>
      </trkpt>
      <trkpt lat="42.97733" lon="-0.49646">
        <ele>1692.057861</ele>
        <time>2011-08-28T10:39:25Z</time>
      </trkpt>
      <trkpt lat="42.97729" lon="-0.49646">
        <ele>1692.538574</ele>
        <time>2011-08-28T10:39:45Z</time>
      </trkpt>
      <trkpt lat="42.97725" lon="-0.49645">
        <ele>1694.460938</ele>
        <time>2011-08-28T10:40:15Z</time>
      </trkpt>
      <trkpt lat="42.97724" lon="-0.49645">
        <ele>1694.460938</ele>
        <time>2011-08-28T10:40:16Z</time>
      </trkpt>
      <trkpt lat="42.97718" lon="-0.49644">
        <ele>1693.019043</ele>
        <time>2011-08-28T10:40:23Z</time>
      </trkpt>
      <trkpt lat="42.97703" lon="-0.49634">
        <ele>1696.383789</ele>
        <time>2011-08-28T10:40:42Z</time>
      </trkpt>
      <trkpt lat="42.977" lon="-0.4963">
        <ele>1697.825684</ele>
        <time>2011-08-28T10:40:47Z</time>
      </trkpt>
      <trkpt lat="42.97691" lon="-0.49622">
        <ele>1700.709473</ele>
        <time>2011-08-28T10:41:01Z</time>
      </trkpt>
      <trkpt lat="42.97678" lon="-0.49621">
        <ele>1702.63208</ele>
        <time>2011-08-28T10:41:18Z</time>
      </trkpt>
      <trkpt lat="42.97665" lon="-0.49626">
        <ele>1704.554688</ele>
        <time>2011-08-28T10:41:36Z</time>
      </trkpt>
      <trkpt lat="42.97661" lon="-0.49621">
        <ele>1705.996582</ele>
        <time>2011-08-28T10:41:43Z</time>
      </trkpt>
      <trkpt lat="42.97657" lon="-0.49611">
        <ele>1707.438721</ele>
        <time>2011-08-28T10:41:59Z</time>
      </trkpt>
      <trkpt lat="42.97645" lon="-0.49602">
        <ele>1708.880859</ele>
        <time>2011-08-28T10:42:16Z</time>
      </trkpt>
      <trkpt lat="42.9764" lon="-0.49589">
        <ele>1711.28418</ele>
        <time>2011-08-28T10:42:29Z</time>
      </trkpt>
      <trkpt lat="42.97635" lon="-0.49571">
        <ele>1712.245361</ele>
        <time>2011-08-28T10:42:46Z</time>
      </trkpt>
      <trkpt lat="42.97626" lon="-0.49573">
        <ele>1712.245361</ele>
        <time>2011-08-28T10:43:03Z</time>
      </trkpt>
      <trkpt lat="42.9762" lon="-0.49576">
        <ele>1714.648682</ele>
        <time>2011-08-28T10:43:17Z</time>
      </trkpt>
      <trkpt lat="42.97616" lon="-0.49576">
        <ele>1714.648682</ele>
        <time>2011-08-28T10:43:36Z</time>
      </trkpt>
      <trkpt lat="42.97605" lon="-0.49568">
        <ele>1714.167969</ele>
        <time>2011-08-28T10:43:52Z</time>
      </trkpt>
      <trkpt lat="42.97589" lon="-0.49555">
        <ele>1713.687256</ele>
        <time>2011-08-28T10:44:12Z</time>
      </trkpt>
      <trkpt lat="42.97575" lon="-0.49545">
        <ele>1713.687256</ele>
        <time>2011-08-28T10:44:31Z</time>
      </trkpt>
      <trkpt lat="42.97569" lon="-0.49548">
        <ele>1713.687256</ele>
        <time>2011-08-28T10:44:53Z</time>
      </trkpt>
      <trkpt lat="42.97558" lon="-0.49557">
        <ele>1713.206787</ele>
        <time>2011-08-28T10:45:07Z</time>
      </trkpt>
      <trkpt lat="42.97542" lon="-0.49576">
        <ele>1712.726074</ele>
        <time>2011-08-28T10:45:27Z</time>
      </trkpt>
      <trkpt lat="42.97538" lon="-0.49579">
        <ele>1715.129395</ele>
        <time>2011-08-28T10:45:33Z</time>
      </trkpt>
      <trkpt lat="42.97527" lon="-0.49576">
        <ele>1716.571289</ele>
        <time>2011-08-28T10:45:51Z</time>
      </trkpt>
      <trkpt lat="42.97522" lon="-0.49572">
        <ele>1718.013184</ele>
        <time>2011-08-28T10:46:02Z</time>
      </trkpt>
      <trkpt lat="42.97522" lon="-0.49569">
        <ele>1716.090576</ele>
        <time>2011-08-28T10:46:05Z</time>
      </trkpt>
      <trkpt lat="42.97522" lon="-0.49563">
        <ele>1719.935791</ele>
        <time>2011-08-28T10:46:11Z</time>
      </trkpt>
      <trkpt lat="42.97521" lon="-0.49557">
        <ele>1718.974609</ele>
        <time>2011-08-28T10:46:16Z</time>
      </trkpt>
      <trkpt lat="42.97512" lon="-0.49535">
        <ele>1720.897217</ele>
        <time>2011-08-28T10:46:38Z</time>
      </trkpt>
      <trkpt lat="42.97507" lon="-0.49525">
        <ele>1724.261963</ele>
        <time>2011-08-28T10:46:53Z</time>
      </trkpt>
      <trkpt lat="42.97505" lon="-0.49515">
        <ele>1725.703857</ele>
        <time>2011-08-28T10:47:09Z</time>
      </trkpt>
      <trkpt lat="42.975" lon="-0.49505">
        <ele>1728.587891</ele>
        <time>2011-08-28T10:47:26Z</time>
      </trkpt>
      <trkpt lat="42.97492" lon="-0.49496">
        <ele>1730.510498</ele>
        <time>2011-08-28T10:47:43Z</time>
      </trkpt>
      <trkpt lat="42.97482" lon="-0.49486">
        <ele>1731.47168</ele>
        <time>2011-08-28T10:48:00Z</time>
      </trkpt>
      <trkpt lat="42.97471" lon="-0.49471">
        <ele>1734.355713</ele>
        <time>2011-08-28T10:48:20Z</time>
      </trkpt>
      <trkpt lat="42.97461" lon="-0.49468">
        <ele>1736.27832</ele>
        <time>2011-08-28T10:48:37Z</time>
      </trkpt>
      <trkpt lat="42.97452" lon="-0.49466">
        <ele>1738.200928</ele>
        <time>2011-08-28T10:48:53Z</time>
      </trkpt>
      <trkpt lat="42.97447" lon="-0.49462">
        <ele>1740.123779</ele>
        <time>2011-08-28T10:49:04Z</time>
      </trkpt>
      <trkpt lat="42.9744" lon="-0.49457">
        <ele>1742.046387</ele>
        <time>2011-08-28T10:49:19Z</time>
      </trkpt>
      <trkpt lat="42.9743" lon="-0.49456">
        <ele>1744.930176</ele>
        <time>2011-08-28T10:49:37Z</time>
      </trkpt>
      <trkpt lat="42.97421" lon="-0.49451">
        <ele>1745.891602</ele>
        <time>2011-08-28T10:49:54Z</time>
      </trkpt>
      <trkpt lat="42.97416" lon="-0.4945">
        <ele>1747.814209</ele>
        <time>2011-08-28T10:50:11Z</time>
      </trkpt>
      <trkpt lat="42.97408" lon="-0.49448">
        <ele>1749.736816</ele>
        <time>2011-08-28T10:50:27Z</time>
      </trkpt>
      <trkpt lat="42.97403" lon="-0.49447">
        <ele>1751.659424</ele>
        <time>2011-08-28T10:50:41Z</time>
      </trkpt>
      <trkpt lat="42.97401" lon="-0.49441">
        <ele>1755.023926</ele>
        <time>2011-08-28T10:50:53Z</time>
      </trkpt>
      <trkpt lat="42.97396" lon="-0.49437">
        <ele>1755.504639</ele>
        <time>2011-08-28T10:51:05Z</time>
      </trkpt>
      <trkpt lat="42.97392" lon="-0.49432">
        <ele>1756.946777</ele>
        <time>2011-08-28T10:51:12Z</time>
      </trkpt>
      <trkpt lat="42.97391" lon="-0.4943">
        <ele>1758.388672</ele>
        <time>2011-08-28T10:51:15Z</time>
      </trkpt>
      <trkpt lat="42.97385" lon="-0.49424">
        <ele>1761.272705</ele>
        <time>2011-08-28T10:51:28Z</time>
      </trkpt>
      <trkpt lat="42.9738" lon="-0.49427">
        <ele>1760.791992</ele>
        <time>2011-08-28T10:51:46Z</time>
      </trkpt>
      <trkpt lat="42.97373" lon="-0.49434">
        <ele>1760.791992</ele>
        <time>2011-08-28T10:51:56Z</time>
      </trkpt>
      <trkpt lat="42.9736" lon="-0.4944">
        <ele>1762.7146</ele>
        <time>2011-08-28T10:52:12Z</time>
      </trkpt>
      <trkpt lat="42.97347" lon="-0.49441">
        <ele>1764.156494</ele>
        <time>2011-08-28T10:52:29Z</time>
      </trkpt>
      <trkpt lat="42.97338" lon="-0.4944">
        <ele>1764.156494</ele>
        <time>2011-08-28T10:52:40Z</time>
      </trkpt>
      <trkpt lat="42.9732" lon="-0.49436">
        <ele>1764.637207</ele>
        <time>2011-08-28T10:53:01Z</time>
      </trkpt>
      <trkpt lat="42.97313" lon="-0.49423">
        <ele>1766.079102</ele>
        <time>2011-08-28T10:53:17Z</time>
      </trkpt>
      <trkpt lat="42.97301" lon="-0.49415">
        <ele>1767.040527</ele>
        <time>2011-08-28T10:53:33Z</time>
      </trkpt>
      <trkpt lat="42.973" lon="-0.49413">
        <ele>1764.156494</ele>
        <time>2011-08-28T10:53:49Z</time>
      </trkpt>
      <trkpt lat="42.973" lon="-0.49413">
        <ele>1768.001709</ele>
        <time>2011-08-28T10:53:50Z</time>
      </trkpt>
      <trkpt lat="42.973" lon="-0.49413">
        <ele>1762.7146</ele>
        <time>2011-08-28T10:53:51Z</time>
      </trkpt>
      <trkpt lat="42.973" lon="-0.49413">
        <ele>1771.366211</ele>
        <time>2011-08-28T10:53:52Z</time>
      </trkpt>
      <trkpt lat="42.973" lon="-0.49412">
        <ele>1766.559814</ele>
        <time>2011-08-28T10:53:53Z</time>
      </trkpt>
      <trkpt lat="42.973" lon="-0.49415">
        <ele>1766.079102</ele>
        <time>2011-08-28T10:54:25Z</time>
      </trkpt>
      <trkpt lat="42.97299" lon="-0.49413">
        <ele>1767.040527</ele>
        <time>2011-08-28T10:55:04Z</time>
      </trkpt>
      <trkpt lat="42.973" lon="-0.49412">
        <ele>1768.001709</ele>
        <time>2011-08-28T10:57:36Z</time>
      </trkpt>
      <trkpt lat="42.97301" lon="-0.49413">
        <ele>1767.520996</ele>
        <time>2011-08-28T10:59:05Z</time>
      </trkpt>
      <trkpt lat="42.97295" lon="-0.49408">
        <ele>1767.520996</ele>
        <time>2011-08-28T10:59:23Z</time>
      </trkpt>
      <trkpt lat="42.97287" lon="-0.494">
        <ele>1765.598633</ele>
        <time>2011-08-28T10:59:40Z</time>
      </trkpt>
      <trkpt lat="42.97281" lon="-0.49391">
        <ele>1764.156494</ele>
        <time>2011-08-28T10:59:53Z</time>
      </trkpt>
      <trkpt lat="42.97278" lon="-0.49376">
        <ele>1760.791992</ele>
        <time>2011-08-28T11:00:07Z</time>
      </trkpt>
      <trkpt lat="42.97274" lon="-0.49352">
        <ele>1761.272705</ele>
        <time>2011-08-28T11:00:25Z</time>
      </trkpt>
      <trkpt lat="42.97264" lon="-0.49333">
        <ele>1763.675781</ele>
        <time>2011-08-28T11:00:43Z</time>
      </trkpt>
      <trkpt lat="42.97266" lon="-0.49318">
        <ele>1766.079102</ele>
        <time>2011-08-28T11:01:00Z</time>
      </trkpt>
      <trkpt lat="42.97271" lon="-0.49317">
        <ele>1767.040527</ele>
        <time>2011-08-28T11:01:18Z</time>
      </trkpt>
      <trkpt lat="42.97278" lon="-0.49317">
        <ele>1768.001709</ele>
        <time>2011-08-28T11:01:28Z</time>
      </trkpt>
      <trkpt lat="42.9729" lon="-0.49318">
        <ele>1771.846924</ele>
        <time>2011-08-28T11:01:46Z</time>
      </trkpt>
      <trkpt lat="42.973" lon="-0.49317">
        <ele>1774.731201</ele>
        <time>2011-08-28T11:02:07Z</time>
      </trkpt>
      <trkpt lat="42.97311" lon="-0.49321">
        <ele>1777.61499</ele>
        <time>2011-08-28T11:02:26Z</time>
      </trkpt>
      <trkpt lat="42.97319" lon="-0.49326">
        <ele>1780.018311</ele>
        <time>2011-08-28T11:02:42Z</time>
      </trkpt>
      <trkpt lat="42.97327" lon="-0.49329">
        <ele>1783.863525</ele>
        <time>2011-08-28T11:02:57Z</time>
      </trkpt>
      <trkpt lat="42.97332" lon="-0.49326">
        <ele>1786.747314</ele>
        <time>2011-08-28T11:03:12Z</time>
      </trkpt>
      <trkpt lat="42.97323" lon="-0.49306">
        <ele>1788.67041</ele>
        <time>2011-08-28T11:03:33Z</time>
      </trkpt>
      <trkpt lat="42.9732" lon="-0.49301">
        <ele>1789.150879</ele>
        <time>2011-08-28T11:03:40Z</time>
      </trkpt>
      <trkpt lat="42.97312" lon="-0.49287">
        <ele>1790.112305</ele>
        <time>2011-08-28T11:03:57Z</time>
      </trkpt>
      <trkpt lat="42.97305" lon="-0.49277">
        <ele>1792.034912</ele>
        <time>2011-08-28T11:04:12Z</time>
      </trkpt>
      <trkpt lat="42.97295" lon="-0.49258">
        <ele>1794.437988</ele>
        <time>2011-08-28T11:04:34Z</time>
      </trkpt>
      <trkpt lat="42.97284" lon="-0.49242">
        <ele>1796.36084</ele>
        <time>2011-08-28T11:04:54Z</time>
      </trkpt>
      <trkpt lat="42.97281" lon="-0.49237">
        <ele>1796.841309</ele>
        <time>2011-08-28T11:05:11Z</time>
      </trkpt>
      <trkpt lat="42.97274" lon="-0.49223">
        <ele>1798.763916</ele>
        <time>2011-08-28T11:05:34Z</time>
      </trkpt>
      <trkpt lat="42.97261" lon="-0.492">
        <ele>1799.725342</ele>
        <time>2011-08-28T11:06:00Z</time>
      </trkpt>
      <trkpt lat="42.97248" lon="-0.49186">
        <ele>1802.128418</ele>
        <time>2011-08-28T11:06:22Z</time>
      </trkpt>
      <trkpt lat="42.97235" lon="-0.49174">
        <ele>1802.128418</ele>
        <time>2011-08-28T11:06:43Z</time>
      </trkpt>
      <trkpt lat="42.97232" lon="-0.49173">
        <ele>1803.570557</ele>
        <time>2011-08-28T11:06:48Z</time>
      </trkpt>
      <trkpt lat="42.97218" lon="-0.49164">
        <ele>1805.493408</ele>
        <time>2011-08-28T11:07:08Z</time>
      </trkpt>
      <trkpt lat="42.97204" lon="-0.49158">
        <ele>1807.416016</ele>
        <time>2011-08-28T11:07:26Z</time>
      </trkpt>
      <trkpt lat="42.97192" lon="-0.49162">
        <ele>1806.935303</ele>
        <time>2011-08-28T11:07:44Z</time>
      </trkpt>
      <trkpt lat="42.97179" lon="-0.49161">
        <ele>1808.377197</ele>
        <time>2011-08-28T11:08:01Z</time>
      </trkpt>
      <trkpt lat="42.97161" lon="-0.49158">
        <ele>1808.85791</ele>
        <time>2011-08-28T11:08:23Z</time>
      </trkpt>
      <trkpt lat="42.97149" lon="-0.49158">
        <ele>1810.299805</ele>
        <time>2011-08-28T11:08:42Z</time>
      </trkpt>
      <trkpt lat="42.97137" lon="-0.49155">
        <ele>1813.664307</ele>
        <time>2011-08-28T11:09:00Z</time>
      </trkpt>
      <trkpt lat="42.97119" lon="-0.49144">
        <ele>1816.067627</ele>
        <time>2011-08-28T11:09:25Z</time>
      </trkpt>
      <trkpt lat="42.97107" lon="-0.4914">
        <ele>1815.106445</ele>
        <time>2011-08-28T11:09:43Z</time>
      </trkpt>
      <trkpt lat="42.97091" lon="-0.49135">
        <ele>1813.664307</ele>
        <time>2011-08-28T11:10:03Z</time>
      </trkpt>
      <trkpt lat="42.97079" lon="-0.49131">
        <ele>1814.625732</ele>
        <time>2011-08-28T11:10:20Z</time>
      </trkpt>
      <trkpt lat="42.97078" lon="-0.4913">
        <ele>1814.625732</ele>
        <time>2011-08-28T11:10:21Z</time>
      </trkpt>
      <trkpt lat="42.9707" lon="-0.49119">
        <ele>1817.029053</ele>
        <time>2011-08-28T11:10:38Z</time>
      </trkpt>
      <trkpt lat="42.97058" lon="-0.49114">
        <ele>1819.432373</ele>
        <time>2011-08-28T11:10:55Z</time>
      </trkpt>
      <trkpt lat="42.97046" lon="-0.49114">
        <ele>1820.393799</ele>
        <time>2011-08-28T11:11:13Z</time>
      </trkpt>
      <trkpt lat="42.9704" lon="-0.49113">
        <ele>1820.874512</ele>
        <time>2011-08-28T11:11:21Z</time>
      </trkpt>
      <trkpt lat="42.97025" lon="-0.49106">
        <ele>1824.239014</ele>
        <time>2011-08-28T11:11:41Z</time>
      </trkpt>
      <trkpt lat="42.97024" lon="-0.49106">
        <ele>1824.719727</ele>
        <time>2011-08-28T11:11:43Z</time>
      </trkpt>
      <trkpt lat="42.97008" lon="-0.49099">
        <ele>1824.719727</ele>
        <time>2011-08-28T11:12:02Z</time>
      </trkpt>
      <trkpt lat="42.97008" lon="-0.49099">
        <ele>1825.200195</ele>
        <time>2011-08-28T11:12:24Z</time>
      </trkpt>
      <trkpt lat="42.96996" lon="-0.49102">
        <ele>1825.680908</ele>
        <time>2011-08-28T11:12:45Z</time>
      </trkpt>
      <trkpt lat="42.96978" lon="-0.49108">
        <ele>1827.603516</ele>
        <time>2011-08-28T11:13:07Z</time>
      </trkpt>
      <trkpt lat="42.96973" lon="-0.49109">
        <ele>1829.04541</ele>
        <time>2011-08-28T11:13:13Z</time>
      </trkpt>
      <trkpt lat="42.96963" lon="-0.49109">
        <ele>1831.44873</ele>
        <time>2011-08-28T11:13:25Z</time>
      </trkpt>
      <trkpt lat="42.96954" lon="-0.49106">
        <ele>1832.410156</ele>
        <time>2011-08-28T11:13:45Z</time>
      </trkpt>
      <trkpt lat="42.96944" lon="-0.49108">
        <ele>1832.890625</ele>
        <time>2011-08-28T11:14:04Z</time>
      </trkpt>
      <trkpt lat="42.96939" lon="-0.49111">
        <ele>1831.44873</ele>
        <time>2011-08-28T11:14:27Z</time>
      </trkpt>
      <trkpt lat="42.96935" lon="-0.49106">
        <ele>1833.852051</ele>
        <time>2011-08-28T11:14:41Z</time>
      </trkpt>
      <trkpt lat="42.96934" lon="-0.49103">
        <ele>1833.852051</ele>
        <time>2011-08-28T11:14:56Z</time>
      </trkpt>
      <trkpt lat="42.96931" lon="-0.49095">
        <ele>1833.852051</ele>
        <time>2011-08-28T11:15:14Z</time>
      </trkpt>
      <trkpt lat="42.96917" lon="-0.49092">
        <ele>1834.332764</ele>
        <time>2011-08-28T11:15:31Z</time>
      </trkpt>
      <trkpt lat="42.96913" lon="-0.49091">
        <ele>1834.332764</ele>
        <time>2011-08-28T11:15:51Z</time>
      </trkpt>
      <trkpt lat="42.96916" lon="-0.4909">
        <ele>1834.813477</ele>
        <time>2011-08-28T11:16:25Z</time>
      </trkpt>
      <trkpt lat="42.96925" lon="-0.49078">
        <ele>1837.69751</ele>
        <time>2011-08-28T11:16:44Z</time>
      </trkpt>
      <trkpt lat="42.96929" lon="-0.49066">
        <ele>1841.062012</ele>
        <time>2011-08-28T11:17:02Z</time>
      </trkpt>
      <trkpt lat="42.9693" lon="-0.49061">
        <ele>1841.062012</ele>
        <time>2011-08-28T11:17:10Z</time>
      </trkpt>
      <trkpt lat="42.96936" lon="-0.49037">
        <ele>1841.062012</ele>
        <time>2011-08-28T11:17:30Z</time>
      </trkpt>
      <trkpt lat="42.96938" lon="-0.49024">
        <ele>1841.542725</ele>
        <time>2011-08-28T11:17:48Z</time>
      </trkpt>
      <trkpt lat="42.96942" lon="-0.49017">
        <ele>1842.50415</ele>
        <time>2011-08-28T11:18:07Z</time>
      </trkpt>
      <trkpt lat="42.96942" lon="-0.49017">
        <ele>1842.50415</ele>
        <time>2011-08-28T11:18:27Z</time>
      </trkpt>
      <trkpt lat="42.96944" lon="-0.49019">
        <ele>1841.542725</ele>
        <time>2011-08-28T11:18:54Z</time>
      </trkpt>
      <trkpt lat="42.96947" lon="-0.49018">
        <ele>1843.465332</ele>
        <time>2011-08-28T11:21:22Z</time>
      </trkpt>
      <trkpt lat="42.96945" lon="-0.49019">
        <ele>1840.10083</ele>
        <time>2011-08-28T11:21:42Z</time>
      </trkpt>
      <trkpt lat="42.96945" lon="-0.49019">
        <ele>1843.946045</ele>
        <time>2011-08-28T11:21:43Z</time>
      </trkpt>
      <trkpt lat="42.96945" lon="-0.49021">
        <ele>1843.465332</ele>
        <time>2011-08-28T11:22:24Z</time>
      </trkpt>
      <trkpt lat="42.96945" lon="-0.4902">
        <ele>1843.946045</ele>
        <time>2011-08-28T11:32:08Z</time>
      </trkpt>
      <trkpt lat="42.96944" lon="-0.49024">
        <ele>1843.946045</ele>
        <time>2011-08-28T11:46:45Z</time>
      </trkpt>
      <trkpt lat="42.96943" lon="-0.49012">
        <ele>1844.426514</ele>
        <time>2011-08-28T11:47:24Z</time>
      </trkpt>
      <trkpt lat="42.96944" lon="-0.49022">
        <ele>1844.426514</ele>
        <time>2011-08-28T11:47:50Z</time>
      </trkpt>
      <trkpt lat="42.96943" lon="-0.49019">
        <ele>1845.387939</ele>
        <time>2011-08-28T11:48:49Z</time>
      </trkpt>
      <trkpt lat="42.96945" lon="-0.49023">
        <ele>1845.387939</ele>
        <time>2011-08-28T11:49:04Z</time>
      </trkpt>
      <trkpt lat="42.96951" lon="-0.49027">
        <ele>1844.907227</ele>
        <time>2011-08-28T11:49:33Z</time>
      </trkpt>
      <trkpt lat="42.96954" lon="-0.49021">
        <ele>1844.907227</ele>
        <time>2011-08-28T11:49:47Z</time>
      </trkpt>
      <trkpt lat="42.96946" lon="-0.49018">
        <ele>1845.387939</ele>
        <time>2011-08-28T11:50:11Z</time>
      </trkpt>
      <trkpt lat="42.96941" lon="-0.4902">
        <ele>1844.907227</ele>
        <time>2011-08-28T11:50:36Z</time>
      </trkpt>
      <trkpt lat="42.96946" lon="-0.49018">
        <ele>1845.387939</ele>
        <time>2011-08-28T11:50:58Z</time>
      </trkpt>
      <trkpt lat="42.96948" lon="-0.49015">
        <ele>1846.829834</ele>
        <time>2011-08-28T11:51:07Z</time>
      </trkpt>
      <trkpt lat="42.96949" lon="-0.49018">
        <ele>1843.946045</ele>
        <time>2011-08-28T11:51:26Z</time>
      </trkpt>
      <trkpt lat="42.96948" lon="-0.49022">
        <ele>1844.426514</ele>
        <time>2011-08-28T11:51:37Z</time>
      </trkpt>
      <trkpt lat="42.96948" lon="-0.49023">
        <ele>1844.426514</ele>
        <time>2011-08-28T11:51:41Z</time>
      </trkpt>
      <trkpt lat="42.96946" lon="-0.49022">
        <ele>1844.426514</ele>
        <time>2011-08-28T11:51:57Z</time>
      </trkpt>
      <trkpt lat="42.96937" lon="-0.4901">
        <ele>1843.946045</ele>
        <time>2011-08-28T11:52:03Z</time>
      </trkpt>
      <trkpt lat="42.96943" lon="-0.49001">
        <ele>1844.426514</ele>
        <time>2011-08-28T11:52:14Z</time>
      </trkpt>
      <trkpt lat="42.96942" lon="-0.49002">
        <ele>1843.465332</ele>
        <time>2011-08-28T11:52:15Z</time>
      </trkpt>
      <trkpt lat="42.9694" lon="-0.49011">
        <ele>1843.946045</ele>
        <time>2011-08-28T11:52:29Z</time>
      </trkpt>
      <trkpt lat="42.96937" lon="-0.49016">
        <ele>1843.465332</ele>
        <time>2011-08-28T11:52:41Z</time>
      </trkpt>
      <trkpt lat="42.96943" lon="-0.4902">
        <ele>1844.426514</ele>
        <time>2011-08-28T11:52:57Z</time>
      </trkpt>
      <trkpt lat="42.96941" lon="-0.49021">
        <ele>1844.426514</ele>
        <time>2011-08-28T11:53:00Z</time>
      </trkpt>
      <trkpt lat="42.96933" lon="-0.49023">
        <ele>1843.946045</ele>
        <time>2011-08-28T11:53:07Z</time>
      </trkpt>
      <trkpt lat="42.9694" lon="-0.49017">
        <ele>1844.426514</ele>
        <time>2011-08-28T11:53:27Z</time>
      </trkpt>
      <trkpt lat="42.96941" lon="-0.49026">
        <ele>1844.907227</ele>
        <time>2011-08-28T11:53:42Z</time>
      </trkpt>
      <trkpt lat="42.96942" lon="-0.49013">
        <ele>1845.387939</ele>
        <time>2011-08-28T11:53:50Z</time>
      </trkpt>
      <trkpt lat="42.96941" lon="-0.49005">
        <ele>1845.387939</ele>
        <time>2011-08-28T11:54:04Z</time>
      </trkpt>
      <trkpt lat="42.96942" lon="-0.49008">
        <ele>1844.907227</ele>
        <time>2011-08-28T11:54:07Z</time>
      </trkpt>
      <trkpt lat="42.96952" lon="-0.49019">
        <ele>1844.907227</ele>
        <time>2011-08-28T11:54:12Z</time>
      </trkpt>
      <trkpt lat="42.96955" lon="-0.49017">
        <ele>1845.387939</ele>
        <time>2011-08-28T11:54:16Z</time>
      </trkpt>
      <trkpt lat="42.96957" lon="-0.49013">
        <ele>1845.387939</ele>
        <time>2011-08-28T11:54:30Z</time>
      </trkpt>
      <trkpt lat="42.9695" lon="-0.49016">
        <ele>1845.387939</ele>
        <time>2011-08-28T11:54:37Z</time>
      </trkpt>
      <trkpt lat="42.96946" lon="-0.49002">
        <ele>1845.387939</ele>
        <time>2011-08-28T11:54:49Z</time>
      </trkpt>
      <trkpt lat="42.96947" lon="-0.49006">
        <ele>1845.387939</ele>
        <time>2011-08-28T11:54:53Z</time>
      </trkpt>
      <trkpt lat="42.96952" lon="-0.49027">
        <ele>1845.387939</ele>
        <time>2011-08-28T11:55:02Z</time>
      </trkpt>
      <trkpt lat="42.96956" lon="-0.49032">
        <ele>1844.907227</ele>
        <time>2011-08-28T11:55:10Z</time>
      </trkpt>
      <trkpt lat="42.96948" lon="-0.49039">
        <ele>1845.387939</ele>
        <time>2011-08-28T11:55:23Z</time>
      </trkpt>
      <trkpt lat="42.96946" lon="-0.49023">
        <ele>1844.907227</ele>
        <time>2011-08-28T11:55:46Z</time>
      </trkpt>
      <trkpt lat="42.96947" lon="-0.49022">
        <ele>1844.907227</ele>
        <time>2011-08-28T11:55:47Z</time>
      </trkpt>
      <trkpt lat="42.96945" lon="-0.49021">
        <ele>1845.387939</ele>
        <time>2011-08-28T11:55:50Z</time>
      </trkpt>
      <trkpt lat="42.96936" lon="-0.49012">
        <ele>1844.907227</ele>
        <time>2011-08-28T11:56:05Z</time>
      </trkpt>
      <trkpt lat="42.96935" lon="-0.49013">
        <ele>1844.907227</ele>
        <time>2011-08-28T11:56:16Z</time>
      </trkpt>
      <trkpt lat="42.96939" lon="-0.49012">
        <ele>1844.426514</ele>
        <time>2011-08-28T11:56:20Z</time>
      </trkpt>
      <trkpt lat="42.96952" lon="-0.49011">
        <ele>1844.907227</ele>
        <time>2011-08-28T11:56:34Z</time>
      </trkpt>
      <trkpt lat="42.9697" lon="-0.48992">
        <ele>1844.426514</ele>
        <time>2011-08-28T11:57:00Z</time>
      </trkpt>
    </trkseg>
  </trk>
  <trk>
    <name><![CDATA[ACTIVE LOG 002]]></name>
    <trkseg>
      <trkpt lat="42.96975" lon="-0.48986">
        <ele>1844.426514</ele>
        <time>2011-08-28T11:57:08Z</time>
      </trkpt>
      <trkpt lat="42.96975" lon="-0.48986">
        <ele>1843.465332</ele>
        <time>2011-08-28T11:57:14Z</time>
      </trkpt>
      <trkpt lat="42.96953" lon="-0.49024">
        <ele>1846.349365</ele>
        <time>2011-08-28T11:57:17Z</time>
      </trkpt>
      <trkpt lat="42.96947" lon="-0.49026">
        <ele>1845.387939</ele>
        <time>2011-08-28T11:57:18Z</time>
      </trkpt>
      <trkpt lat="42.96947" lon="-0.49025">
        <ele>1844.426514</ele>
        <time>2011-08-28T11:57:20Z</time>
      </trkpt>
      <trkpt lat="42.96945" lon="-0.49018">
        <ele>1844.426514</ele>
        <time>2011-08-28T11:58:02Z</time>
      </trkpt>
      <trkpt lat="42.96944" lon="-0.49019">
        <ele>1845.387939</ele>
        <time>2011-08-28T12:19:37Z</time>
      </trkpt>
      <trkpt lat="42.96944" lon="-0.4902">
        <ele>1843.465332</ele>
        <time>2011-08-28T12:26:16Z</time>
      </trkpt>
      <trkpt lat="42.96946" lon="-0.49018">
        <ele>1842.984619</ele>
        <time>2011-08-28T12:27:14Z</time>
      </trkpt>
      <trkpt lat="42.96947" lon="-0.49018">
        <ele>1845.387939</ele>
        <time>2011-08-28T12:29:24Z</time>
      </trkpt>
      <trkpt lat="42.96947" lon="-0.49019">
        <ele>1845.387939</ele>
        <time>2011-08-28T12:30:16Z</time>
      </trkpt>
      <trkpt lat="42.96947" lon="-0.49018">
        <ele>1845.387939</ele>
        <time>2011-08-28T12:30:44Z</time>
      </trkpt>
      <trkpt lat="42.96947" lon="-0.49018">
        <ele>1846.349365</ele>
        <time>2011-08-28T12:31:08Z</time>
      </trkpt>
      <trkpt lat="42.96947" lon="-0.49019">
        <ele>1846.829834</ele>
        <time>2011-08-28T12:32:29Z</time>
      </trkpt>
      <trkpt lat="42.96948" lon="-0.49018">
        <ele>1846.349365</ele>
        <time>2011-08-28T12:33:23Z</time>
      </trkpt>
      <trkpt lat="42.9695" lon="-0.49016">
        <ele>1846.829834</ele>
        <time>2011-08-28T12:34:46Z</time>
      </trkpt>
      <trkpt lat="42.96949" lon="-0.49018">
        <ele>1848.752441</ele>
        <time>2011-08-28T12:35:01Z</time>
      </trkpt>
      <trkpt lat="42.96947" lon="-0.49017">
        <ele>1848.752441</ele>
        <time>2011-08-28T12:36:24Z</time>
      </trkpt>
      <trkpt lat="42.96947" lon="-0.49018">
        <ele>1848.752441</ele>
        <time>2011-08-28T12:37:58Z</time>
      </trkpt>
      <trkpt lat="42.96948" lon="-0.49019">
        <ele>1848.752441</ele>
        <time>2011-08-28T12:39:12Z</time>
      </trkpt>
      <trkpt lat="42.96944" lon="-0.49025">
        <ele>1849.713867</ele>
        <time>2011-08-28T12:40:45Z</time>
      </trkpt>
      <trkpt lat="42.9695" lon="-0.49022">
        <ele>1848.752441</ele>
        <time>2011-08-28T12:42:01Z</time>
      </trkpt>
      <trkpt lat="42.96952" lon="-0.49017">
        <ele>1849.713867</ele>
        <time>2011-08-28T12:42:58Z</time>
      </trkpt>
      <trkpt lat="42.96948" lon="-0.4902">
        <ele>1850.19458</ele>
        <time>2011-08-28T12:44:44Z</time>
      </trkpt>
      <trkpt lat="42.96943" lon="-0.49024">
        <ele>1851.636475</ele>
        <time>2011-08-28T12:46:29Z</time>
      </trkpt>
      <trkpt lat="42.96942" lon="-0.49023">
        <ele>1851.636475</ele>
        <time>2011-08-28T12:48:15Z</time>
      </trkpt>
      <trkpt lat="42.96948" lon="-0.49019">
        <ele>1850.19458</ele>
        <time>2011-08-28T12:50:48Z</time>
      </trkpt>
      <trkpt lat="42.96947" lon="-0.49025">
        <ele>1850.675049</ele>
        <time>2011-08-28T12:52:12Z</time>
      </trkpt>
      <trkpt lat="42.96942" lon="-0.49025">
        <ele>1849.713867</ele>
        <time>2011-08-28T12:53:22Z</time>
      </trkpt>
      <trkpt lat="42.96941" lon="-0.49023">
        <ele>1849.713867</ele>
        <time>2011-08-28T12:53:52Z</time>
      </trkpt>
      <trkpt lat="42.96943" lon="-0.49023">
        <ele>1848.752441</ele>
        <time>2011-08-28T12:54:17Z</time>
      </trkpt>
      <trkpt lat="42.96946" lon="-0.49023">
        <ele>1848.752441</ele>
        <time>2011-08-28T12:55:10Z</time>
      </trkpt>
      <trkpt lat="42.96941" lon="-0.49025">
        <ele>1849.233154</ele>
        <time>2011-08-28T12:56:50Z</time>
      </trkpt>
      <trkpt lat="42.96946" lon="-0.49043">
        <ele>1849.713867</ele>
        <time>2011-08-28T13:00:02Z</time>
      </trkpt>
      <trkpt lat="42.96941" lon="-0.49064">
        <ele>1849.233154</ele>
        <time>2011-08-28T13:00:18Z</time>
      </trkpt>
      <trkpt lat="42.96951" lon="-0.49071">
        <ele>1849.713867</ele>
        <time>2011-08-28T13:00:24Z</time>
      </trkpt>
      <trkpt lat="42.9695" lon="-0.49082">
        <ele>1848.752441</ele>
        <time>2011-08-28T13:00:35Z</time>
      </trkpt>
      <trkpt lat="42.96949" lon="-0.49093">
        <ele>1845.868652</ele>
        <time>2011-08-28T13:00:48Z</time>
      </trkpt>
      <trkpt lat="42.96946" lon="-0.491">
        <ele>1843.946045</ele>
        <time>2011-08-28T13:00:57Z</time>
      </trkpt>
      <trkpt lat="42.96941" lon="-0.49106">
        <ele>1842.50415</ele>
        <time>2011-08-28T13:01:03Z</time>
      </trkpt>
      <trkpt lat="42.96943" lon="-0.49111">
        <ele>1842.023438</ele>
        <time>2011-08-28T13:01:14Z</time>
      </trkpt>
      <trkpt lat="42.96959" lon="-0.4911">
        <ele>1840.581299</ele>
        <time>2011-08-28T13:01:32Z</time>
      </trkpt>
      <trkpt lat="42.96977" lon="-0.49113">
        <ele>1837.69751</ele>
        <time>2011-08-28T13:01:52Z</time>
      </trkpt>
      <trkpt lat="42.9699" lon="-0.49109">
        <ele>1834.813477</ele>
        <time>2011-08-28T13:02:07Z</time>
      </trkpt>
      <trkpt lat="42.96999" lon="-0.49104">
        <ele>1832.890625</ele>
        <time>2011-08-28T13:02:22Z</time>
      </trkpt>
      <trkpt lat="42.97013" lon="-0.49104">
        <ele>1832.410156</ele>
        <time>2011-08-28T13:02:37Z</time>
      </trkpt>
      <trkpt lat="42.97022" lon="-0.49109">
        <ele>1831.929443</ele>
        <time>2011-08-28T13:02:48Z</time>
      </trkpt>
      <trkpt lat="42.97028" lon="-0.4911">
        <ele>1830.487549</ele>
        <time>2011-08-28T13:02:53Z</time>
      </trkpt>
      <trkpt lat="42.97042" lon="-0.49116">
        <ele>1827.603516</ele>
        <time>2011-08-28T13:03:10Z</time>
      </trkpt>
      <trkpt lat="42.97052" lon="-0.49118">
        <ele>1827.123047</ele>
        <time>2011-08-28T13:03:22Z</time>
      </trkpt>
      <trkpt lat="42.97067" lon="-0.49121">
        <ele>1824.239014</ele>
        <time>2011-08-28T13:03:40Z</time>
      </trkpt>
      <trkpt lat="42.97073" lon="-0.49127">
        <ele>1822.797119</ele>
        <time>2011-08-28T13:03:48Z</time>
      </trkpt>
      <trkpt lat="42.9708" lon="-0.49137">
        <ele>1821.35498</ele>
        <time>2011-08-28T13:03:58Z</time>
      </trkpt>
      <trkpt lat="42.97092" lon="-0.49141">
        <ele>1820.874512</ele>
        <time>2011-08-28T13:04:15Z</time>
      </trkpt>
      <trkpt lat="42.97099" lon="-0.49144">
        <ele>1821.35498</ele>
        <time>2011-08-28T13:04:22Z</time>
      </trkpt>
      <trkpt lat="42.97103" lon="-0.49145">
        <ele>1821.835693</ele>
        <time>2011-08-28T13:04:26Z</time>
      </trkpt>
      <trkpt lat="42.97122" lon="-0.4915">
        <ele>1822.316406</ele>
        <time>2011-08-28T13:04:43Z</time>
      </trkpt>
      <trkpt lat="42.97138" lon="-0.4916">
        <ele>1819.912842</ele>
        <time>2011-08-28T13:04:59Z</time>
      </trkpt>
      <trkpt lat="42.97145" lon="-0.49163">
        <ele>1819.432373</ele>
        <time>2011-08-28T13:05:09Z</time>
      </trkpt>
      <trkpt lat="42.97148" lon="-0.49163">
        <ele>1817.990234</ele>
        <time>2011-08-28T13:05:12Z</time>
      </trkpt>
      <trkpt lat="42.97168" lon="-0.49162">
        <ele>1815.587158</ele>
        <time>2011-08-28T13:05:33Z</time>
      </trkpt>
      <trkpt lat="42.9719" lon="-0.49167">
        <ele>1814.14502</ele>
        <time>2011-08-28T13:05:54Z</time>
      </trkpt>
      <trkpt lat="42.97196" lon="-0.49163">
        <ele>1815.106445</ele>
        <time>2011-08-28T13:06:02Z</time>
      </trkpt>
      <trkpt lat="42.97207" lon="-0.49165">
        <ele>1814.625732</ele>
        <time>2011-08-28T13:06:16Z</time>
      </trkpt>
      <trkpt lat="42.9721" lon="-0.49166">
        <ele>1814.14502</ele>
        <time>2011-08-28T13:06:18Z</time>
      </trkpt>
      <trkpt lat="42.97217" lon="-0.49168">
        <ele>1813.664307</ele>
        <time>2011-08-28T13:06:25Z</time>
      </trkpt>
      <trkpt lat="42.97234" lon="-0.49179">
        <ele>1811.741943</ele>
        <time>2011-08-28T13:06:43Z</time>
      </trkpt>
      <trkpt lat="42.97242" lon="-0.49186">
        <ele>1810.299805</ele>
        <time>2011-08-28T13:06:52Z</time>
      </trkpt>
      <trkpt lat="42.97262" lon="-0.49202">
        <ele>1808.377197</ele>
        <time>2011-08-28T13:07:11Z</time>
      </trkpt>
      <trkpt lat="42.97275" lon="-0.49219">
        <ele>1806.935303</ele>
        <time>2011-08-28T13:07:25Z</time>
      </trkpt>
      <trkpt lat="42.97287" lon="-0.49238">
        <ele>1805.012695</ele>
        <time>2011-08-28T13:07:40Z</time>
      </trkpt>
      <trkpt lat="42.97295" lon="-0.49252">
        <ele>1804.051514</ele>
        <time>2011-08-28T13:07:55Z</time>
      </trkpt>
      <trkpt lat="42.97304" lon="-0.49259">
        <ele>1802.609131</ele>
        <time>2011-08-28T13:08:04Z</time>
      </trkpt>
      <trkpt lat="42.9731" lon="-0.49275">
        <ele>1799.725342</ele>
        <time>2011-08-28T13:08:17Z</time>
      </trkpt>
      <trkpt lat="42.97314" lon="-0.49285">
        <ele>1798.763916</ele>
        <time>2011-08-28T13:08:32Z</time>
      </trkpt>
      <trkpt lat="42.97322" lon="-0.49295">
        <ele>1798.763916</ele>
        <time>2011-08-28T13:08:46Z</time>
      </trkpt>
      <trkpt lat="42.97325" lon="-0.49304">
        <ele>1797.802734</ele>
        <time>2011-08-28T13:08:58Z</time>
      </trkpt>
      <trkpt lat="42.97336" lon="-0.49321">
        <ele>1795.880127</ele>
        <time>2011-08-28T13:09:14Z</time>
      </trkpt>
      <trkpt lat="42.97341" lon="-0.49334">
        <ele>1792.996094</ele>
        <time>2011-08-28T13:09:25Z</time>
      </trkpt>
      <trkpt lat="42.97345" lon="-0.49343">
        <ele>1791.554199</ele>
        <time>2011-08-28T13:09:36Z</time>
      </trkpt>
      <trkpt lat="42.97349" lon="-0.49354">
        <ele>1788.67041</ele>
        <time>2011-08-28T13:09:51Z</time>
      </trkpt>
      <trkpt lat="42.97353" lon="-0.49364">
        <ele>1786.266846</ele>
        <time>2011-08-28T13:10:05Z</time>
      </trkpt>
      <trkpt lat="42.97355" lon="-0.49376">
        <ele>1783.863525</ele>
        <time>2011-08-28T13:10:17Z</time>
      </trkpt>
      <trkpt lat="42.97362" lon="-0.49387">
        <ele>1780.979736</ele>
        <time>2011-08-28T13:10:28Z</time>
      </trkpt>
      <trkpt lat="42.97362" lon="-0.49388">
        <ele>1780.979736</ele>
        <time>2011-08-28T13:10:29Z</time>
      </trkpt>
      <trkpt lat="42.9737" lon="-0.49397">
        <ele>1779.056885</ele>
        <time>2011-08-28T13:10:45Z</time>
      </trkpt>
      <trkpt lat="42.97373" lon="-0.49402">
        <ele>1775.692383</ele>
        <time>2011-08-28T13:10:53Z</time>
      </trkpt>
      <trkpt lat="42.97376" lon="-0.49413">
        <ele>1773.769775</ele>
        <time>2011-08-28T13:11:08Z</time>
      </trkpt>
      <trkpt lat="42.97383" lon="-0.49423">
        <ele>1771.366211</ele>
        <time>2011-08-28T13:11:29Z</time>
      </trkpt>
      <trkpt lat="42.97386" lon="-0.4943">
        <ele>1768.482422</ele>
        <time>2011-08-28T13:11:37Z</time>
      </trkpt>
      <trkpt lat="42.97392" lon="-0.49438">
        <ele>1766.079102</ele>
        <time>2011-08-28T13:11:50Z</time>
      </trkpt>
      <trkpt lat="42.97399" lon="-0.49445">
        <ele>1762.7146</ele>
        <time>2011-08-28T13:12:07Z</time>
      </trkpt>
      <trkpt lat="42.97402" lon="-0.4945">
        <ele>1761.753418</ele>
        <time>2011-08-28T13:12:20Z</time>
      </trkpt>
      <trkpt lat="42.97409" lon="-0.49451">
        <ele>1758.869385</ele>
        <time>2011-08-28T13:12:34Z</time>
      </trkpt>
      <trkpt lat="42.97415" lon="-0.49453">
        <ele>1756.946777</ele>
        <time>2011-08-28T13:12:50Z</time>
      </trkpt>
      <trkpt lat="42.97423" lon="-0.49457">
        <ele>1754.543213</ele>
        <time>2011-08-28T13:13:06Z</time>
      </trkpt>
      <trkpt lat="42.97423" lon="-0.49458">
        <ele>1754.062744</ele>
        <time>2011-08-28T13:13:32Z</time>
      </trkpt>
      <trkpt lat="42.97421" lon="-0.49456">
        <ele>1755.504639</ele>
        <time>2011-08-28T13:14:18Z</time>
      </trkpt>
      <trkpt lat="42.97425" lon="-0.49456">
        <ele>1755.023926</ele>
        <time>2011-08-28T13:14:35Z</time>
      </trkpt>
      <trkpt lat="42.97431" lon="-0.49459">
        <ele>1754.062744</ele>
        <time>2011-08-28T13:14:51Z</time>
      </trkpt>
      <trkpt lat="42.97436" lon="-0.49461">
        <ele>1752.620605</ele>
        <time>2011-08-28T13:15:13Z</time>
      </trkpt>
      <trkpt lat="42.97436" lon="-0.49457">
        <ele>1753.101318</ele>
        <time>2011-08-28T13:15:41Z</time>
      </trkpt>
      <trkpt lat="42.97442" lon="-0.49463">
        <ele>1749.736816</ele>
        <time>2011-08-28T13:16:02Z</time>
      </trkpt>
      <trkpt lat="42.97446" lon="-0.49466">
        <ele>1748.294678</ele>
        <time>2011-08-28T13:16:16Z</time>
      </trkpt>
      <trkpt lat="42.97453" lon="-0.49467">
        <ele>1748.294678</ele>
        <time>2011-08-28T13:16:28Z</time>
      </trkpt>
      <trkpt lat="42.97466" lon="-0.49474">
        <ele>1745.891602</ele>
        <time>2011-08-28T13:16:47Z</time>
      </trkpt>
      <trkpt lat="42.97472" lon="-0.49484">
        <ele>1744.930176</ele>
        <time>2011-08-28T13:17:00Z</time>
      </trkpt>
      <trkpt lat="42.97474" lon="-0.49486">
        <ele>1743.968994</ele>
        <time>2011-08-28T13:17:04Z</time>
      </trkpt>
      <trkpt lat="42.9748" lon="-0.49494">
        <ele>1743.968994</ele>
        <time>2011-08-28T13:17:10Z</time>
      </trkpt>
      <trkpt lat="42.97498" lon="-0.4951">
        <ele>1741.565674</ele>
        <time>2011-08-28T13:17:31Z</time>
      </trkpt>
      <trkpt lat="42.97501" lon="-0.4952">
        <ele>1737.720215</ele>
        <time>2011-08-28T13:17:43Z</time>
      </trkpt>
      <trkpt lat="42.97504" lon="-0.49526">
        <ele>1737.239502</ele>
        <time>2011-08-28T13:17:52Z</time>
      </trkpt>
      <trkpt lat="42.97507" lon="-0.49533">
        <ele>1734.355713</ele>
        <time>2011-08-28T13:18:03Z</time>
      </trkpt>
      <trkpt lat="42.9751" lon="-0.49543">
        <ele>1733.875</ele>
        <time>2011-08-28T13:18:14Z</time>
      </trkpt>
      <trkpt lat="42.97515" lon="-0.49551">
        <ele>1732.433105</ele>
        <time>2011-08-28T13:18:21Z</time>
      </trkpt>
      <trkpt lat="42.97515" lon="-0.49557">
        <ele>1730.991211</ele>
        <time>2011-08-28T13:18:26Z</time>
      </trkpt>
      <trkpt lat="42.97527" lon="-0.49584">
        <ele>1728.587891</ele>
        <time>2011-08-28T13:18:45Z</time>
      </trkpt>
      <trkpt lat="42.9753" lon="-0.49594">
        <ele>1725.223145</ele>
        <time>2011-08-28T13:18:55Z</time>
      </trkpt>
      <trkpt lat="42.9753" lon="-0.49595">
        <ele>1725.223145</ele>
        <time>2011-08-28T13:18:56Z</time>
      </trkpt>
      <trkpt lat="42.97534" lon="-0.49611">
        <ele>1722.339111</ele>
        <time>2011-08-28T13:19:09Z</time>
      </trkpt>
      <trkpt lat="42.97539" lon="-0.49622">
        <ele>1719.455322</ele>
        <time>2011-08-28T13:19:22Z</time>
      </trkpt>
      <trkpt lat="42.97542" lon="-0.4963">
        <ele>1718.493896</ele>
        <time>2011-08-28T13:19:33Z</time>
      </trkpt>
      <trkpt lat="42.97543" lon="-0.49633">
        <ele>1717.052002</ele>
        <time>2011-08-28T13:19:36Z</time>
      </trkpt>
      <trkpt lat="42.97546" lon="-0.49637">
        <ele>1715.610107</ele>
        <time>2011-08-28T13:19:42Z</time>
      </trkpt>
      <trkpt lat="42.97549" lon="-0.49642">
        <ele>1712.726074</ele>
        <time>2011-08-28T13:19:49Z</time>
      </trkpt>
      <trkpt lat="42.97557" lon="-0.49649">
        <ele>1709.842041</ele>
        <time>2011-08-28T13:20:02Z</time>
      </trkpt>
      <trkpt lat="42.97558" lon="-0.49649">
        <ele>1709.361572</ele>
        <time>2011-08-28T13:20:03Z</time>
      </trkpt>
      <trkpt lat="42.9756" lon="-0.49654">
        <ele>1706.477295</ele>
        <time>2011-08-28T13:20:13Z</time>
      </trkpt>
      <trkpt lat="42.97569" lon="-0.49664">
        <ele>1703.593506</ele>
        <time>2011-08-28T13:20:27Z</time>
      </trkpt>
      <trkpt lat="42.97581" lon="-0.49683">
        <ele>1702.151367</ele>
        <time>2011-08-28T13:20:45Z</time>
      </trkpt>
      <trkpt lat="42.97587" lon="-0.49698">
        <ele>1700.709473</ele>
        <time>2011-08-28T13:21:01Z</time>
      </trkpt>
      <trkpt lat="42.97589" lon="-0.49709">
        <ele>1698.306152</ele>
        <time>2011-08-28T13:21:12Z</time>
      </trkpt>
      <trkpt lat="42.97591" lon="-0.49716">
        <ele>1696.864258</ele>
        <time>2011-08-28T13:21:25Z</time>
      </trkpt>
      <trkpt lat="42.97593" lon="-0.49718">
        <ele>1695.903076</ele>
        <time>2011-08-28T13:21:27Z</time>
      </trkpt>
      <trkpt lat="42.97599" lon="-0.49726">
        <ele>1693.499756</ele>
        <time>2011-08-28T13:21:39Z</time>
      </trkpt>
      <trkpt lat="42.97604" lon="-0.49731">
        <ele>1689.654297</ele>
        <time>2011-08-28T13:21:56Z</time>
      </trkpt>
      <trkpt lat="42.97615" lon="-0.49738">
        <ele>1688.212402</ele>
        <time>2011-08-28T13:22:08Z</time>
      </trkpt>
      <trkpt lat="42.97626" lon="-0.49741">
        <ele>1685.809082</ele>
        <time>2011-08-28T13:22:24Z</time>
      </trkpt>
      <trkpt lat="42.97636" lon="-0.49743">
        <ele>1684.367188</ele>
        <time>2011-08-28T13:22:43Z</time>
      </trkpt>
      <trkpt lat="42.97638" lon="-0.4974">
        <ele>1684.367188</ele>
        <time>2011-08-28T13:22:59Z</time>
      </trkpt>
      <trkpt lat="42.97642" lon="-0.49741">
        <ele>1682.44458</ele>
        <time>2011-08-28T13:23:07Z</time>
      </trkpt>
      <trkpt lat="42.97652" lon="-0.49745">
        <ele>1679.560547</ele>
        <time>2011-08-28T13:23:21Z</time>
      </trkpt>
      <trkpt lat="42.97658" lon="-0.49747">
        <ele>1678.599365</ele>
        <time>2011-08-28T13:23:34Z</time>
      </trkpt>
      <trkpt lat="42.97659" lon="-0.49749">
        <ele>1675.234375</ele>
        <time>2011-08-28T13:23:37Z</time>
      </trkpt>
      <trkpt lat="42.9766" lon="-0.4975">
        <ele>1675.715088</ele>
        <time>2011-08-28T13:23:38Z</time>
      </trkpt>
      <trkpt lat="42.9767" lon="-0.49763">
        <ele>1673.312012</ele>
        <time>2011-08-28T13:23:56Z</time>
      </trkpt>
      <trkpt lat="42.97675" lon="-0.49773">
        <ele>1670.427979</ele>
        <time>2011-08-28T13:24:12Z</time>
      </trkpt>
      <trkpt lat="42.97679" lon="-0.49783">
        <ele>1667.543945</ele>
        <time>2011-08-28T13:24:36Z</time>
      </trkpt>
      <trkpt lat="42.97681" lon="-0.49793">
        <ele>1664.660156</ele>
        <time>2011-08-28T13:24:47Z</time>
      </trkpt>
      <trkpt lat="42.97687" lon="-0.49803">
        <ele>1661.295654</ele>
        <time>2011-08-28T13:25:03Z</time>
      </trkpt>
      <trkpt lat="42.97693" lon="-0.49809">
        <ele>1658.411377</ele>
        <time>2011-08-28T13:25:16Z</time>
      </trkpt>
      <trkpt lat="42.97698" lon="-0.49814">
        <ele>1656.008057</ele>
        <time>2011-08-28T13:25:28Z</time>
      </trkpt>
      <trkpt lat="42.97699" lon="-0.49814">
        <ele>1654.566162</ele>
        <time>2011-08-28T13:26:03Z</time>
      </trkpt>
      <trkpt lat="42.97699" lon="-0.49814">
        <ele>1654.566162</ele>
        <time>2011-08-28T13:26:27Z</time>
      </trkpt>
      <trkpt lat="42.97707" lon="-0.49823">
        <ele>1651.682373</ele>
        <time>2011-08-28T13:26:58Z</time>
      </trkpt>
      <trkpt lat="42.97714" lon="-0.49828">
        <ele>1649.759766</ele>
        <time>2011-08-28T13:27:12Z</time>
      </trkpt>
      <trkpt lat="42.97718" lon="-0.49831">
        <ele>1649.279053</ele>
        <time>2011-08-28T13:27:22Z</time>
      </trkpt>
      <trkpt lat="42.97727" lon="-0.49843">
        <ele>1645.433838</ele>
        <time>2011-08-28T13:27:34Z</time>
      </trkpt>
      <trkpt lat="42.97734" lon="-0.49848">
        <ele>1643.991699</ele>
        <time>2011-08-28T13:27:41Z</time>
      </trkpt>
      <trkpt lat="42.97744" lon="-0.49855">
        <ele>1640.626953</ele>
        <time>2011-08-28T13:27:56Z</time>
      </trkpt>
      <trkpt lat="42.97748" lon="-0.4986">
        <ele>1638.223877</ele>
        <time>2011-08-28T13:28:07Z</time>
      </trkpt>
      <trkpt lat="42.97753" lon="-0.49855">
        <ele>1636.30127</ele>
        <time>2011-08-28T13:28:23Z</time>
      </trkpt>
      <trkpt lat="42.97758" lon="-0.49859">
        <ele>1635.820557</ele>
        <time>2011-08-28T13:28:33Z</time>
      </trkpt>
      <trkpt lat="42.97769" lon="-0.4986">
        <ele>1633.417236</ele>
        <time>2011-08-28T13:28:50Z</time>
      </trkpt>
      <trkpt lat="42.97772" lon="-0.49855">
        <ele>1630.533447</ele>
        <time>2011-08-28T13:28:58Z</time>
      </trkpt>
      <trkpt lat="42.97777" lon="-0.49848">
        <ele>1627.64917</ele>
        <time>2011-08-28T13:29:12Z</time>
      </trkpt>
      <trkpt lat="42.97783" lon="-0.49848">
        <ele>1627.168701</ele>
        <time>2011-08-28T13:29:27Z</time>
      </trkpt>
      <trkpt lat="42.9779" lon="-0.49846">
        <ele>1625.24585</ele>
        <time>2011-08-28T13:30:01Z</time>
      </trkpt>
      <trkpt lat="42.97796" lon="-0.49848">
        <ele>1621.400635</ele>
        <time>2011-08-28T13:30:12Z</time>
      </trkpt>
      <trkpt lat="42.97797" lon="-0.49849">
        <ele>1620.920166</ele>
        <time>2011-08-28T13:30:14Z</time>
      </trkpt>
      <trkpt lat="42.97809" lon="-0.49846">
        <ele>1618.997559</ele>
        <time>2011-08-28T13:30:29Z</time>
      </trkpt>
      <trkpt lat="42.97816" lon="-0.49847">
        <ele>1615.633057</ele>
        <time>2011-08-28T13:30:40Z</time>
      </trkpt>
      <trkpt lat="42.97824" lon="-0.49846">
        <ele>1614.190918</ele>
        <time>2011-08-28T13:30:57Z</time>
      </trkpt>
      <trkpt lat="42.97833" lon="-0.49846">
        <ele>1612.749023</ele>
        <time>2011-08-28T13:31:12Z</time>
      </trkpt>
      <trkpt lat="42.97838" lon="-0.49846">
        <ele>1610.345459</ele>
        <time>2011-08-28T13:31:24Z</time>
      </trkpt>
      <trkpt lat="42.97842" lon="-0.49849">
        <ele>1606.980957</ele>
        <time>2011-08-28T13:31:35Z</time>
      </trkpt>
      <trkpt lat="42.97855" lon="-0.49849">
        <ele>1605.05835</ele>
        <time>2011-08-28T13:31:53Z</time>
      </trkpt>
      <trkpt lat="42.97865" lon="-0.49848">
        <ele>1603.135742</ele>
        <time>2011-08-28T13:32:09Z</time>
      </trkpt>
      <trkpt lat="42.97871" lon="-0.49852">
        <ele>1602.655029</ele>
        <time>2011-08-28T13:32:23Z</time>
      </trkpt>
      <trkpt lat="42.97878" lon="-0.49859">
        <ele>1601.213135</ele>
        <time>2011-08-28T13:32:36Z</time>
      </trkpt>
      <trkpt lat="42.9788" lon="-0.49859">
        <ele>1600.251953</ele>
        <time>2011-08-28T13:32:40Z</time>
      </trkpt>
      <trkpt lat="42.97894" lon="-0.49842">
        <ele>1600.732422</ele>
        <time>2011-08-28T13:32:59Z</time>
      </trkpt>
      <trkpt lat="42.97876" lon="-0.49849">
        <ele>1600.732422</ele>
        <time>2011-08-28T13:33:15Z</time>
      </trkpt>
      <trkpt lat="42.97883" lon="-0.49868">
        <ele>1600.732422</ele>
        <time>2011-08-28T13:33:25Z</time>
      </trkpt>
      <trkpt lat="42.97881" lon="-0.49865">
        <ele>1600.732422</ele>
        <time>2011-08-28T13:33:36Z</time>
      </trkpt>
      <trkpt lat="42.97883" lon="-0.49856">
        <ele>1599.290527</ele>
        <time>2011-08-28T13:33:45Z</time>
      </trkpt>
      <trkpt lat="42.97886" lon="-0.49856">
        <ele>1599.77124</ele>
        <time>2011-08-28T13:34:02Z</time>
      </trkpt>
      <trkpt lat="42.97884" lon="-0.49858">
        <ele>1599.77124</ele>
        <time>2011-08-28T13:34:38Z</time>
      </trkpt>
      <trkpt lat="42.97889" lon="-0.49861">
        <ele>1600.732422</ele>
        <time>2011-08-28T13:34:52Z</time>
      </trkpt>
      <trkpt lat="42.97889" lon="-0.4986">
        <ele>1598.809814</ele>
        <time>2011-08-28T13:35:15Z</time>
      </trkpt>
      <trkpt lat="42.97888" lon="-0.49858">
        <ele>1599.290527</ele>
        <time>2011-08-28T13:35:33Z</time>
      </trkpt>
      <trkpt lat="42.97896" lon="-0.49853">
        <ele>1599.77124</ele>
        <time>2011-08-28T13:35:47Z</time>
      </trkpt>
      <trkpt lat="42.97904" lon="-0.49849">
        <ele>1598.329102</ele>
        <time>2011-08-28T13:36:39Z</time>
      </trkpt>
      <trkpt lat="42.97913" lon="-0.4985">
        <ele>1598.329102</ele>
        <time>2011-08-28T13:36:55Z</time>
      </trkpt>
      <trkpt lat="42.97923" lon="-0.49847">
        <ele>1598.329102</ele>
        <time>2011-08-28T13:37:09Z</time>
      </trkpt>
      <trkpt lat="42.97925" lon="-0.49845">
        <ele>1598.809814</ele>
        <time>2011-08-28T13:37:26Z</time>
      </trkpt>
      <trkpt lat="42.97926" lon="-0.49844">
        <ele>1598.329102</ele>
        <time>2011-08-28T13:37:42Z</time>
      </trkpt>
      <trkpt lat="42.97923" lon="-0.49844">
        <ele>1597.848633</ele>
        <time>2011-08-28T13:38:32Z</time>
      </trkpt>
      <trkpt lat="42.97925" lon="-0.49845">
        <ele>1599.290527</ele>
        <time>2011-08-28T13:38:53Z</time>
      </trkpt>
      <trkpt lat="42.97924" lon="-0.49845">
        <ele>1600.251953</ele>
        <time>2011-08-28T13:39:12Z</time>
      </trkpt>
      <trkpt lat="42.97922" lon="-0.49844">
        <ele>1599.77124</ele>
        <time>2011-08-28T13:39:35Z</time>
      </trkpt>
      <trkpt lat="42.97925" lon="-0.49846">
        <ele>1599.77124</ele>
        <time>2011-08-28T13:40:07Z</time>
      </trkpt>
      <trkpt lat="42.97927" lon="-0.49848">
        <ele>1600.251953</ele>
        <time>2011-08-28T13:40:28Z</time>
      </trkpt>
      <trkpt lat="42.97933" lon="-0.49856">
        <ele>1597.36792</ele>
        <time>2011-08-28T13:40:39Z</time>
      </trkpt>
      <trkpt lat="42.97936" lon="-0.49866">
        <ele>1594.003174</ele>
        <time>2011-08-28T13:40:49Z</time>
      </trkpt>
      <trkpt lat="42.97938" lon="-0.4987">
        <ele>1593.041748</ele>
        <time>2011-08-28T13:40:54Z</time>
      </trkpt>
      <trkpt lat="42.97945" lon="-0.49886">
        <ele>1590.157959</ele>
        <time>2011-08-28T13:41:13Z</time>
      </trkpt>
      <trkpt lat="42.9795" lon="-0.49899">
        <ele>1587.754639</ele>
        <time>2011-08-28T13:41:30Z</time>
      </trkpt>
      <trkpt lat="42.97951" lon="-0.49905">
        <ele>1584.87085</ele>
        <time>2011-08-28T13:41:37Z</time>
      </trkpt>
      <trkpt lat="42.97952" lon="-0.49916">
        <ele>1581.986816</ele>
        <time>2011-08-28T13:41:51Z</time>
      </trkpt>
      <trkpt lat="42.97962" lon="-0.49923">
        <ele>1579.102539</ele>
        <time>2011-08-28T13:42:04Z</time>
      </trkpt>
      <trkpt lat="42.97978" lon="-0.4993">
        <ele>1577.660645</ele>
        <time>2011-08-28T13:42:20Z</time>
      </trkpt>
      <trkpt lat="42.97989" lon="-0.49941">
        <ele>1574.776855</ele>
        <time>2011-08-28T13:42:37Z</time>
      </trkpt>
      <trkpt lat="42.98" lon="-0.49958">
        <ele>1571.892822</ele>
        <time>2011-08-28T13:42:58Z</time>
      </trkpt>
      <trkpt lat="42.98014" lon="-0.49964">
        <ele>1568.047607</ele>
        <time>2011-08-28T13:43:16Z</time>
      </trkpt>
      <trkpt lat="42.98019" lon="-0.49968">
        <ele>1567.086426</ele>
        <time>2011-08-28T13:43:30Z</time>
      </trkpt>
      <trkpt lat="42.98025" lon="-0.49974">
        <ele>1563.721436</ele>
        <time>2011-08-28T13:43:40Z</time>
      </trkpt>
      <trkpt lat="42.98033" lon="-0.4998">
        <ele>1562.279541</ele>
        <time>2011-08-28T13:43:56Z</time>
      </trkpt>
      <trkpt lat="42.98038" lon="-0.49989">
        <ele>1558.915039</ele>
        <time>2011-08-28T13:44:07Z</time>
      </trkpt>
      <trkpt lat="42.98044" lon="-0.49999">
        <ele>1555.550537</ele>
        <time>2011-08-28T13:44:21Z</time>
      </trkpt>
      <trkpt lat="42.9805" lon="-0.50001">
        <ele>1553.147217</ele>
        <time>2011-08-28T13:44:41Z</time>
      </trkpt>
      <trkpt lat="42.98051" lon="-0.50001">
        <ele>1553.62793</ele>
        <time>2011-08-28T13:45:07Z</time>
      </trkpt>
      <trkpt lat="42.98056" lon="-0.49996">
        <ele>1553.62793</ele>
        <time>2011-08-28T13:45:32Z</time>
      </trkpt>
      <trkpt lat="42.98056" lon="-0.49995">
        <ele>1553.62793</ele>
        <time>2011-08-28T13:45:54Z</time>
      </trkpt>
      <trkpt lat="42.98057" lon="-0.49997">
        <ele>1552.185791</ele>
        <time>2011-08-28T13:46:34Z</time>
      </trkpt>
      <trkpt lat="42.98058" lon="-0.49995">
        <ele>1553.147217</ele>
        <time>2011-08-28T13:47:43Z</time>
      </trkpt>
      <trkpt lat="42.98052" lon="-0.50002">
        <ele>1551.224609</ele>
        <time>2011-08-28T13:48:03Z</time>
      </trkpt>
      <trkpt lat="42.98051" lon="-0.50001">
        <ele>1552.666504</ele>
        <time>2011-08-28T13:48:18Z</time>
      </trkpt>
      <trkpt lat="42.98057" lon="-0.50007">
        <ele>1551.224609</ele>
        <time>2011-08-28T13:48:34Z</time>
      </trkpt>
      <trkpt lat="42.98064" lon="-0.50011">
        <ele>1547.37915</ele>
        <time>2011-08-28T13:48:47Z</time>
      </trkpt>
      <trkpt lat="42.98065" lon="-0.50012">
        <ele>1547.37915</ele>
        <time>2011-08-28T13:48:48Z</time>
      </trkpt>
      <trkpt lat="42.98072" lon="-0.50015">
        <ele>1544.495117</ele>
        <time>2011-08-28T13:49:02Z</time>
      </trkpt>
      <trkpt lat="42.98072" lon="-0.50015">
        <ele>1544.97583</ele>
        <time>2011-08-28T13:49:17Z</time>
      </trkpt>
      <trkpt lat="42.98073" lon="-0.50015">
        <ele>1544.495117</ele>
        <time>2011-08-28T13:49:30Z</time>
      </trkpt>
      <trkpt lat="42.98078" lon="-0.50018">
        <ele>1543.053223</ele>
        <time>2011-08-28T13:49:38Z</time>
      </trkpt>
      <trkpt lat="42.9808" lon="-0.50018">
        <ele>1542.092041</ele>
        <time>2011-08-28T13:49:40Z</time>
      </trkpt>
      <trkpt lat="42.98086" lon="-0.50023">
        <ele>1541.611328</ele>
        <time>2011-08-28T13:49:56Z</time>
      </trkpt>
      <trkpt lat="42.98095" lon="-0.50022">
        <ele>1539.688721</ele>
        <time>2011-08-28T13:50:12Z</time>
      </trkpt>
      <trkpt lat="42.98099" lon="-0.50025">
        <ele>1537.766113</ele>
        <time>2011-08-28T13:50:30Z</time>
      </trkpt>
      <trkpt lat="42.98106" lon="-0.50026">
        <ele>1534.882324</ele>
        <time>2011-08-28T13:50:43Z</time>
      </trkpt>
      <trkpt lat="42.98116" lon="-0.50029">
        <ele>1533.440186</ele>
        <time>2011-08-28T13:51:01Z</time>
      </trkpt>
      <trkpt lat="42.98124" lon="-0.50039">
        <ele>1531.998047</ele>
        <time>2011-08-28T13:51:14Z</time>
      </trkpt>
      <trkpt lat="42.98128" lon="-0.50051">
        <ele>1528.633545</ele>
        <time>2011-08-28T13:51:28Z</time>
      </trkpt>
      <trkpt lat="42.98132" lon="-0.50056">
        <ele>1526.710938</ele>
        <time>2011-08-28T13:51:42Z</time>
      </trkpt>
      <trkpt lat="42.98141" lon="-0.50063">
        <ele>1524.307617</ele>
        <time>2011-08-28T13:51:59Z</time>
      </trkpt>
      <trkpt lat="42.98146" lon="-0.5007">
        <ele>1521.904297</ele>
        <time>2011-08-28T13:52:14Z</time>
      </trkpt>
      <trkpt lat="42.98153" lon="-0.5007">
        <ele>1519.501221</ele>
        <time>2011-08-28T13:52:29Z</time>
      </trkpt>
      <trkpt lat="42.98158" lon="-0.50071">
        <ele>1516.136475</ele>
        <time>2011-08-28T13:52:43Z</time>
      </trkpt>
      <trkpt lat="42.98163" lon="-0.50073">
        <ele>1515.655762</ele>
        <time>2011-08-28T13:53:00Z</time>
      </trkpt>
      <trkpt lat="42.98168" lon="-0.50075">
        <ele>1513.252441</ele>
        <time>2011-08-28T13:53:16Z</time>
      </trkpt>
      <trkpt lat="42.98173" lon="-0.50079">
        <ele>1512.291016</ele>
        <time>2011-08-28T13:53:37Z</time>
      </trkpt>
      <trkpt lat="42.98178" lon="-0.50081">
        <ele>1509.887695</ele>
        <time>2011-08-28T13:53:43Z</time>
      </trkpt>
      <trkpt lat="42.98186" lon="-0.50087">
        <ele>1508.445801</ele>
        <time>2011-08-28T13:53:57Z</time>
      </trkpt>
      <trkpt lat="42.98191" lon="-0.50095">
        <ele>1505.562012</ele>
        <time>2011-08-28T13:54:09Z</time>
      </trkpt>
      <trkpt lat="42.98194" lon="-0.50106">
        <ele>1503.158691</ele>
        <time>2011-08-28T13:54:24Z</time>
      </trkpt>
      <trkpt lat="42.98195" lon="-0.50115">
        <ele>1502.197266</ele>
        <time>2011-08-28T13:54:34Z</time>
      </trkpt>
      <trkpt lat="42.98196" lon="-0.50118">
        <ele>1501.716797</ele>
        <time>2011-08-28T13:54:39Z</time>
      </trkpt>
      <trkpt lat="42.982" lon="-0.50128">
        <ele>1499.793945</ele>
        <time>2011-08-28T13:54:54Z</time>
      </trkpt>
      <trkpt lat="42.98211" lon="-0.50139">
        <ele>1496.909912</ele>
        <time>2011-08-28T13:55:08Z</time>
      </trkpt>
      <trkpt lat="42.98215" lon="-0.50147">
        <ele>1494.987305</ele>
        <time>2011-08-28T13:55:21Z</time>
      </trkpt>
      <trkpt lat="42.98218" lon="-0.50154">
        <ele>1493.064697</ele>
        <time>2011-08-28T13:55:35Z</time>
      </trkpt>
      <trkpt lat="42.98223" lon="-0.5016">
        <ele>1492.103516</ele>
        <time>2011-08-28T13:55:51Z</time>
      </trkpt>
      <trkpt lat="42.98231" lon="-0.50159">
        <ele>1488.739014</ele>
        <time>2011-08-28T13:56:06Z</time>
      </trkpt>
      <trkpt lat="42.98238" lon="-0.50161">
        <ele>1485.374268</ele>
        <time>2011-08-28T13:56:21Z</time>
      </trkpt>
      <trkpt lat="42.98246" lon="-0.5016">
        <ele>1483.932129</ele>
        <time>2011-08-28T13:56:38Z</time>
      </trkpt>
      <trkpt lat="42.98253" lon="-0.50161">
        <ele>1481.04834</ele>
        <time>2011-08-28T13:56:51Z</time>
      </trkpt>
      <trkpt lat="42.98262" lon="-0.50166">
        <ele>1477.683594</ele>
        <time>2011-08-28T13:57:07Z</time>
      </trkpt>
      <trkpt lat="42.98268" lon="-0.5017">
        <ele>1476.722412</ele>
        <time>2011-08-28T13:57:23Z</time>
      </trkpt>
      <trkpt lat="42.98274" lon="-0.50177">
        <ele>1474.799805</ele>
        <time>2011-08-28T13:57:36Z</time>
      </trkpt>
      <trkpt lat="42.98282" lon="-0.50186">
        <ele>1473.838379</ele>
        <time>2011-08-28T13:57:53Z</time>
      </trkpt>
      <trkpt lat="42.98284" lon="-0.5019">
        <ele>1472.877197</ele>
        <time>2011-08-28T13:58:06Z</time>
      </trkpt>
      <trkpt lat="42.98287" lon="-0.50194">
        <ele>1469.031982</ele>
        <time>2011-08-28T13:58:14Z</time>
      </trkpt>
      <trkpt lat="42.98292" lon="-0.50196">
        <ele>1467.109131</ele>
        <time>2011-08-28T13:58:26Z</time>
      </trkpt>
      <trkpt lat="42.98292" lon="-0.50196">
        <ele>1466.147705</ele>
        <time>2011-08-28T13:58:28Z</time>
      </trkpt>
      <trkpt lat="42.98296" lon="-0.50205">
        <ele>1466.147705</ele>
        <time>2011-08-28T13:58:44Z</time>
      </trkpt>
      <trkpt lat="42.983" lon="-0.50207">
        <ele>1462.783203</ele>
        <time>2011-08-28T13:58:49Z</time>
      </trkpt>
      <trkpt lat="42.98304" lon="-0.50211">
        <ele>1463.263916</ele>
        <time>2011-08-28T13:59:04Z</time>
      </trkpt>
      <trkpt lat="42.98306" lon="-0.50212">
        <ele>1460.860596</ele>
        <time>2011-08-28T13:59:07Z</time>
      </trkpt>
      <trkpt lat="42.98308" lon="-0.50219">
        <ele>1458.457275</ele>
        <time>2011-08-28T13:59:21Z</time>
      </trkpt>
      <trkpt lat="42.98314" lon="-0.50225">
        <ele>1455.573486</ele>
        <time>2011-08-28T13:59:37Z</time>
      </trkpt>
      <trkpt lat="42.9832" lon="-0.50231">
        <ele>1452.20874</ele>
        <time>2011-08-28T13:59:53Z</time>
      </trkpt>
      <trkpt lat="42.98326" lon="-0.50237">
        <ele>1449.324707</ele>
        <time>2011-08-28T14:00:09Z</time>
      </trkpt>
      <trkpt lat="42.98329" lon="-0.50243">
        <ele>1448.363281</ele>
        <time>2011-08-28T14:00:25Z</time>
      </trkpt>
      <trkpt lat="42.98336" lon="-0.5025">
        <ele>1445.960205</ele>
        <time>2011-08-28T14:00:41Z</time>
      </trkpt>
      <trkpt lat="42.98339" lon="-0.50257">
        <ele>1444.037598</ele>
        <time>2011-08-28T14:00:55Z</time>
      </trkpt>
      <trkpt lat="42.98342" lon="-0.50263">
        <ele>1440.672852</ele>
        <time>2011-08-28T14:01:10Z</time>
      </trkpt>
      <trkpt lat="42.98347" lon="-0.50269">
        <ele>1437.789062</ele>
        <time>2011-08-28T14:01:30Z</time>
      </trkpt>
      <trkpt lat="42.98349" lon="-0.5027">
        <ele>1437.789062</ele>
        <time>2011-08-28T14:01:36Z</time>
      </trkpt>
      <trkpt lat="42.9835" lon="-0.50273">
        <ele>1436.827637</ele>
        <time>2011-08-28T14:01:51Z</time>
      </trkpt>
      <trkpt lat="42.98354" lon="-0.5028">
        <ele>1434.424316</ele>
        <time>2011-08-28T14:02:08Z</time>
      </trkpt>
      <trkpt lat="42.98358" lon="-0.50287">
        <ele>1432.501709</ele>
        <time>2011-08-28T14:02:20Z</time>
      </trkpt>
      <trkpt lat="42.98362" lon="-0.50296">
        <ele>1432.501709</ele>
        <time>2011-08-28T14:02:31Z</time>
      </trkpt>
      <trkpt lat="42.9837" lon="-0.50315">
        <ele>1428.656494</ele>
        <time>2011-08-28T14:02:50Z</time>
      </trkpt>
      <trkpt lat="42.98374" lon="-0.50317">
        <ele>1426.733887</ele>
        <time>2011-08-28T14:02:58Z</time>
      </trkpt>
      <trkpt lat="42.98376" lon="-0.50317">
        <ele>1426.253174</ele>
        <time>2011-08-28T14:03:04Z</time>
      </trkpt>
      <trkpt lat="42.98382" lon="-0.50324">
        <ele>1424.330566</ele>
        <time>2011-08-28T14:03:13Z</time>
      </trkpt>
      <trkpt lat="42.98383" lon="-0.50329">
        <ele>1423.849854</ele>
        <time>2011-08-28T14:03:17Z</time>
      </trkpt>
      <trkpt lat="42.98386" lon="-0.50348">
        <ele>1421.446533</ele>
        <time>2011-08-28T14:03:37Z</time>
      </trkpt>
      <trkpt lat="42.98392" lon="-0.50355">
        <ele>1420.004639</ele>
        <time>2011-08-28T14:03:52Z</time>
      </trkpt>
      <trkpt lat="42.984" lon="-0.5036">
        <ele>1417.601074</ele>
        <time>2011-08-28T14:04:09Z</time>
      </trkpt>
      <trkpt lat="42.98402" lon="-0.50363">
        <ele>1416.639893</ele>
        <time>2011-08-28T14:04:19Z</time>
      </trkpt>
      <trkpt lat="42.98405" lon="-0.50368">
        <ele>1415.678711</ele>
        <time>2011-08-28T14:04:30Z</time>
      </trkpt>
      <trkpt lat="42.98404" lon="-0.50378">
        <ele>1412.794678</ele>
        <time>2011-08-28T14:04:48Z</time>
      </trkpt>
      <trkpt lat="42.98402" lon="-0.50383">
        <ele>1411.352783</ele>
        <time>2011-08-28T14:05:02Z</time>
      </trkpt>
      <trkpt lat="42.984" lon="-0.50389">
        <ele>1409.910645</ele>
        <time>2011-08-28T14:05:17Z</time>
      </trkpt>
      <trkpt lat="42.98399" lon="-0.50394">
        <ele>1408.949463</ele>
        <time>2011-08-28T14:05:41Z</time>
      </trkpt>
      <trkpt lat="42.98411" lon="-0.50408">
        <ele>1407.026855</ele>
        <time>2011-08-28T14:05:59Z</time>
      </trkpt>
      <trkpt lat="42.98417" lon="-0.50412">
        <ele>1406.546143</ele>
        <time>2011-08-28T14:06:20Z</time>
      </trkpt>
      <trkpt lat="42.98419" lon="-0.50411">
        <ele>1406.06543</ele>
        <time>2011-08-28T14:06:39Z</time>
      </trkpt>
      <trkpt lat="42.98425" lon="-0.50417">
        <ele>1402.700684</ele>
        <time>2011-08-28T14:06:56Z</time>
      </trkpt>
      <trkpt lat="42.98425" lon="-0.50418">
        <ele>1402.700684</ele>
        <time>2011-08-28T14:06:57Z</time>
      </trkpt>
      <trkpt lat="42.98424" lon="-0.50418">
        <ele>1402.700684</ele>
        <time>2011-08-28T14:07:21Z</time>
      </trkpt>
      <trkpt lat="42.98419" lon="-0.50421">
        <ele>1401.739502</ele>
        <time>2011-08-28T14:07:52Z</time>
      </trkpt>
      <trkpt lat="42.9843" lon="-0.50418">
        <ele>1401.739502</ele>
        <time>2011-08-28T14:08:21Z</time>
      </trkpt>
      <trkpt lat="42.98434" lon="-0.5042">
        <ele>1400.297607</ele>
        <time>2011-08-28T14:08:35Z</time>
      </trkpt>
      <trkpt lat="42.98442" lon="-0.50428">
        <ele>1397.894287</ele>
        <time>2011-08-28T14:08:52Z</time>
      </trkpt>
      <trkpt lat="42.98447" lon="-0.50433">
        <ele>1395.97168</ele>
        <time>2011-08-28T14:09:05Z</time>
      </trkpt>
      <trkpt lat="42.98456" lon="-0.50439">
        <ele>1394.529541</ele>
        <time>2011-08-28T14:09:24Z</time>
      </trkpt>
      <trkpt lat="42.9846" lon="-0.50452">
        <ele>1392.607178</ele>
        <time>2011-08-28T14:09:42Z</time>
      </trkpt>
      <trkpt lat="42.9846" lon="-0.50459">
        <ele>1391.645752</ele>
        <time>2011-08-28T14:10:01Z</time>
      </trkpt>
      <trkpt lat="42.98462" lon="-0.5047">
        <ele>1389.723145</ele>
        <time>2011-08-28T14:10:15Z</time>
      </trkpt>
      <trkpt lat="42.98465" lon="-0.50477">
        <ele>1386.838867</ele>
        <time>2011-08-28T14:10:30Z</time>
      </trkpt>
      <trkpt lat="42.98469" lon="-0.50485">
        <ele>1386.358398</ele>
        <time>2011-08-28T14:10:40Z</time>
      </trkpt>
      <trkpt lat="42.98483" lon="-0.50498">
        <ele>1383.474365</ele>
        <time>2011-08-28T14:10:59Z</time>
      </trkpt>
      <trkpt lat="42.9849" lon="-0.50504">
        <ele>1381.071289</ele>
        <time>2011-08-28T14:11:19Z</time>
      </trkpt>
      <trkpt lat="42.98495" lon="-0.50514">
        <ele>1377.226074</ele>
        <time>2011-08-28T14:11:35Z</time>
      </trkpt>
      <trkpt lat="42.98497" lon="-0.50528">
        <ele>1374.342041</ele>
        <time>2011-08-28T14:11:53Z</time>
      </trkpt>
      <trkpt lat="42.98496" lon="-0.50542">
        <ele>1371.938477</ele>
        <time>2011-08-28T14:12:12Z</time>
      </trkpt>
      <trkpt lat="42.98502" lon="-0.5055">
        <ele>1370.977295</ele>
        <time>2011-08-28T14:12:27Z</time>
      </trkpt>
      <trkpt lat="42.98508" lon="-0.50551">
        <ele>1368.093262</ele>
        <time>2011-08-28T14:12:42Z</time>
      </trkpt>
      <trkpt lat="42.98517" lon="-0.50557">
        <ele>1365.690186</ele>
        <time>2011-08-28T14:13:05Z</time>
      </trkpt>
      <trkpt lat="42.98534" lon="-0.50558">
        <ele>1363.286865</ele>
        <time>2011-08-28T14:13:38Z</time>
      </trkpt>
      <trkpt lat="42.98542" lon="-0.50564">
        <ele>1361.844971</ele>
        <time>2011-08-28T14:13:50Z</time>
      </trkpt>
      <trkpt lat="42.98551" lon="-0.50569">
        <ele>1360.402832</ele>
        <time>2011-08-28T14:14:03Z</time>
      </trkpt>
      <trkpt lat="42.98555" lon="-0.50576">
        <ele>1358.480225</ele>
        <time>2011-08-28T14:14:16Z</time>
      </trkpt>
      <trkpt lat="42.98563" lon="-0.50579">
        <ele>1356.076904</ele>
        <time>2011-08-28T14:14:30Z</time>
      </trkpt>
      <trkpt lat="42.98565" lon="-0.50581">
        <ele>1355.115479</ele>
        <time>2011-08-28T14:14:33Z</time>
      </trkpt>
      <trkpt lat="42.98569" lon="-0.50594">
        <ele>1354.634766</ele>
        <time>2011-08-28T14:14:59Z</time>
      </trkpt>
      <trkpt lat="42.98578" lon="-0.50601">
        <ele>1351.750977</ele>
        <time>2011-08-28T14:15:20Z</time>
      </trkpt>
      <trkpt lat="42.98586" lon="-0.50608">
        <ele>1349.828369</ele>
        <time>2011-08-28T14:15:39Z</time>
      </trkpt>
      <trkpt lat="42.98592" lon="-0.50606">
        <ele>1348.866943</ele>
        <time>2011-08-28T14:15:43Z</time>
      </trkpt>
      <trkpt lat="42.98609" lon="-0.50608">
        <ele>1347.905762</ele>
        <time>2011-08-28T14:16:01Z</time>
      </trkpt>
      <trkpt lat="42.98619" lon="-0.50608">
        <ele>1345.021729</ele>
        <time>2011-08-28T14:16:16Z</time>
      </trkpt>
      <trkpt lat="42.98626" lon="-0.50618">
        <ele>1341.657227</ele>
        <time>2011-08-28T14:16:42Z</time>
      </trkpt>
      <trkpt lat="42.98636" lon="-0.50623">
        <ele>1338.773193</ele>
        <time>2011-08-28T14:17:12Z</time>
      </trkpt>
      <trkpt lat="42.98651" lon="-0.50644">
        <ele>1335.408447</ele>
        <time>2011-08-28T14:17:29Z</time>
      </trkpt>
      <trkpt lat="42.98644" lon="-0.50649">
        <ele>1335.408447</ele>
        <time>2011-08-28T14:17:43Z</time>
      </trkpt>
      <trkpt lat="42.98645" lon="-0.50656">
        <ele>1333.966553</ele>
        <time>2011-08-28T14:18:03Z</time>
      </trkpt>
      <trkpt lat="42.98657" lon="-0.50661">
        <ele>1330.602051</ele>
        <time>2011-08-28T14:18:30Z</time>
      </trkpt>
      <trkpt lat="42.98671" lon="-0.50678">
        <ele>1329.159912</ele>
        <time>2011-08-28T14:18:57Z</time>
      </trkpt>
      <trkpt lat="42.98684" lon="-0.50691">
        <ele>1328.19873</ele>
        <time>2011-08-28T14:19:17Z</time>
      </trkpt>
      <trkpt lat="42.98701" lon="-0.50706">
        <ele>1325.79541</ele>
        <time>2011-08-28T14:19:49Z</time>
      </trkpt>
      <trkpt lat="42.9871" lon="-0.5071">
        <ele>1323.39209</ele>
        <time>2011-08-28T14:20:01Z</time>
      </trkpt>
      <trkpt lat="42.98722" lon="-0.50716">
        <ele>1320.98877</ele>
        <time>2011-08-28T14:20:18Z</time>
      </trkpt>
      <trkpt lat="42.98727" lon="-0.50729">
        <ele>1319.066162</ele>
        <time>2011-08-28T14:20:41Z</time>
      </trkpt>
      <trkpt lat="42.98733" lon="-0.50731">
        <ele>1315.70166</ele>
        <time>2011-08-28T14:20:55Z</time>
      </trkpt>
      <trkpt lat="42.98745" lon="-0.50738">
        <ele>1312.817627</ele>
        <time>2011-08-28T14:21:28Z</time>
      </trkpt>
      <trkpt lat="42.98745" lon="-0.50723">
        <ele>1310.414307</ele>
        <time>2011-08-28T14:21:45Z</time>
      </trkpt>
      <trkpt lat="42.9876" lon="-0.5073">
        <ele>1307.530273</ele>
        <time>2011-08-28T14:22:13Z</time>
      </trkpt>
      <trkpt lat="42.98767" lon="-0.50732">
        <ele>1304.165771</ele>
        <time>2011-08-28T14:22:30Z</time>
      </trkpt>
      <trkpt lat="42.98768" lon="-0.50724">
        <ele>1301.281738</ele>
        <time>2011-08-28T14:22:49Z</time>
      </trkpt>
      <trkpt lat="42.9878" lon="-0.50729">
        <ele>1299.839844</ele>
        <time>2011-08-28T14:23:08Z</time>
      </trkpt>
      <trkpt lat="42.98798" lon="-0.50735">
        <ele>1296.475342</ele>
        <time>2011-08-28T14:23:30Z</time>
      </trkpt>
      <trkpt lat="42.98814" lon="-0.50737">
        <ele>1294.072021</ele>
        <time>2011-08-28T14:24:05Z</time>
      </trkpt>
      <trkpt lat="42.98822" lon="-0.50734">
        <ele>1292.630127</ele>
        <time>2011-08-28T14:24:17Z</time>
      </trkpt>
      <trkpt lat="42.98828" lon="-0.50729">
        <ele>1290.707031</ele>
        <time>2011-08-28T14:24:33Z</time>
      </trkpt>
      <trkpt lat="42.98827" lon="-0.50718">
        <ele>1291.187744</ele>
        <time>2011-08-28T14:24:45Z</time>
      </trkpt>
      <trkpt lat="42.98822" lon="-0.50695">
        <ele>1287.823242</ele>
        <time>2011-08-28T14:25:07Z</time>
      </trkpt>
      <trkpt lat="42.98823" lon="-0.50683">
        <ele>1286.861816</ele>
        <time>2011-08-28T14:25:31Z</time>
      </trkpt>
      <trkpt lat="42.98836" lon="-0.50678">
        <ele>1285.419922</ele>
        <time>2011-08-28T14:25:48Z</time>
      </trkpt>
      <trkpt lat="42.98854" lon="-0.50685">
        <ele>1284.45874</ele>
        <time>2011-08-28T14:26:02Z</time>
      </trkpt>
      <trkpt lat="42.98861" lon="-0.50682">
        <ele>1283.016602</ele>
        <time>2011-08-28T14:26:17Z</time>
      </trkpt>
      <trkpt lat="42.98872" lon="-0.50679">
        <ele>1282.05542</ele>
        <time>2011-08-28T14:26:33Z</time>
      </trkpt>
      <trkpt lat="42.98878" lon="-0.50669">
        <ele>1281.094238</ele>
        <time>2011-08-28T14:26:50Z</time>
      </trkpt>
      <trkpt lat="42.98892" lon="-0.50662">
        <ele>1280.132812</ele>
        <time>2011-08-28T14:27:10Z</time>
      </trkpt>
      <trkpt lat="42.98896" lon="-0.50661">
        <ele>1277.729492</ele>
        <time>2011-08-28T14:27:25Z</time>
      </trkpt>
      <trkpt lat="42.98908" lon="-0.50666">
        <ele>1274.364746</ele>
        <time>2011-08-28T14:27:46Z</time>
      </trkpt>
      <trkpt lat="42.98916" lon="-0.50668">
        <ele>1273.403564</ele>
        <time>2011-08-28T14:28:01Z</time>
      </trkpt>
      <trkpt lat="42.98912" lon="-0.50676">
        <ele>1270.038818</ele>
        <time>2011-08-28T14:28:18Z</time>
      </trkpt>
      <trkpt lat="42.9892" lon="-0.50672">
        <ele>1267.635498</ele>
        <time>2011-08-28T14:28:42Z</time>
      </trkpt>
      <trkpt lat="42.9892" lon="-0.50675">
        <ele>1264.751709</ele>
        <time>2011-08-28T14:28:54Z</time>
      </trkpt>
      <trkpt lat="42.9894" lon="-0.50675">
        <ele>1261.86792</ele>
        <time>2011-08-28T14:29:28Z</time>
      </trkpt>
      <trkpt lat="42.98949" lon="-0.50678">
        <ele>1258.50293</ele>
        <time>2011-08-28T14:29:52Z</time>
      </trkpt>
      <trkpt lat="42.98952" lon="-0.5068">
        <ele>1257.541748</ele>
        <time>2011-08-28T14:29:59Z</time>
      </trkpt>
      <trkpt lat="42.98957" lon="-0.50685">
        <ele>1254.177246</ele>
        <time>2011-08-28T14:30:23Z</time>
      </trkpt>
      <trkpt lat="42.98968" lon="-0.50688">
        <ele>1251.293213</ele>
        <time>2011-08-28T14:30:42Z</time>
      </trkpt>
      <trkpt lat="42.98968" lon="-0.50695">
        <ele>1247.447998</ele>
        <time>2011-08-28T14:31:15Z</time>
      </trkpt>
      <trkpt lat="42.98974" lon="-0.50704">
        <ele>1245.044678</ele>
        <time>2011-08-28T14:31:33Z</time>
      </trkpt>
      <trkpt lat="42.98977" lon="-0.50705">
        <ele>1243.602539</ele>
        <time>2011-08-28T14:31:45Z</time>
      </trkpt>
      <trkpt lat="42.98983" lon="-0.50713">
        <ele>1240.718506</ele>
        <time>2011-08-28T14:32:06Z</time>
      </trkpt>
      <trkpt lat="42.9899" lon="-0.50726">
        <ele>1237.834717</ele>
        <time>2011-08-28T14:32:27Z</time>
      </trkpt>
      <trkpt lat="42.98997" lon="-0.50731">
        <ele>1234.470215</ele>
        <time>2011-08-28T14:32:49Z</time>
      </trkpt>
      <trkpt lat="42.98999" lon="-0.5074">
        <ele>1232.547607</ele>
        <time>2011-08-28T14:33:02Z</time>
      </trkpt>
      <trkpt lat="42.99001" lon="-0.50748">
        <ele>1230.625</ele>
        <time>2011-08-28T14:33:18Z</time>
      </trkpt>
      <trkpt lat="42.99006" lon="-0.50754">
        <ele>1227.740723</ele>
        <time>2011-08-28T14:33:38Z</time>
      </trkpt>
      <trkpt lat="42.99021" lon="-0.50761">
        <ele>1224.376221</ele>
        <time>2011-08-28T14:34:05Z</time>
      </trkpt>
      <trkpt lat="42.99032" lon="-0.50761">
        <ele>1221.492188</ele>
        <time>2011-08-28T14:34:41Z</time>
      </trkpt>
      <trkpt lat="42.99045" lon="-0.5076">
        <ele>1218.127686</ele>
        <time>2011-08-28T14:35:04Z</time>
      </trkpt>
      <trkpt lat="42.99045" lon="-0.50751">
        <ele>1214.763184</ele>
        <time>2011-08-28T14:35:26Z</time>
      </trkpt>
      <trkpt lat="42.99048" lon="-0.50745">
        <ele>1212.359863</ele>
        <time>2011-08-28T14:35:45Z</time>
      </trkpt>
      <trkpt lat="42.99067" lon="-0.50745">
        <ele>1209.47583</ele>
        <time>2011-08-28T14:36:10Z</time>
      </trkpt>
      <trkpt lat="42.99076" lon="-0.50745">
        <ele>1207.07251</ele>
        <time>2011-08-28T14:36:29Z</time>
      </trkpt>
      <trkpt lat="42.99082" lon="-0.50743">
        <ele>1203.708008</ele>
        <time>2011-08-28T14:36:45Z</time>
      </trkpt>
      <trkpt lat="42.991" lon="-0.50748">
        <ele>1200.343506</ele>
        <time>2011-08-28T14:37:14Z</time>
      </trkpt>
      <trkpt lat="42.99102" lon="-0.50745">
        <ele>1197.459473</ele>
        <time>2011-08-28T14:37:34Z</time>
      </trkpt>
      <trkpt lat="42.99119" lon="-0.50752">
        <ele>1193.614014</ele>
        <time>2011-08-28T14:38:02Z</time>
      </trkpt>
      <trkpt lat="42.99127" lon="-0.50756">
        <ele>1190.72998</ele>
        <time>2011-08-28T14:38:26Z</time>
      </trkpt>
      <trkpt lat="42.99147" lon="-0.50757">
        <ele>1187.846191</ele>
        <time>2011-08-28T14:39:00Z</time>
      </trkpt>
      <trkpt lat="42.99156" lon="-0.50764">
        <ele>1184.481689</ele>
        <time>2011-08-28T14:39:20Z</time>
      </trkpt>
      <trkpt lat="42.99162" lon="-0.50766">
        <ele>1181.597656</ele>
        <time>2011-08-28T14:39:41Z</time>
      </trkpt>
      <trkpt lat="42.99164" lon="-0.50764">
        <ele>1178.23291</ele>
        <time>2011-08-28T14:40:29Z</time>
      </trkpt>
      <trkpt lat="42.99166" lon="-0.50755">
        <ele>1174.868408</ele>
        <time>2011-08-28T14:40:48Z</time>
      </trkpt>
      <trkpt lat="42.99175" lon="-0.50755">
        <ele>1171.984375</ele>
        <time>2011-08-28T14:41:07Z</time>
      </trkpt>
      <trkpt lat="42.99186" lon="-0.50758">
        <ele>1169.100586</ele>
        <time>2011-08-28T14:41:27Z</time>
      </trkpt>
      <trkpt lat="42.992" lon="-0.5076">
        <ele>1165.736084</ele>
        <time>2011-08-28T14:41:50Z</time>
      </trkpt>
      <trkpt lat="42.992" lon="-0.5076">
        <ele>1164.293945</ele>
        <time>2011-08-28T14:41:53Z</time>
      </trkpt>
      <trkpt lat="42.99206" lon="-0.50764">
        <ele>1162.851807</ele>
        <time>2011-08-28T14:42:11Z</time>
      </trkpt>
      <trkpt lat="42.99208" lon="-0.50769">
        <ele>1159.487305</ele>
        <time>2011-08-28T14:42:22Z</time>
      </trkpt>
      <trkpt lat="42.99218" lon="-0.50772">
        <ele>1156.603271</ele>
        <time>2011-08-28T14:42:44Z</time>
      </trkpt>
      <trkpt lat="42.99218" lon="-0.50761">
        <ele>1153.23877</ele>
        <time>2011-08-28T14:43:06Z</time>
      </trkpt>
      <trkpt lat="42.99233" lon="-0.50761">
        <ele>1150.35498</ele>
        <time>2011-08-28T14:43:28Z</time>
      </trkpt>
      <trkpt lat="42.99237" lon="-0.5076">
        <ele>1149.393555</ele>
        <time>2011-08-28T14:43:41Z</time>
      </trkpt>
      <trkpt lat="42.9924" lon="-0.50766">
        <ele>1146.509521</ele>
        <time>2011-08-28T14:44:03Z</time>
      </trkpt>
      <trkpt lat="42.99242" lon="-0.50771">
        <ele>1143.625488</ele>
        <time>2011-08-28T14:44:17Z</time>
      </trkpt>
      <trkpt lat="42.99241" lon="-0.50781">
        <ele>1140.260986</ele>
        <time>2011-08-28T14:44:36Z</time>
      </trkpt>
      <trkpt lat="42.99255" lon="-0.50783">
        <ele>1136.415771</ele>
        <time>2011-08-28T14:44:58Z</time>
      </trkpt>
      <trkpt lat="42.99256" lon="-0.50776">
        <ele>1134.493164</ele>
        <time>2011-08-28T14:45:10Z</time>
      </trkpt>
      <trkpt lat="42.99261" lon="-0.50768">
        <ele>1131.608887</ele>
        <time>2011-08-28T14:45:29Z</time>
      </trkpt>
      <trkpt lat="42.9927" lon="-0.50757">
        <ele>1128.725098</ele>
        <time>2011-08-28T14:45:43Z</time>
      </trkpt>
      <trkpt lat="42.99264" lon="-0.50758">
        <ele>1127.283203</ele>
        <time>2011-08-28T14:45:59Z</time>
      </trkpt>
      <trkpt lat="42.99279" lon="-0.50748">
        <ele>1124.39917</ele>
        <time>2011-08-28T14:46:43Z</time>
      </trkpt>
      <trkpt lat="42.99288" lon="-0.50752">
        <ele>1122.476562</ele>
        <time>2011-08-28T14:46:55Z</time>
      </trkpt>
      <trkpt lat="42.99293" lon="-0.50756">
        <ele>1119.592773</ele>
        <time>2011-08-28T14:47:08Z</time>
      </trkpt>
      <trkpt lat="42.99302" lon="-0.50753">
        <ele>1118.150635</ele>
        <time>2011-08-28T14:47:25Z</time>
      </trkpt>
      <trkpt lat="42.99324" lon="-0.50749">
        <ele>1116.228027</ele>
        <time>2011-08-28T14:47:43Z</time>
      </trkpt>
      <trkpt lat="42.99328" lon="-0.50748">
        <ele>1114.305176</ele>
        <time>2011-08-28T14:47:57Z</time>
      </trkpt>
      <trkpt lat="42.99347" lon="-0.50745">
        <ele>1111.9021</ele>
        <time>2011-08-28T14:48:16Z</time>
      </trkpt>
      <trkpt lat="42.99357" lon="-0.50746">
        <ele>1109.979248</ele>
        <time>2011-08-28T14:48:28Z</time>
      </trkpt>
      <trkpt lat="42.99377" lon="-0.5074">
        <ele>1107.095459</ele>
        <time>2011-08-28T14:48:46Z</time>
      </trkpt>
      <trkpt lat="42.99377" lon="-0.50739">
        <ele>1107.095459</ele>
        <time>2011-08-28T14:48:47Z</time>
      </trkpt>
      <trkpt lat="42.9938" lon="-0.50736">
        <ele>1105.653564</ele>
        <time>2011-08-28T14:49:04Z</time>
      </trkpt>
      <trkpt lat="42.99386" lon="-0.50731">
        <ele>1104.21167</ele>
        <time>2011-08-28T14:49:18Z</time>
      </trkpt>
      <trkpt lat="42.99401" lon="-0.50733">
        <ele>1101.327637</ele>
        <time>2011-08-28T14:49:34Z</time>
      </trkpt>
      <trkpt lat="42.99417" lon="-0.50735">
        <ele>1098.443359</ele>
        <time>2011-08-28T14:49:49Z</time>
      </trkpt>
      <trkpt lat="42.99422" lon="-0.50733">
        <ele>1096.520996</ele>
        <time>2011-08-28T14:49:59Z</time>
      </trkpt>
      <trkpt lat="42.99434" lon="-0.5073">
        <ele>1094.117676</ele>
        <time>2011-08-28T14:50:16Z</time>
      </trkpt>
      <trkpt lat="42.99443" lon="-0.50727">
        <ele>1090.75293</ele>
        <time>2011-08-28T14:50:26Z</time>
      </trkpt>
      <trkpt lat="42.99455" lon="-0.50739">
        <ele>1089.791748</ele>
        <time>2011-08-28T14:50:43Z</time>
      </trkpt>
      <trkpt lat="42.99456" lon="-0.50744">
        <ele>1089.311035</ele>
        <time>2011-08-28T14:50:46Z</time>
      </trkpt>
      <trkpt lat="42.99472" lon="-0.50736">
        <ele>1087.869141</ele>
        <time>2011-08-28T14:51:01Z</time>
      </trkpt>
      <trkpt lat="42.99484" lon="-0.50732">
        <ele>1087.869141</ele>
        <time>2011-08-28T14:51:14Z</time>
      </trkpt>
      <trkpt lat="42.99493" lon="-0.50728">
        <ele>1085.946533</ele>
        <time>2011-08-28T14:51:27Z</time>
      </trkpt>
      <trkpt lat="42.99507" lon="-0.50722">
        <ele>1084.023926</ele>
        <time>2011-08-28T14:51:44Z</time>
      </trkpt>
      <trkpt lat="42.99518" lon="-0.50713">
        <ele>1081.620361</ele>
        <time>2011-08-28T14:51:56Z</time>
      </trkpt>
      <trkpt lat="42.99534" lon="-0.50704">
        <ele>1080.178467</ele>
        <time>2011-08-28T14:52:13Z</time>
      </trkpt>
      <trkpt lat="42.99545" lon="-0.50696">
        <ele>1078.736572</ele>
        <time>2011-08-28T14:52:24Z</time>
      </trkpt>
      <trkpt lat="42.99551" lon="-0.5069">
        <ele>1077.775146</ele>
        <time>2011-08-28T14:52:32Z</time>
      </trkpt>
      <trkpt lat="42.99559" lon="-0.50686">
        <ele>1079.697754</ele>
        <time>2011-08-28T14:52:39Z</time>
      </trkpt>
      <trkpt lat="42.99571" lon="-0.5068">
        <ele>1079.217041</ele>
        <time>2011-08-28T14:52:49Z</time>
      </trkpt>
      <trkpt lat="42.99588" lon="-0.50673">
        <ele>1078.736572</ele>
        <time>2011-08-28T14:53:05Z</time>
      </trkpt>
      <trkpt lat="42.99596" lon="-0.50666">
        <ele>1078.255859</ele>
        <time>2011-08-28T14:53:13Z</time>
      </trkpt>
      <trkpt lat="42.99605" lon="-0.50659">
        <ele>1074.891357</ele>
        <time>2011-08-28T14:53:22Z</time>
      </trkpt>
      <trkpt lat="42.99608" lon="-0.50646">
        <ele>1073.929932</ele>
        <time>2011-08-28T14:53:32Z</time>
      </trkpt>
      <trkpt lat="42.99606" lon="-0.50638">
        <ele>1073.449463</ele>
        <time>2011-08-28T14:53:38Z</time>
      </trkpt>
      <trkpt lat="42.99605" lon="-0.50629">
        <ele>1072.488037</ele>
        <time>2011-08-28T14:53:45Z</time>
      </trkpt>
      <trkpt lat="42.99609" lon="-0.50619">
        <ele>1072.488037</ele>
        <time>2011-08-28T14:53:51Z</time>
      </trkpt>
      <trkpt lat="42.99608" lon="-0.50613">
        <ele>1072.007324</ele>
        <time>2011-08-28T14:53:54Z</time>
      </trkpt>
      <trkpt lat="42.99603" lon="-0.50593">
        <ele>1071.046143</ele>
        <time>2011-08-28T14:54:07Z</time>
      </trkpt>
      <trkpt lat="42.996" lon="-0.50579">
        <ele>1069.123535</ele>
        <time>2011-08-28T14:54:18Z</time>
      </trkpt>
      <trkpt lat="42.99598" lon="-0.50561">
        <ele>1068.162109</ele>
        <time>2011-08-28T14:54:30Z</time>
      </trkpt>
      <trkpt lat="42.99599" lon="-0.50557">
        <ele>1068.162109</ele>
        <time>2011-08-28T14:54:33Z</time>
      </trkpt>
      <trkpt lat="42.9959" lon="-0.50543">
        <ele>1067.200684</ele>
        <time>2011-08-28T14:54:40Z</time>
      </trkpt>
      <trkpt lat="42.99588" lon="-0.50529">
        <ele>1066.239258</ele>
        <time>2011-08-28T14:54:51Z</time>
      </trkpt>
      <trkpt lat="42.99583" lon="-0.50497">
        <ele>1064.31665</ele>
        <time>2011-08-28T14:55:10Z</time>
      </trkpt>
      <trkpt lat="42.99583" lon="-0.50475">
        <ele>1061.913574</ele>
        <time>2011-08-28T14:55:25Z</time>
      </trkpt>
      <trkpt lat="42.99587" lon="-0.50466">
        <ele>1060.952148</ele>
        <time>2011-08-28T14:55:32Z</time>
      </trkpt>
      <trkpt lat="42.9959" lon="-0.50463">
        <ele>1060.952148</ele>
        <time>2011-08-28T14:55:35Z</time>
      </trkpt>
      <trkpt lat="42.99591" lon="-0.50457">
        <ele>1059.510254</ele>
        <time>2011-08-28T14:55:39Z</time>
      </trkpt>
      <trkpt lat="42.99597" lon="-0.50429">
        <ele>1059.029541</ele>
        <time>2011-08-28T14:55:57Z</time>
      </trkpt>
      <trkpt lat="42.99595" lon="-0.50423">
        <ele>1058.548828</ele>
        <time>2011-08-28T14:56:01Z</time>
      </trkpt>
      <trkpt lat="42.99589" lon="-0.50415">
        <ele>1059.510254</ele>
        <time>2011-08-28T14:56:06Z</time>
      </trkpt>
      <trkpt lat="42.99586" lon="-0.50409">
        <ele>1059.029541</ele>
        <time>2011-08-28T14:56:10Z</time>
      </trkpt>
      <trkpt lat="42.99587" lon="-0.504">
        <ele>1059.029541</ele>
        <time>2011-08-28T14:56:16Z</time>
      </trkpt>
      <trkpt lat="42.99617" lon="-0.50388">
        <ele>1058.548828</ele>
        <time>2011-08-28T14:56:31Z</time>
      </trkpt>
      <trkpt lat="42.99622" lon="-0.50414">
        <ele>1057.106934</ele>
        <time>2011-08-28T14:56:49Z</time>
      </trkpt>
      <trkpt lat="42.99625" lon="-0.5045">
        <ele>1053.742432</ele>
        <time>2011-08-28T14:57:11Z</time>
      </trkpt>
      <trkpt lat="42.99627" lon="-0.50462">
        <ele>1053.742432</ele>
        <time>2011-08-28T14:57:19Z</time>
      </trkpt>
      <trkpt lat="42.99628" lon="-0.50465">
        <ele>1053.261719</ele>
        <time>2011-08-28T14:57:21Z</time>
      </trkpt>
      <trkpt lat="42.99634" lon="-0.50498">
        <ele>1052.300293</ele>
        <time>2011-08-28T14:57:41Z</time>
      </trkpt>
      <trkpt lat="42.99643" lon="-0.50528">
        <ele>1049.896973</ele>
        <time>2011-08-28T14:58:02Z</time>
      </trkpt>
      <trkpt lat="42.99662" lon="-0.50555">
        <ele>1048.935547</ele>
        <time>2011-08-28T14:58:25Z</time>
      </trkpt>
      <trkpt lat="42.99683" lon="-0.50575">
        <ele>1050.377686</ele>
        <time>2011-08-28T14:58:46Z</time>
      </trkpt>
      <trkpt lat="42.99709" lon="-0.506">
        <ele>1051.81958</ele>
        <time>2011-08-28T14:59:08Z</time>
      </trkpt>
      <trkpt lat="42.9973" lon="-0.50621">
        <ele>1053.742432</ele>
        <time>2011-08-28T14:59:28Z</time>
      </trkpt>
      <trkpt lat="42.99736" lon="-0.50626">
        <ele>1054.223145</ele>
        <time>2011-08-28T14:59:34Z</time>
      </trkpt>
      <trkpt lat="42.99757" lon="-0.50637">
        <ele>1055.665039</ele>
        <time>2011-08-28T14:59:53Z</time>
      </trkpt>
      <trkpt lat="42.99767" lon="-0.50645">
        <ele>1053.261719</ele>
        <time>2011-08-28T15:00:04Z</time>
      </trkpt>
      <trkpt lat="42.99781" lon="-0.50664">
        <ele>1051.81958</ele>
        <time>2011-08-28T15:00:22Z</time>
      </trkpt>
      <trkpt lat="42.99793" lon="-0.50682">
        <ele>1050.377686</ele>
        <time>2011-08-28T15:00:36Z</time>
      </trkpt>
      <trkpt lat="42.998" lon="-0.50698">
        <ele>1047.974365</ele>
        <time>2011-08-28T15:00:47Z</time>
      </trkpt>
      <trkpt lat="42.99809" lon="-0.50723">
        <ele>1045.571045</ele>
        <time>2011-08-28T15:01:05Z</time>
      </trkpt>
      <trkpt lat="42.99823" lon="-0.50752">
        <ele>1042.206543</ele>
        <time>2011-08-28T15:01:26Z</time>
      </trkpt>
      <trkpt lat="42.99835" lon="-0.5078">
        <ele>1040.764404</ele>
        <time>2011-08-28T15:01:46Z</time>
      </trkpt>
      <trkpt lat="42.99844" lon="-0.50785">
        <ele>1039.32251</ele>
        <time>2011-08-28T15:01:56Z</time>
      </trkpt>
      <trkpt lat="42.99865" lon="-0.50805">
        <ele>1036.919189</ele>
        <time>2011-08-28T15:02:15Z</time>
      </trkpt>
      <trkpt lat="42.99863" lon="-0.50836">
        <ele>1035.957764</ele>
        <time>2011-08-28T15:02:31Z</time>
      </trkpt>
      <trkpt lat="42.9986" lon="-0.50862">
        <ele>1033.07373</ele>
        <time>2011-08-28T15:02:48Z</time>
      </trkpt>
      <trkpt lat="42.99875" lon="-0.50892">
        <ele>1029.709229</ele>
        <time>2011-08-28T15:03:10Z</time>
      </trkpt>
      <trkpt lat="42.99889" lon="-0.50901">
        <ele>1028.748047</ele>
        <time>2011-08-28T15:03:20Z</time>
      </trkpt>
      <trkpt lat="42.99897" lon="-0.50907">
        <ele>1027.786621</ele>
        <time>2011-08-28T15:03:31Z</time>
      </trkpt>
      <trkpt lat="42.9991" lon="-0.50909">
        <ele>1026.825439</ele>
        <time>2011-08-28T15:03:43Z</time>
      </trkpt>
      <trkpt lat="42.99921" lon="-0.50905">
        <ele>1024.902832</ele>
        <time>2011-08-28T15:03:54Z</time>
      </trkpt>
      <trkpt lat="42.99934" lon="-0.50893">
        <ele>1024.422119</ele>
        <time>2011-08-28T15:04:06Z</time>
      </trkpt>
      <trkpt lat="42.99944" lon="-0.50881">
        <ele>1022.980225</ele>
        <time>2011-08-28T15:04:15Z</time>
      </trkpt>
      <trkpt lat="42.9996" lon="-0.50882">
        <ele>1021.057617</ele>
        <time>2011-08-28T15:04:29Z</time>
      </trkpt>
      <trkpt lat="42.99962" lon="-0.50882">
        <ele>1020.576904</ele>
        <time>2011-08-28T15:04:30Z</time>
      </trkpt>
      <trkpt lat="42.99992" lon="-0.50896">
        <ele>1021.057617</ele>
        <time>2011-08-28T15:04:48Z</time>
      </trkpt>
      <trkpt lat="43.00004" lon="-0.50928">
        <ele>1019.615479</ele>
        <time>2011-08-28T15:05:10Z</time>
      </trkpt>
      <trkpt lat="43.0002" lon="-0.50951">
        <ele>1017.692627</ele>
        <time>2011-08-28T15:05:30Z</time>
      </trkpt>
      <trkpt lat="43.00038" lon="-0.50978">
        <ele>1016.731445</ele>
        <time>2011-08-28T15:05:52Z</time>
      </trkpt>
      <trkpt lat="43.00051" lon="-0.51003">
        <ele>1013.847412</ele>
        <time>2011-08-28T15:06:10Z</time>
      </trkpt>
      <trkpt lat="43.00066" lon="-0.51031">
        <ele>1011.444336</ele>
        <time>2011-08-28T15:06:30Z</time>
      </trkpt>
      <trkpt lat="43.00088" lon="-0.51054">
        <ele>1009.041016</ele>
        <time>2011-08-28T15:06:52Z</time>
      </trkpt>
      <trkpt lat="43.00112" lon="-0.51074">
        <ele>1006.637695</ele>
        <time>2011-08-28T15:07:13Z</time>
      </trkpt>
      <trkpt lat="43.00133" lon="-0.51092">
        <ele>1004.234619</ele>
        <time>2011-08-28T15:07:31Z</time>
      </trkpt>
      <trkpt lat="43.00136" lon="-0.51096">
        <ele>1004.234619</ele>
        <time>2011-08-28T15:07:35Z</time>
      </trkpt>
      <trkpt lat="43.0014" lon="-0.51101">
        <ele>1003.753662</ele>
        <time>2011-08-28T15:07:40Z</time>
      </trkpt>
      <trkpt lat="43.00161" lon="-0.51116">
        <ele>1000.869629</ele>
        <time>2011-08-28T15:07:57Z</time>
      </trkpt>
      <trkpt lat="43.00164" lon="-0.51118">
        <ele>1000.38916</ele>
        <time>2011-08-28T15:08:01Z</time>
      </trkpt>
      <trkpt lat="43.00175" lon="-0.51118">
        <ele>998.947021</ele>
        <time>2011-08-28T15:08:11Z</time>
      </trkpt>
      <trkpt lat="43.00192" lon="-0.51121">
        <ele>997.024414</ele>
        <time>2011-08-28T15:08:23Z</time>
      </trkpt>
      <trkpt lat="43.00204" lon="-0.51122">
        <ele>996.063232</ele>
        <time>2011-08-28T15:08:34Z</time>
      </trkpt>
      <trkpt lat="43.00219" lon="-0.51123">
        <ele>993.179199</ele>
        <time>2011-08-28T15:08:48Z</time>
      </trkpt>
      <trkpt lat="43.00234" lon="-0.51122">
        <ele>992.218018</ele>
        <time>2011-08-28T15:09:02Z</time>
      </trkpt>
      <trkpt lat="43.00247" lon="-0.51131">
        <ele>989.814697</ele>
        <time>2011-08-28T15:09:12Z</time>
      </trkpt>
      <trkpt lat="43.00248" lon="-0.51134">
        <ele>990.29541</ele>
        <time>2011-08-28T15:09:13Z</time>
      </trkpt>
      <trkpt lat="43.00246" lon="-0.51148">
        <ele>989.333984</ele>
        <time>2011-08-28T15:09:19Z</time>
      </trkpt>
      <trkpt lat="43.00241" lon="-0.51158">
        <ele>989.814697</ele>
        <time>2011-08-28T15:09:25Z</time>
      </trkpt>
      <trkpt lat="43.0023" lon="-0.5117">
        <ele>989.333984</ele>
        <time>2011-08-28T15:09:41Z</time>
      </trkpt>
      <trkpt lat="43.00225" lon="-0.51186">
        <ele>987.411133</ele>
        <time>2011-08-28T15:09:51Z</time>
      </trkpt>
      <trkpt lat="43.00221" lon="-0.51211">
        <ele>984.046631</ele>
        <time>2011-08-28T15:10:07Z</time>
      </trkpt>
      <trkpt lat="43.00218" lon="-0.51248">
        <ele>982.604736</ele>
        <time>2011-08-28T15:10:26Z</time>
      </trkpt>
      <trkpt lat="43.00215" lon="-0.51274">
        <ele>979.23999</ele>
        <time>2011-08-28T15:10:42Z</time>
      </trkpt>
      <trkpt lat="43.00207" lon="-0.51304">
        <ele>976.836914</ele>
        <time>2011-08-28T15:11:04Z</time>
      </trkpt>
      <trkpt lat="43.0023" lon="-0.51323">
        <ele>974.433594</ele>
        <time>2011-08-28T15:11:23Z</time>
      </trkpt>
      <trkpt lat="43.00248" lon="-0.51334">
        <ele>972.991699</ele>
        <time>2011-08-28T15:11:37Z</time>
      </trkpt>
      <trkpt lat="43.00273" lon="-0.51354">
        <ele>970.588135</ele>
        <time>2011-08-28T15:11:58Z</time>
      </trkpt>
      <trkpt lat="43.0029" lon="-0.51373">
        <ele>967.223633</ele>
        <time>2011-08-28T15:12:16Z</time>
      </trkpt>
      <trkpt lat="43.00299" lon="-0.51384">
        <ele>967.223633</ele>
        <time>2011-08-28T15:12:27Z</time>
      </trkpt>
      <trkpt lat="43.00302" lon="-0.51385">
        <ele>966.262207</ele>
        <time>2011-08-28T15:12:30Z</time>
      </trkpt>
      <trkpt lat="43.00318" lon="-0.51393">
        <ele>965.781738</ele>
        <time>2011-08-28T15:12:44Z</time>
      </trkpt>
      <trkpt lat="43.00343" lon="-0.51408">
        <ele>962.897705</ele>
        <time>2011-08-28T15:13:03Z</time>
      </trkpt>
      <trkpt lat="43.0036" lon="-0.51429">
        <ele>960.975098</ele>
        <time>2011-08-28T15:13:25Z</time>
      </trkpt>
      <trkpt lat="43.00376" lon="-0.51445">
        <ele>958.571777</ele>
        <time>2011-08-28T15:13:44Z</time>
      </trkpt>
      <trkpt lat="43.00387" lon="-0.51451">
        <ele>956.64917</ele>
        <time>2011-08-28T15:13:55Z</time>
      </trkpt>
      <trkpt lat="43.00408" lon="-0.51463">
        <ele>954.24585</ele>
        <time>2011-08-28T15:14:13Z</time>
      </trkpt>
      <trkpt lat="43.00428" lon="-0.51476">
        <ele>952.803711</ele>
        <time>2011-08-28T15:14:32Z</time>
      </trkpt>
      <trkpt lat="43.00449" lon="-0.51482">
        <ele>950.881104</ele>
        <time>2011-08-28T15:14:49Z</time>
      </trkpt>
      <trkpt lat="43.00466" lon="-0.51486">
        <ele>947.516602</ele>
        <time>2011-08-28T15:15:06Z</time>
      </trkpt>
      <trkpt lat="43.00487" lon="-0.51486">
        <ele>945.593994</ele>
        <time>2011-08-28T15:15:24Z</time>
      </trkpt>
      <trkpt lat="43.00503" lon="-0.51486">
        <ele>942.710205</ele>
        <time>2011-08-28T15:15:40Z</time>
      </trkpt>
      <trkpt lat="43.00514" lon="-0.51486">
        <ele>942.229492</ele>
        <time>2011-08-28T15:15:53Z</time>
      </trkpt>
      <trkpt lat="43.00526" lon="-0.5148">
        <ele>940.787354</ele>
        <time>2011-08-28T15:16:04Z</time>
      </trkpt>
      <trkpt lat="43.00537" lon="-0.51472">
        <ele>940.787354</ele>
        <time>2011-08-28T15:16:13Z</time>
      </trkpt>
      <trkpt lat="43.0056" lon="-0.51447">
        <ele>939.825928</ele>
        <time>2011-08-28T15:16:30Z</time>
      </trkpt>
      <trkpt lat="43.00576" lon="-0.51433">
        <ele>937.90332</ele>
        <time>2011-08-28T15:16:46Z</time>
      </trkpt>
      <trkpt lat="43.00589" lon="-0.51423">
        <ele>936.941895</ele>
        <time>2011-08-28T15:16:58Z</time>
      </trkpt>
      <trkpt lat="43.00599" lon="-0.51413">
        <ele>936.461426</ele>
        <time>2011-08-28T15:17:06Z</time>
      </trkpt>
      <trkpt lat="43.0061" lon="-0.51393">
        <ele>935.5</ele>
        <time>2011-08-28T15:17:19Z</time>
      </trkpt>
      <trkpt lat="43.00615" lon="-0.51384">
        <ele>935.019531</ele>
        <time>2011-08-28T15:17:25Z</time>
      </trkpt>
      <trkpt lat="43.0061" lon="-0.51375">
        <ele>935.019531</ele>
        <time>2011-08-28T15:17:30Z</time>
      </trkpt>
      <trkpt lat="43.00612" lon="-0.51356">
        <ele>932.616211</ele>
        <time>2011-08-28T15:17:45Z</time>
      </trkpt>
      <trkpt lat="43.00616" lon="-0.5136">
        <ele>932.616211</ele>
        <time>2011-08-28T15:17:49Z</time>
      </trkpt>
      <trkpt lat="43.00617" lon="-0.51395">
        <ele>931.174316</ele>
        <time>2011-08-28T15:18:08Z</time>
      </trkpt>
      <trkpt lat="43.00611" lon="-0.51424">
        <ele>929.732178</ele>
        <time>2011-08-28T15:18:28Z</time>
      </trkpt>
      <trkpt lat="43.00604" lon="-0.51432">
        <ele>927.80957</ele>
        <time>2011-08-28T15:18:35Z</time>
      </trkpt>
      <trkpt lat="43.00579" lon="-0.51461">
        <ele>926.848389</ele>
        <time>2011-08-28T15:18:52Z</time>
      </trkpt>
      <trkpt lat="43.00562" lon="-0.51479">
        <ele>926.367676</ele>
        <time>2011-08-28T15:19:10Z</time>
      </trkpt>
      <trkpt lat="43.0055" lon="-0.51492">
        <ele>924.925781</ele>
        <time>2011-08-28T15:19:25Z</time>
      </trkpt>
      <trkpt lat="43.00532" lon="-0.51508">
        <ele>923.00293</ele>
        <time>2011-08-28T15:19:40Z</time>
      </trkpt>
      <trkpt lat="43.00513" lon="-0.51528">
        <ele>920.118896</ele>
        <time>2011-08-28T15:19:57Z</time>
      </trkpt>
      <trkpt lat="43.00489" lon="-0.51541">
        <ele>917.235107</ele>
        <time>2011-08-28T15:20:19Z</time>
      </trkpt>
      <trkpt lat="43.00472" lon="-0.5155">
        <ele>913.870361</ele>
        <time>2011-08-28T15:20:34Z</time>
      </trkpt>
      <trkpt lat="43.00447" lon="-0.51561">
        <ele>910.986572</ele>
        <time>2011-08-28T15:20:56Z</time>
      </trkpt>
      <trkpt lat="43.00421" lon="-0.51568">
        <ele>908.583252</ele>
        <time>2011-08-28T15:21:19Z</time>
      </trkpt>
      <trkpt lat="43.00399" lon="-0.51567">
        <ele>905.218506</ele>
        <time>2011-08-28T15:21:38Z</time>
      </trkpt>
      <trkpt lat="43.00377" lon="-0.51561">
        <ele>902.815186</ele>
        <time>2011-08-28T15:21:57Z</time>
      </trkpt>
      <trkpt lat="43.00374" lon="-0.5156">
        <ele>901.373291</ele>
        <time>2011-08-28T15:22:00Z</time>
      </trkpt>
      <trkpt lat="43.00353" lon="-0.51554">
        <ele>898.008789</ele>
        <time>2011-08-28T15:22:18Z</time>
      </trkpt>
      <trkpt lat="43.00331" lon="-0.51558">
        <ele>896.086182</ele>
        <time>2011-08-28T15:22:39Z</time>
      </trkpt>
      <trkpt lat="43.00328" lon="-0.51571">
        <ele>894.163574</ele>
        <time>2011-08-28T15:22:48Z</time>
      </trkpt>
      <trkpt lat="43.00321" lon="-0.51595">
        <ele>891.279297</ele>
        <time>2011-08-28T15:23:04Z</time>
      </trkpt>
      <trkpt lat="43.00312" lon="-0.51614">
        <ele>888.395508</ele>
        <time>2011-08-28T15:23:18Z</time>
      </trkpt>
      <trkpt lat="43.00293" lon="-0.51627">
        <ele>885.511475</ele>
        <time>2011-08-28T15:23:36Z</time>
      </trkpt>
      <trkpt lat="43.00273" lon="-0.51635">
        <ele>881.66626</ele>
        <time>2011-08-28T15:23:53Z</time>
      </trkpt>
      <trkpt lat="43.00247" lon="-0.51636">
        <ele>878.782471</ele>
        <time>2011-08-28T15:24:14Z</time>
      </trkpt>
      <trkpt lat="43.00222" lon="-0.5163">
        <ele>875.41748</ele>
        <time>2011-08-28T15:24:35Z</time>
      </trkpt>
      <trkpt lat="43.00198" lon="-0.51622">
        <ele>872.533691</ele>
        <time>2011-08-28T15:24:56Z</time>
      </trkpt>
      <trkpt lat="43.00192" lon="-0.51617">
        <ele>871.572266</ele>
        <time>2011-08-28T15:25:03Z</time>
      </trkpt>
      <trkpt lat="43.00184" lon="-0.51609">
        <ele>871.091797</ele>
        <time>2011-08-28T15:25:16Z</time>
      </trkpt>
      <trkpt lat="43.00171" lon="-0.51608">
        <ele>869.649902</ele>
        <time>2011-08-28T15:25:31Z</time>
      </trkpt>
      <trkpt lat="43.0017" lon="-0.51611">
        <ele>869.649902</ele>
        <time>2011-08-28T15:25:49Z</time>
      </trkpt>
      <trkpt lat="43.00175" lon="-0.51617">
        <ele>870.611084</ele>
        <time>2011-08-28T15:25:59Z</time>
      </trkpt>
    </trkseg>
  </trk>
</gpx>